Time,TemperatureF,DewpointF,PressureIn,WindDirection,WindDirectionDegrees,WindSpeedMPH,WindSpeedGustMPH,Humidity,HourlyPrecipIn,Conditions,Clouds,dailyrainin,SoftwareType,DateUTC
2013-06-08 00:01:00,55.3,50.6,29.81,SW,219,0.0,0.0,84,0.00,,---,0.00,VWS V14.01,2013-06-08 04:01:00,
2013-06-08 00:05:00,54.6,49.9,29.81,SW,219,0.0,0.0,84,0.00,,---,0.00,VWS V14.01,2013-06-08 04:05:00,
2013-06-08 00:06:00,55.2,50.5,29.81,SW,219,0.0,0.0,84,0.00,,---,0.00,VWS V14.01,2013-06-08 04:06:00,
2013-06-08 00:09:00,54.4,50.0,29.81,SW,219,0.0,0.0,85,0.00,,---,0.00,VWS V14.01,2013-06-08 04:09:00,
2013-06-08 00:11:00,54.8,49.7,29.81,SW,219,0.0,0.0,83,0.00,,---,0.00,VWS V14.01,2013-06-08 04:11:00,
2013-06-08 00:14:00,54.2,50.4,29.81,SW,219,0.0,0.0,87,0.00,,---,0.00,VWS V14.01,2013-06-08 04:14:00,
2013-06-08 00:16:00,54.5,49.8,29.81,SW,219,0.0,0.0,84,0.00,,---,0.00,VWS V14.01,2013-06-08 04:16:00,
2013-06-08 00:17:00,54.1,50.6,29.81,SW,219,0.0,0.0,88,0.00,,---,0.00,VWS V14.01,2013-06-08 04:17:00,
2013-06-08 00:19:00,54.1,50.9,29.81,SW,219,0.0,0.0,89,0.00,,---,0.00,VWS V14.01,2013-06-08 04:19:00,
2013-06-08 00:21:00,54.3,50.2,29.81,SW,219,0.0,0.0,86,0.00,,---,0.00,VWS V14.01,2013-06-08 04:21:00,
2013-06-08 00:22:00,53.9,50.4,29.81,SW,219,0.0,0.0,88,0.00,,---,0.00,VWS V14.01,2013-06-08 04:22:00,
2013-06-08 00:26:00,54.1,50.6,29.81,SW,219,0.0,0.0,88,0.00,,---,0.00,VWS V14.01,2013-06-08 04:26:00,
2013-06-08 00:29:00,53.7,50.5,29.81,SW,219,0.0,0.0,89,0.00,,---,0.00,VWS V14.01,2013-06-08 04:29:00,
2013-06-08 00:31:00,54.0,50.5,29.81,SW,219,0.0,0.0,88,0.00,,---,0.00,VWS V14.01,2013-06-08 04:31:00,
2013-06-08 00:34:00,53.6,50.4,29.81,SW,219,0.0,0.0,89,0.00,,---,0.00,VWS V14.01,2013-06-08 04:34:00,
2013-06-08 00:36:00,53.7,50.2,29.81,SW,219,0.0,0.0,88,0.00,,---,0.00,VWS V14.01,2013-06-08 04:36:00,
2013-06-08 00:37:00,53.6,50.4,29.81,SW,219,0.0,0.0,89,0.00,,---,0.00,VWS V14.01,2013-06-08 04:37:00,
2013-06-08 00:41:00,53.7,50.5,29.81,SW,219,0.0,0.0,89,0.00,,---,0.00,VWS V14.01,2013-06-08 04:41:00,
2013-06-08 00:46:00,53.6,50.4,29.81,SW,219,0.0,0.0,89,0.00,,---,0.00,VWS V14.01,2013-06-08 04:46:00,
2013-06-08 00:47:00,53.5,50.3,29.81,SW,219,0.0,0.0,89,0.00,,---,0.00,VWS V14.01,2013-06-08 04:47:00,
2013-06-08 00:49:00,53.4,50.2,29.81,SW,219,0.0,0.0,89,0.00,,---,0.00,VWS V14.01,2013-06-08 04:49:00,
2013-06-08 00:51:00,53.5,50.3,29.81,SW,219,0.0,0.0,89,0.00,,---,0.00,VWS V14.01,2013-06-08 04:51:00,
2013-06-08 00:52:00,53.2,50.0,29.81,SW,219,0.0,0.0,89,0.00,,---,0.00,VWS V14.01,2013-06-08 04:52:00,
2013-06-08 00:53:00,53.2,50.0,29.81,SW,219,0.0,0.0,89,0.00,,---,0.00,VWS V14.01,2013-06-08 04:53:00,
2013-06-08 00:55:00,53.2,50.0,29.81,SW,219,0.0,0.0,89,0.00,,---,0.00,VWS V14.01,2013-06-08 04:55:00,
2013-06-08 00:56:00,53.5,50.3,29.81,SW,219,0.0,0.0,89,0.00,,---,0.00,VWS V14.01,2013-06-08 04:56:00,
2013-06-08 01:01:00,53.3,50.2,29.81,SW,219,0.0,0.0,89,0.00,,---,0.00,VWS V14.01,2013-06-08 05:01:00,
2013-06-08 01:02:00,53.1,50.0,29.81,SW,219,0.0,0.0,89,0.00,,---,0.00,VWS V14.01,2013-06-08 05:02:00,
2013-06-08 01:06:00,53.1,50.0,29.81,SW,219,0.0,0.0,89,0.00,,---,0.00,VWS V14.01,2013-06-08 05:06:00,
2013-06-08 01:11:00,53.1,50.0,29.81,SW,219,0.0,0.0,89,0.00,,---,0.00,VWS V14.01,2013-06-08 05:11:00,
2013-06-08 01:16:00,53.1,50.0,29.81,SW,219,0.0,0.0,89,0.00,,---,0.00,VWS V14.01,2013-06-08 05:16:00,
2013-06-08 01:18:00,52.5,49.7,29.81,SW,219,0.0,0.0,90,0.00,,---,0.00,VWS V14.01,2013-06-08 05:18:00,
2013-06-08 01:21:00,52.9,49.8,29.81,SW,219,0.0,0.0,89,0.00,,---,0.00,VWS V14.01,2013-06-08 05:21:00,
2013-06-08 01:22:00,52.5,49.7,29.81,SW,219,0.0,0.0,90,0.00,,---,0.00,VWS V14.01,2013-06-08 05:22:00,
2013-06-08 01:23:00,52.5,50.0,29.81,SW,219,0.0,0.0,91,0.00,,---,0.00,VWS V14.01,2013-06-08 05:23:00,
2013-06-08 01:26:00,52.6,49.8,29.81,SW,219,0.0,0.0,90,0.00,,---,0.00,VWS V14.01,2013-06-08 05:26:00,
2013-06-08 01:31:00,52.5,49.7,29.81,SW,219,0.0,0.0,90,0.00,,---,0.00,VWS V14.01,2013-06-08 05:31:00,
2013-06-08 01:32:00,52.3,49.8,29.80,SW,219,0.0,0.0,91,0.00,,---,0.00,VWS V14.01,2013-06-08 05:32:00,
2013-06-08 01:35:00,52.2,49.7,29.80,SW,219,0.0,0.0,91,0.00,,---,0.00,VWS V14.01,2013-06-08 05:35:00,
2013-06-08 01:36:00,52.4,49.8,29.81,SW,219,0.0,0.0,91,0.00,,---,0.00,VWS V14.01,2013-06-08 05:36:00,
2013-06-08 01:41:00,52.3,49.8,29.80,SW,219,0.0,0.0,91,0.00,,---,0.00,VWS V14.01,2013-06-08 05:41:00,
2013-06-08 01:42:00,52.0,49.8,29.80,SW,219,0.0,0.0,92,0.00,,---,0.00,VWS V14.01,2013-06-08 05:42:00,
2013-06-08 01:45:00,51.9,49.7,29.80,SW,219,0.0,0.0,92,0.00,,---,0.00,VWS V14.01,2013-06-08 05:45:00,
2013-06-08 01:46:00,52.2,50.0,29.80,SW,219,0.0,0.0,92,0.00,,---,0.00,VWS V14.01,2013-06-08 05:46:00,
2013-06-08 01:48:00,51.9,49.7,29.80,SW,219,0.0,0.0,92,0.00,,---,0.00,VWS V14.01,2013-06-08 05:48:00,
2013-06-08 01:51:00,52.1,49.8,29.80,SW,219,0.0,0.0,92,0.00,,---,0.00,VWS V14.01,2013-06-08 05:51:00,
2013-06-08 01:52:00,51.8,49.5,29.80,SW,219,0.0,0.0,92,0.00,,---,0.00,VWS V14.01,2013-06-08 05:52:00,
2013-06-08 01:54:00,51.8,49.5,29.80,SW,219,0.0,0.0,92,0.00,,---,0.00,VWS V14.01,2013-06-08 05:54:00,
2013-06-08 01:56:00,51.9,49.7,29.80,SW,219,0.0,0.0,92,0.00,,---,0.00,VWS V14.01,2013-06-08 05:56:00,
2013-06-08 01:58:00,51.7,49.8,29.80,SW,219,0.0,0.0,93,0.00,,---,0.00,VWS V14.01,2013-06-08 05:58:00,
2013-06-08 01:59:00,51.6,49.7,29.80,SW,219,0.0,0.0,93,0.00,,---,0.00,VWS V14.01,2013-06-08 05:59:00,
2013-06-08 02:01:00,51.8,49.5,29.80,SW,219,0.0,0.0,92,0.00,,---,0.00,VWS V14.01,2013-06-08 06:01:00,
2013-06-08 02:02:00,51.6,49.4,29.80,SW,219,0.0,0.0,92,0.00,,---,0.00,VWS V14.01,2013-06-08 06:02:00,
2013-06-08 02:05:00,51.7,49.8,29.80,SW,219,0.0,0.0,93,0.00,,---,0.00,VWS V14.01,2013-06-08 06:05:00,
2013-06-08 02:06:00,51.7,49.5,29.80,SW,219,0.0,0.0,92,0.00,,---,0.00,VWS V14.01,2013-06-08 06:06:00,
2013-06-08 02:07:00,51.6,49.4,29.80,SW,219,0.0,0.0,92,0.00,,---,0.00,VWS V14.01,2013-06-08 06:07:00,
2013-06-08 02:10:00,51.5,49.3,29.80,SW,219,0.0,0.0,92,0.00,,---,0.00,VWS V14.01,2013-06-08 06:10:00,
2013-06-08 02:11:00,51.6,49.4,29.80,SW,219,0.0,0.0,92,0.00,,---,0.00,VWS V14.01,2013-06-08 06:11:00,
2013-06-08 02:14:00,51.5,49.5,29.80,SW,219,0.0,0.0,93,0.00,,---,0.00,VWS V14.01,2013-06-08 06:14:00,
2013-06-08 02:16:00,51.7,49.8,29.80,SW,219,0.0,0.0,93,0.00,,---,0.00,VWS V14.01,2013-06-08 06:16:00,
2013-06-08 02:17:00,51.5,49.5,29.80,SW,219,0.0,0.0,93,0.00,,---,0.00,VWS V14.01,2013-06-08 06:17:00,
2013-06-08 02:19:00,51.6,49.7,29.80,SW,219,0.0,0.0,93,0.00,,---,0.00,VWS V14.01,2013-06-08 06:19:00,
2013-06-08 02:21:00,51.5,49.5,29.80,SW,219,0.0,0.0,93,0.00,,---,0.00,VWS V14.01,2013-06-08 06:21:00,
2013-06-08 02:23:00,51.6,49.7,29.80,SW,219,0.0,0.0,93,0.00,,---,0.00,VWS V14.01,2013-06-08 06:23:00,
2013-06-08 02:24:00,51.6,49.7,29.80,SW,219,0.0,0.0,93,0.00,,---,0.00,VWS V14.01,2013-06-08 06:24:00,
2013-06-08 02:26:00,51.5,49.5,29.80,SW,219,0.0,0.0,93,0.00,,---,0.00,VWS V14.01,2013-06-08 06:26:00,
2013-06-08 02:27:00,51.5,49.5,29.80,SW,219,0.0,0.0,93,0.00,,---,0.00,VWS V14.01,2013-06-08 06:27:00,
2013-06-08 02:31:00,51.5,49.5,29.80,SW,219,0.0,0.0,93,0.00,,---,0.00,VWS V14.01,2013-06-08 06:31:00,
2013-06-08 02:34:00,51.4,49.7,29.80,SW,219,0.0,0.0,94,0.00,,---,0.00,VWS V14.01,2013-06-08 06:34:00,
2013-06-08 02:36:00,51.5,49.5,29.80,SW,219,0.0,0.0,93,0.00,,---,0.00,VWS V14.01,2013-06-08 06:36:00,
2013-06-08 02:38:00,51.4,49.7,29.80,SW,219,0.0,0.0,94,0.00,,---,0.00,VWS V14.01,2013-06-08 06:38:00,
2013-06-08 02:39:00,51.4,49.7,29.80,SW,219,0.0,0.0,94,0.00,,---,0.00,VWS V14.01,2013-06-08 06:39:00,
2013-06-08 02:40:00,51.4,49.7,29.80,SW,219,0.0,0.0,94,0.00,,---,0.00,VWS V14.01,2013-06-08 06:40:00,
2013-06-08 02:41:00,51.5,49.5,29.80,SW,219,0.0,0.0,93,0.00,,---,0.00,VWS V14.01,2013-06-08 06:41:00,
2013-06-08 02:42:00,51.4,49.7,29.80,SW,219,0.0,0.0,94,0.00,,---,0.00,VWS V14.01,2013-06-08 06:42:00,
2013-06-08 02:43:00,51.4,49.7,29.80,SW,219,0.0,0.0,94,0.00,,---,0.00,VWS V14.01,2013-06-08 06:43:00,
2013-06-08 02:46:00,51.4,49.5,29.80,SW,219,0.0,0.0,93,0.00,,---,0.00,VWS V14.01,2013-06-08 06:46:00,
2013-06-08 02:47:00,51.4,49.7,29.81,SW,219,0.0,0.0,94,0.00,,---,0.00,VWS V14.01,2013-06-08 06:47:00,
2013-06-08 02:50:00,51.4,49.7,29.81,SW,219,0.0,0.0,94,0.00,,---,0.00,VWS V14.01,2013-06-08 06:50:00,
2013-06-08 02:51:00,51.4,49.7,29.80,SW,219,0.0,0.0,94,0.00,,---,0.00,VWS V14.01,2013-06-08 06:51:00,
2013-06-08 02:53:00,51.4,49.7,29.81,SW,219,0.0,0.0,94,0.00,,---,0.00,VWS V14.01,2013-06-08 06:53:00,
2013-06-08 02:54:00,51.4,49.7,29.81,SW,219,0.0,0.0,94,0.00,,---,0.00,VWS V14.01,2013-06-08 06:54:00,
2013-06-08 02:56:00,51.4,49.7,29.81,SW,219,0.0,0.0,94,0.00,,---,0.00,VWS V14.01,2013-06-08 06:56:00,
2013-06-08 02:58:00,51.4,49.7,29.81,SW,219,0.0,0.0,94,0.00,,---,0.00,VWS V14.01,2013-06-08 06:58:00,
2013-06-08 03:01:00,51.4,49.7,29.81,SW,219,0.0,0.0,94,0.00,,---,0.00,VWS V14.01,2013-06-08 07:01:00,
2013-06-08 03:02:00,51.2,49.5,29.81,SW,219,0.0,0.0,94,0.00,,---,0.00,VWS V14.01,2013-06-08 07:02:00,
2013-06-08 03:06:00,51.4,49.7,29.81,SW,219,0.0,0.0,94,0.00,,---,0.00,VWS V14.01,2013-06-08 07:06:00,
2013-06-08 03:07:00,51.0,49.3,29.81,SW,219,0.0,0.0,94,0.00,,---,0.00,VWS V14.01,2013-06-08 07:07:00,
2013-06-08 03:08:00,50.9,49.2,29.81,SW,219,0.0,0.0,94,0.00,,---,0.00,VWS V14.01,2013-06-08 07:08:00,
2013-06-08 03:10:00,50.8,49.1,29.81,SW,219,0.0,0.0,94,0.00,,---,0.00,VWS V14.01,2013-06-08 07:10:00,
2013-06-08 03:11:00,51.2,49.5,29.81,SW,219,0.0,0.0,94,0.00,,---,0.00,VWS V14.01,2013-06-08 07:11:00,
2013-06-08 03:12:00,50.8,49.1,29.81,SW,219,0.0,0.0,94,0.00,,---,0.00,VWS V14.01,2013-06-08 07:12:00,
2013-06-08 03:15:00,50.8,49.1,29.81,SW,219,0.0,0.0,94,0.00,,---,0.00,VWS V14.01,2013-06-08 07:15:00,
2013-06-08 03:16:00,51.0,49.3,29.81,SW,219,0.0,0.0,94,0.00,,---,0.00,VWS V14.01,2013-06-08 07:16:00,
2013-06-08 03:17:00,50.8,49.4,29.81,SW,219,0.0,0.0,95,0.00,,---,0.00,VWS V14.01,2013-06-08 07:17:00,
2013-06-08 03:19:00,50.8,49.4,29.81,SW,219,0.0,0.0,95,0.00,,---,0.00,VWS V14.01,2013-06-08 07:19:00,
2013-06-08 03:21:00,50.8,49.1,29.81,SW,219,0.0,0.0,94,0.00,,---,0.00,VWS V14.01,2013-06-08 07:21:00,
2013-06-08 03:26:00,50.8,49.1,29.81,SW,219,0.0,0.0,94,0.00,,---,0.00,VWS V14.01,2013-06-08 07:26:00,
2013-06-08 03:27:00,50.8,49.4,29.81,SW,219,0.0,0.0,95,0.00,,---,0.00,VWS V14.01,2013-06-08 07:27:00,
2013-06-08 03:28:00,50.7,49.3,29.81,SW,219,0.0,0.0,95,0.00,,---,0.00,VWS V14.01,2013-06-08 07:28:00,
2013-06-08 03:31:00,50.8,49.4,29.81,SW,219,0.0,0.0,95,0.00,,---,0.00,VWS V14.01,2013-06-08 07:31:00,
2013-06-08 03:35:00,50.7,49.3,29.81,SW,219,0.0,0.0,95,0.00,,---,0.00,VWS V14.01,2013-06-08 07:35:00,
2013-06-08 03:36:00,50.7,49.3,29.81,SW,219,0.0,0.0,95,0.00,,---,0.00,VWS V14.01,2013-06-08 07:36:00,
2013-06-08 03:37:00,50.8,49.4,29.81,SW,219,0.0,0.0,95,0.00,,---,0.00,VWS V14.01,2013-06-08 07:37:00,
2013-06-08 03:38:00,50.7,49.3,29.81,SW,219,0.0,0.0,95,0.00,,---,0.00,VWS V14.01,2013-06-08 07:38:00,
2013-06-08 03:39:00,50.8,49.4,29.81,SW,219,0.0,0.0,95,0.00,,---,0.00,VWS V14.01,2013-06-08 07:39:00,
2013-06-08 03:40:00,50.8,49.4,29.81,SW,219,0.0,0.0,95,0.00,,---,0.00,VWS V14.01,2013-06-08 07:40:00,
2013-06-08 03:41:00,50.7,49.3,29.81,SW,219,0.0,0.0,95,0.00,,---,0.00,VWS V14.01,2013-06-08 07:41:00,
2013-06-08 03:42:00,50.8,49.4,29.81,SW,219,0.0,0.0,95,0.00,,---,0.00,VWS V14.01,2013-06-08 07:42:00,
2013-06-08 03:43:00,50.8,49.4,29.81,SW,219,0.0,0.0,95,0.00,,---,0.00,VWS V14.01,2013-06-08 07:43:00,
2013-06-08 03:46:00,50.7,49.3,29.81,SW,219,0.0,0.0,95,0.00,,---,0.00,VWS V14.01,2013-06-08 07:46:00,
2013-06-08 03:47:00,50.8,49.4,29.81,SW,219,0.0,0.0,95,0.00,,---,0.00,VWS V14.01,2013-06-08 07:47:00,
2013-06-08 03:48:00,50.8,49.4,29.81,SW,219,0.0,0.0,95,0.00,,---,0.00,VWS V14.01,2013-06-08 07:48:00,
2013-06-08 03:49:00,50.8,49.4,29.81,SW,219,0.0,0.0,95,0.00,,---,0.00,VWS V14.01,2013-06-08 07:49:00,
2013-06-08 03:51:00,50.8,49.4,29.81,SW,219,0.0,0.0,95,0.00,,---,0.00,VWS V14.01,2013-06-08 07:51:00,
2013-06-08 03:52:00,50.8,49.4,29.81,SW,219,0.0,0.0,95,0.00,,---,0.00,VWS V14.01,2013-06-08 07:52:00,
2013-06-08 03:54:00,50.8,49.4,29.81,SW,219,0.0,0.0,95,0.00,,---,0.00,VWS V14.01,2013-06-08 07:54:00,
2013-06-08 03:56:00,50.8,49.4,29.81,SW,219,0.0,0.0,95,0.00,,---,0.00,VWS V14.01,2013-06-08 07:56:00,
2013-06-08 03:57:00,50.8,49.4,29.81,SW,219,0.0,0.0,95,0.00,,---,0.00,VWS V14.01,2013-06-08 07:57:00,
2013-06-08 03:58:00,50.8,49.4,29.81,SW,219,0.0,0.0,95,0.00,,---,0.00,VWS V14.01,2013-06-08 07:58:00,
2013-06-08 03:59:00,50.8,49.4,29.81,SW,219,0.0,0.0,95,0.00,,---,0.00,VWS V14.01,2013-06-08 07:59:00,
2013-06-08 04:00:00,50.8,49.4,29.81,SW,219,0.0,0.0,95,0.00,,---,0.00,VWS V14.01,2013-06-08 08:00:00,
2013-06-08 04:01:00,50.8,49.4,29.81,SW,219,0.0,0.0,95,0.00,,---,0.00,VWS V14.01,2013-06-08 08:01:00,
2013-06-08 04:03:00,50.8,49.4,29.81,SW,219,0.0,0.0,95,0.00,,---,0.00,VWS V14.01,2013-06-08 08:03:00,
2013-06-08 04:04:00,50.8,49.4,29.81,SW,219,0.0,0.0,95,0.00,,---,0.00,VWS V14.01,2013-06-08 08:04:00,
2013-06-08 04:05:00,50.7,49.3,29.81,SW,219,0.0,0.0,95,0.00,,---,0.00,VWS V14.01,2013-06-08 08:05:00,
2013-06-08 04:06:00,50.8,49.4,29.81,SW,219,0.0,0.0,95,0.00,,---,0.00,VWS V14.01,2013-06-08 08:06:00,
2013-06-08 04:07:00,50.7,49.3,29.81,SW,219,0.0,0.0,95,0.00,,---,0.00,VWS V14.01,2013-06-08 08:07:00,
2013-06-08 04:08:00,50.7,49.3,29.81,SW,219,0.0,0.0,95,0.00,,---,0.00,VWS V14.01,2013-06-08 08:08:00,
2013-06-08 04:10:00,50.7,49.3,29.81,SW,219,0.0,0.0,95,0.00,,---,0.00,VWS V14.01,2013-06-08 08:10:00,
2013-06-08 04:11:00,50.8,49.4,29.81,SW,219,0.0,0.0,95,0.00,,---,0.00,VWS V14.01,2013-06-08 08:11:00,
2013-06-08 04:15:00,50.6,49.2,29.81,SW,219,0.0,0.0,95,0.00,,---,0.00,VWS V14.01,2013-06-08 08:15:00,
2013-06-08 04:16:00,50.7,49.3,29.81,SW,219,0.0,0.0,95,0.00,,---,0.00,VWS V14.01,2013-06-08 08:16:00,
2013-06-08 04:17:00,50.6,49.2,29.81,SW,219,0.0,0.0,95,0.00,,---,0.00,VWS V14.01,2013-06-08 08:17:00,
2013-06-08 04:18:00,50.7,49.3,29.81,SW,219,0.0,0.0,95,0.00,,---,0.00,VWS V14.01,2013-06-08 08:18:00,
2013-06-08 04:19:00,50.7,49.3,29.81,SW,219,0.0,0.0,95,0.00,,---,0.00,VWS V14.01,2013-06-08 08:19:00,
2013-06-08 04:20:00,50.6,49.2,29.81,SW,219,0.0,0.0,95,0.00,,---,0.00,VWS V14.01,2013-06-08 08:20:00,
2013-06-08 04:22:00,50.6,49.2,29.81,SW,219,0.0,0.0,95,0.00,,---,0.00,VWS V14.01,2013-06-08 08:22:00,
2013-06-08 04:23:00,50.6,49.2,29.81,SW,219,0.0,0.0,95,0.00,,---,0.00,VWS V14.01,2013-06-08 08:23:00,
2013-06-08 04:24:00,50.6,49.2,29.81,SW,219,0.0,0.0,95,0.00,,---,0.00,VWS V14.01,2013-06-08 08:24:00,
2013-06-08 04:25:00,50.6,49.2,29.81,SW,219,0.0,0.0,95,0.00,,---,0.00,VWS V14.01,2013-06-08 08:25:00,
2013-06-08 04:26:00,50.6,49.2,29.81,SW,219,0.0,0.0,95,0.00,,---,0.00,VWS V14.01,2013-06-08 08:26:00,
2013-06-08 04:27:00,50.6,49.2,29.81,SW,219,0.0,0.0,95,0.00,,---,0.00,VWS V14.01,2013-06-08 08:27:00,
2013-06-08 04:28:00,50.5,49.1,29.81,SW,219,0.0,0.0,95,0.00,,---,0.00,VWS V14.01,2013-06-08 08:28:00,
2013-06-08 04:30:00,50.7,49.3,29.81,SW,219,0.0,0.0,95,0.00,,---,0.00,VWS V14.01,2013-06-08 08:30:00,
2013-06-08 04:31:00,50.5,49.1,29.81,SW,219,0.0,0.0,95,0.00,,---,0.00,VWS V14.01,2013-06-08 08:31:00,
2013-06-08 04:32:00,50.5,49.1,29.81,SW,219,0.0,0.0,95,0.00,,---,0.00,VWS V14.01,2013-06-08 08:32:00,
2013-06-08 04:34:00,50.5,49.1,29.81,SW,219,0.0,0.0,95,0.00,,---,0.00,VWS V14.01,2013-06-08 08:34:00,
2013-06-08 04:35:00,50.6,49.2,29.81,SW,219,0.0,0.0,95,0.00,,---,0.00,VWS V14.01,2013-06-08 08:35:00,
2013-06-08 04:38:00,50.5,49.1,29.81,SW,219,0.0,0.0,95,0.00,,---,0.00,VWS V14.01,2013-06-08 08:38:00,
2013-06-08 04:39:00,50.5,49.1,29.81,SW,219,0.0,0.0,95,0.00,,---,0.00,VWS V14.01,2013-06-08 08:39:00,
2013-06-08 04:40:00,50.5,49.1,29.81,SW,219,0.0,0.0,95,0.00,,---,0.00,VWS V14.01,2013-06-08 08:40:00,
2013-06-08 04:42:00,50.5,49.4,29.81,SW,219,0.0,0.0,96,0.00,,---,0.00,VWS V14.01,2013-06-08 08:42:00,
2013-06-08 04:43:00,50.4,49.3,29.81,SW,219,0.0,0.0,96,0.00,,---,0.00,VWS V14.01,2013-06-08 08:43:00,
2013-06-08 04:45:00,50.4,49.0,29.81,SW,219,0.0,0.0,95,0.00,,---,0.00,VWS V14.01,2013-06-08 08:45:00,
2013-06-08 04:46:00,50.5,49.4,29.82,SW,219,0.0,0.0,96,0.00,,---,0.00,VWS V14.01,2013-06-08 08:46:00,
2013-06-08 04:47:00,50.5,49.4,29.82,SW,219,0.0,0.0,96,0.00,,---,0.00,VWS V14.01,2013-06-08 08:47:00,
2013-06-08 04:49:00,50.5,49.4,29.82,SW,219,0.0,0.0,96,0.00,,---,0.00,VWS V14.01,2013-06-08 08:49:00,
2013-06-08 04:50:00,50.5,49.4,29.81,SW,219,0.0,0.0,96,0.00,,---,0.00,VWS V14.01,2013-06-08 08:50:00,
2013-06-08 04:51:00,50.6,49.5,29.82,SW,219,0.0,0.0,96,0.00,,---,0.00,VWS V14.01,2013-06-08 08:51:00,
2013-06-08 04:52:00,50.6,49.5,29.82,SW,219,0.0,0.0,96,0.00,,---,0.00,VWS V14.01,2013-06-08 08:52:00,
2013-06-08 04:53:00,50.6,49.5,29.82,SW,219,0.0,0.0,96,0.00,,---,0.00,VWS V14.01,2013-06-08 08:53:00,
2013-06-08 04:54:00,50.6,49.5,29.82,SW,219,0.0,0.0,96,0.00,,---,0.00,VWS V14.01,2013-06-08 08:54:00,
2013-06-08 04:55:00,50.5,49.4,29.82,SW,219,0.0,0.0,96,0.00,,---,0.00,VWS V14.01,2013-06-08 08:55:00,
2013-06-08 04:58:00,50.6,49.5,29.82,SW,219,0.0,0.0,96,0.00,,---,0.00,VWS V14.01,2013-06-08 08:58:00,
2013-06-08 04:59:00,50.6,49.5,29.82,SW,219,0.0,0.0,96,0.00,,---,0.00,VWS V14.01,2013-06-08 08:59:00,
2013-06-08 05:00:00,50.6,49.5,29.82,SW,219,0.0,0.0,96,0.00,,---,0.00,VWS V14.01,2013-06-08 09:00:00,
2013-06-08 05:01:00,50.6,49.5,29.82,SW,219,0.0,0.0,96,0.00,,---,0.00,VWS V14.01,2013-06-08 09:01:00,
2013-06-08 05:02:00,50.6,49.5,29.82,SW,219,0.0,0.0,96,0.00,,---,0.00,VWS V14.01,2013-06-08 09:02:00,
2013-06-08 05:05:00,50.6,49.5,29.82,SW,219,0.0,0.0,96,0.00,,---,0.00,VWS V14.01,2013-06-08 09:05:00,
2013-06-08 05:06:00,50.7,49.6,29.82,SW,219,0.0,0.0,96,0.00,,---,0.00,VWS V14.01,2013-06-08 09:06:00,
2013-06-08 05:07:00,50.7,49.6,29.82,SW,219,0.0,0.0,96,0.00,,---,0.00,VWS V14.01,2013-06-08 09:07:00,
2013-06-08 05:09:00,50.7,49.6,29.82,SW,219,0.0,0.0,96,0.00,,---,0.00,VWS V14.01,2013-06-08 09:09:00,
2013-06-08 05:10:00,50.6,49.5,29.82,SW,219,0.0,0.0,96,0.00,,---,0.00,VWS V14.01,2013-06-08 09:10:00,
2013-06-08 05:11:00,50.7,49.6,29.82,SW,219,0.0,0.0,96,0.00,,---,0.00,VWS V14.01,2013-06-08 09:11:00,
2013-06-08 05:12:00,50.7,49.6,29.82,SW,219,0.0,0.0,96,0.00,,---,0.00,VWS V14.01,2013-06-08 09:12:00,
2013-06-08 05:13:00,50.7,49.6,29.82,SW,219,0.0,0.0,96,0.00,,---,0.00,VWS V14.01,2013-06-08 09:13:00,
2013-06-08 05:14:00,50.8,49.7,29.82,SW,219,0.0,0.0,96,0.00,,---,0.00,VWS V14.01,2013-06-08 09:14:00,
2013-06-08 05:15:00,50.7,49.6,29.82,SW,219,0.0,0.0,96,0.00,,---,0.00,VWS V14.01,2013-06-08 09:15:00,
2013-06-08 05:16:00,50.7,49.6,29.82,SW,219,0.0,0.0,96,0.00,,---,0.00,VWS V14.01,2013-06-08 09:16:00,
2013-06-08 05:17:00,50.7,49.6,29.82,SW,219,0.0,0.0,96,0.00,,---,0.00,VWS V14.01,2013-06-08 09:17:00,
2013-06-08 05:20:00,50.7,49.6,29.82,SW,219,0.0,0.0,96,0.00,,---,0.00,VWS V14.01,2013-06-08 09:20:00,
2013-06-08 05:22:00,50.8,49.7,29.82,SW,219,0.0,0.0,96,0.00,,---,0.00,VWS V14.01,2013-06-08 09:22:00,
2013-06-08 05:23:00,50.8,49.7,29.82,SW,219,0.0,0.0,96,0.00,,---,0.00,VWS V14.01,2013-06-08 09:23:00,
2013-06-08 05:24:00,50.8,49.7,29.82,SW,219,0.0,0.0,96,0.00,,---,0.00,VWS V14.01,2013-06-08 09:24:00,
2013-06-08 05:25:00,50.7,49.6,29.82,SW,219,0.0,0.0,96,0.00,,---,0.00,VWS V14.01,2013-06-08 09:25:00,
2013-06-08 05:26:00,50.8,49.7,29.82,SW,219,0.0,0.0,96,0.00,,---,0.00,VWS V14.01,2013-06-08 09:26:00,
2013-06-08 05:27:00,50.8,49.7,29.82,SW,219,0.0,0.0,96,0.00,,---,0.00,VWS V14.01,2013-06-08 09:27:00,
2013-06-08 05:28:00,50.8,49.7,29.82,SW,219,0.0,0.0,96,0.00,,---,0.00,VWS V14.01,2013-06-08 09:28:00,
2013-06-08 05:29:00,50.8,49.7,29.83,SW,219,0.0,0.0,96,0.00,,---,0.00,VWS V14.01,2013-06-08 09:29:00,
2013-06-08 05:30:00,50.8,49.7,29.82,SW,219,0.0,0.0,96,0.00,,---,0.00,VWS V14.01,2013-06-08 09:30:00,
2013-06-08 05:31:00,50.8,49.7,29.83,SW,219,0.0,0.0,96,0.00,,---,0.00,VWS V14.01,2013-06-08 09:31:00,
2013-06-08 05:32:00,50.8,49.7,29.83,SW,219,0.0,0.0,96,0.00,,---,0.00,VWS V14.01,2013-06-08 09:32:00,
2013-06-08 05:33:00,50.8,49.7,29.83,SW,219,0.0,0.0,96,0.00,,---,0.00,VWS V14.01,2013-06-08 09:33:00,
2013-06-08 05:34:00,50.8,49.7,29.83,SW,219,0.0,0.0,96,0.00,,---,0.00,VWS V14.01,2013-06-08 09:34:00,
2013-06-08 05:35:00,50.8,49.7,29.82,SW,219,0.0,0.0,96,0.00,,---,0.00,VWS V14.01,2013-06-08 09:35:00,
2013-06-08 05:36:00,50.8,49.7,29.83,SW,219,0.0,0.0,96,0.00,,---,0.00,VWS V14.01,2013-06-08 09:36:00,
2013-06-08 05:37:00,50.8,49.7,29.83,SW,219,0.0,0.0,96,0.00,,---,0.00,VWS V14.01,2013-06-08 09:37:00,
2013-06-08 05:39:00,50.8,49.7,29.83,SW,219,0.0,0.0,96,0.00,,---,0.00,VWS V14.01,2013-06-08 09:39:00,
2013-06-08 05:40:00,50.8,49.7,29.83,SW,219,0.0,0.0,96,0.00,,---,0.00,VWS V14.01,2013-06-08 09:40:00,
2013-06-08 05:42:00,50.8,49.7,29.83,SW,219,0.0,0.0,96,0.00,,---,0.00,VWS V14.01,2013-06-08 09:42:00,
2013-06-08 05:43:00,50.8,49.7,29.83,SW,219,0.0,0.0,96,0.00,,---,0.00,VWS V14.01,2013-06-08 09:43:00,
2013-06-08 05:44:00,50.8,49.7,29.83,SW,219,0.0,0.0,96,0.00,,---,0.00,VWS V14.01,2013-06-08 09:44:00,
2013-06-08 05:45:00,50.8,49.7,29.83,SW,219,0.0,0.0,96,0.00,,---,0.00,VWS V14.01,2013-06-08 09:45:00,
2013-06-08 05:46:00,50.8,49.7,29.83,SW,219,0.0,0.0,96,0.00,,---,0.00,VWS V14.01,2013-06-08 09:46:00,
2013-06-08 05:47:00,50.8,49.7,29.83,SW,219,0.0,0.0,96,0.00,,---,0.00,VWS V14.01,2013-06-08 09:47:00,
2013-06-08 05:48:00,50.9,49.8,29.83,SW,219,0.0,0.0,96,0.00,,---,0.00,VWS V14.01,2013-06-08 09:48:00,
2013-06-08 05:49:00,50.9,49.8,29.83,SW,219,0.0,0.0,96,0.00,,---,0.00,VWS V14.01,2013-06-08 09:49:00,
2013-06-08 05:50:00,50.8,49.7,29.83,SW,219,0.0,0.0,96,0.00,,---,0.00,VWS V14.01,2013-06-08 09:50:00,
2013-06-08 05:51:00,50.9,49.8,29.83,SW,219,0.0,0.0,96,0.00,,---,0.00,VWS V14.01,2013-06-08 09:51:00,
2013-06-08 05:52:00,50.9,49.8,29.83,SW,219,0.0,0.0,96,0.00,,---,0.00,VWS V14.01,2013-06-08 09:52:00,
2013-06-08 05:53:00,50.9,49.8,29.83,SW,219,0.0,0.0,96,0.00,,---,0.00,VWS V14.01,2013-06-08 09:53:00,
2013-06-08 05:54:00,50.9,49.8,29.83,SW,219,0.0,0.0,96,0.00,,---,0.00,VWS V14.01,2013-06-08 09:54:00,
2013-06-08 05:55:00,50.8,49.7,29.83,SW,219,0.0,0.0,96,0.00,,---,0.00,VWS V14.01,2013-06-08 09:55:00,
2013-06-08 05:56:00,50.9,49.8,29.83,SW,219,0.0,0.0,96,0.00,,---,0.00,VWS V14.01,2013-06-08 09:56:00,
2013-06-08 05:58:00,50.9,49.8,29.83,SW,219,0.0,0.0,96,0.00,,---,0.00,VWS V14.01,2013-06-08 09:58:00,
2013-06-08 05:59:00,50.9,49.8,29.83,SW,219,0.0,0.0,96,0.00,,---,0.00,VWS V14.01,2013-06-08 09:59:00,
2013-06-08 06:00:00,50.9,49.8,29.83,SW,219,0.0,0.0,96,0.00,,---,0.00,VWS V14.01,2013-06-08 10:00:00,
2013-06-08 06:01:00,50.9,49.8,29.83,SW,219,0.0,0.0,96,0.00,,---,0.00,VWS V14.01,2013-06-08 10:01:00,
2013-06-08 06:02:00,50.9,49.8,29.83,SW,219,0.0,0.0,96,0.00,,---,0.00,VWS V14.01,2013-06-08 10:02:00,
2013-06-08 06:03:00,50.9,49.8,29.83,SW,219,0.0,0.0,96,0.00,,---,0.00,VWS V14.01,2013-06-08 10:03:00,
2013-06-08 06:04:00,50.9,49.8,29.83,SW,219,0.0,0.0,96,0.00,,---,0.00,VWS V14.01,2013-06-08 10:04:00,
2013-06-08 06:05:00,50.9,49.8,29.83,SW,219,0.0,0.0,96,0.00,,---,0.00,VWS V14.01,2013-06-08 10:05:00,
2013-06-08 06:06:00,50.9,49.8,29.83,SW,219,0.0,0.0,96,0.00,,---,0.00,VWS V14.01,2013-06-08 10:06:00,
2013-06-08 06:07:00,50.9,49.8,29.83,SW,219,0.0,0.0,96,0.00,,---,0.00,VWS V14.01,2013-06-08 10:07:00,
2013-06-08 06:08:00,50.9,49.8,29.83,SW,219,0.0,0.0,96,0.00,,---,0.00,VWS V14.01,2013-06-08 10:08:00,
2013-06-08 06:09:00,50.9,49.8,29.83,SW,219,0.0,0.0,96,0.00,,---,0.00,VWS V14.01,2013-06-08 10:09:00,
2013-06-08 06:10:00,50.9,49.8,29.83,SW,219,0.0,0.0,96,0.00,,---,0.00,VWS V14.01,2013-06-08 10:10:00,
2013-06-08 06:11:00,50.9,49.8,29.83,SW,219,0.0,0.0,96,0.00,,---,0.00,VWS V14.01,2013-06-08 10:11:00,
2013-06-08 06:12:00,51.0,49.9,29.83,SW,219,0.0,0.0,96,0.00,,---,0.00,VWS V14.01,2013-06-08 10:12:00,
2013-06-08 06:13:00,51.0,49.9,29.83,SW,220,0.0,0.0,96,0.00,,---,0.00,VWS V14.01,2013-06-08 10:13:00,
2013-06-08 06:15:00,50.9,49.8,29.83,SW,219,0.0,0.0,96,0.00,,---,0.00,VWS V14.01,2013-06-08 10:15:00,
2013-06-08 06:16:00,50.9,49.8,29.83,SW,221,0.0,0.0,96,0.01,,---,0.01,VWS V14.01,2013-06-08 10:16:00,
2013-06-08 06:18:00,51.0,49.9,29.83,SW,221,0.0,0.0,96,0.01,,---,0.01,VWS V14.01,2013-06-08 10:18:00,
2013-06-08 06:20:00,51.0,49.9,29.83,SW,219,0.0,0.0,96,0.00,,---,0.00,VWS V14.01,2013-06-08 10:20:00,
2013-06-08 06:21:00,51.0,49.9,29.83,SW,225,0.0,0.0,96,0.02,,---,0.02,VWS V14.01,2013-06-08 10:21:00,
2013-06-08 06:23:00,51.0,49.9,29.83,SW,225,0.0,0.0,96,0.03,,---,0.03,VWS V14.01,2013-06-08 10:23:00,
2013-06-08 06:24:00,51.0,49.9,29.83,SW,226,0.0,0.0,96,0.03,,---,0.03,VWS V14.01,2013-06-08 10:24:00,
2013-06-08 06:25:00,50.9,49.8,29.83,SW,221,0.0,0.0,96,0.01,,---,0.01,VWS V14.01,2013-06-08 10:25:00,
2013-06-08 06:26:00,51.0,49.9,29.83,SW,230,0.0,0.0,96,0.04,,---,0.04,VWS V14.01,2013-06-08 10:26:00,
2013-06-08 06:28:00,51.0,49.9,29.83,SW,230,0.0,0.0,96,0.04,,---,0.04,VWS V14.01,2013-06-08 10:28:00,
2013-06-08 06:29:00,51.0,49.9,29.83,SW,231,0.0,0.0,96,0.05,,---,0.05,VWS V14.01,2013-06-08 10:29:00,
2013-06-08 06:30:00,51.0,49.9,29.83,SW,225,0.0,0.0,96,0.02,,---,0.02,VWS V14.01,2013-06-08 10:30:00,
2013-06-08 06:32:00,51.0,49.9,29.83,SW,232,0.0,0.0,96,0.06,,---,0.06,VWS V14.01,2013-06-08 10:32:00,
2013-06-08 06:33:00,51.0,49.9,29.83,SW,232,0.0,0.0,96,0.06,,---,0.06,VWS V14.01,2013-06-08 10:33:00,
2013-06-08 06:34:00,51.0,49.9,29.83,SW,232,0.0,1.0,96,0.06,,---,0.06,VWS V14.01,2013-06-08 10:34:00,
2013-06-08 06:35:00,51.0,49.9,29.83,SW,230,0.0,0.0,96,0.03,,---,0.03,VWS V14.01,2013-06-08 10:35:00,
2013-06-08 06:36:00,51.0,49.9,29.83,SW,233,0.0,0.0,96,0.07,,---,0.07,VWS V14.01,2013-06-08 10:36:00,
2013-06-08 06:37:00,51.0,49.9,29.83,SW,233,0.0,0.0,96,0.08,,---,0.08,VWS V14.01,2013-06-08 10:37:00,
2013-06-08 06:38:00,51.0,49.9,29.83,SW,233,0.0,0.0,96,0.08,,---,0.08,VWS V14.01,2013-06-08 10:38:00,
2013-06-08 06:40:00,51.0,49.9,29.83,SW,232,0.0,0.0,96,0.05,,---,0.05,VWS V14.01,2013-06-08 10:40:00,
2013-06-08 06:41:00,51.1,50.0,29.83,SW,233,0.0,0.0,96,0.09,,---,0.09,VWS V14.01,2013-06-08 10:41:00,
2013-06-08 06:42:00,51.1,50.0,29.83,SW,233,0.0,0.0,96,0.09,,---,0.09,VWS V14.01,2013-06-08 10:42:00,
2013-06-08 06:44:00,51.1,50.0,29.84,SW,233,0.0,0.0,96,0.09,,---,0.09,VWS V14.01,2013-06-08 10:44:00,
2013-06-08 06:45:00,51.0,49.9,29.83,SW,233,0.0,0.0,96,0.07,,---,0.07,VWS V14.01,2013-06-08 10:45:00,
2013-06-08 06:46:00,51.1,50.0,29.84,SW,233,0.0,0.0,96,0.10,,---,0.10,VWS V14.01,2013-06-08 10:46:00,
2013-06-08 06:47:00,51.1,50.0,29.84,SW,234,0.0,0.0,96,0.10,,---,0.10,VWS V14.01,2013-06-08 10:47:00,
2013-06-08 06:48:00,51.1,50.0,29.84,SW,234,0.0,0.0,96,0.11,,---,0.11,VWS V14.01,2013-06-08 10:48:00,
2013-06-08 06:49:00,51.1,50.0,29.84,SW,234,0.0,0.0,96,0.11,,---,0.11,VWS V14.01,2013-06-08 10:49:00,
2013-06-08 06:50:00,51.1,50.0,29.83,SW,233,0.0,0.0,96,0.09,,---,0.09,VWS V14.01,2013-06-08 10:50:00,
2013-06-08 06:51:00,51.1,50.0,29.84,SW,234,0.0,0.0,96,0.11,,---,0.11,VWS V14.01,2013-06-08 10:51:00,
2013-06-08 06:53:00,51.2,50.1,29.84,NW,316,0.0,0.0,96,0.12,,---,0.12,VWS V14.01,2013-06-08 10:53:00,
2013-06-08 06:54:00,51.2,50.1,29.84,NW,316,0.0,0.0,96,0.12,,---,0.12,VWS V14.01,2013-06-08 10:54:00,
2013-06-08 06:55:00,51.1,50.0,29.84,SW,233,0.0,0.0,96,0.10,,---,0.10,VWS V14.01,2013-06-08 10:55:00,
2013-06-08 06:58:00,51.4,50.6,29.84,NW,314,0.0,0.0,97,0.13,,---,0.13,VWS V14.01,2013-06-08 10:58:00,
2013-06-08 07:00:00,51.1,50.0,29.84,SW,234,0.0,0.0,96,0.11,,---,0.11,VWS V14.01,2013-06-08 11:00:00,
2013-06-08 07:01:00,51.5,50.7,29.84,NW,314,0.0,0.0,97,0.13,,---,0.13,VWS V14.01,2013-06-08 11:01:00,
2013-06-08 07:02:00,51.5,50.7,29.84,NW,314,0.0,0.0,97,0.13,,---,0.13,VWS V14.01,2013-06-08 11:02:00,
2013-06-08 07:03:00,51.6,50.5,29.84,NW,314,0.0,0.0,96,0.13,,---,0.13,VWS V14.01,2013-06-08 11:03:00,
2013-06-08 07:04:00,51.7,50.9,29.84,NW,314,0.0,0.0,97,0.13,,---,0.13,VWS V14.01,2013-06-08 11:04:00,
2013-06-08 07:05:00,51.2,50.1,29.84,NW,314,0.0,0.0,96,0.13,,---,0.13,VWS V14.01,2013-06-08 11:05:00,
2013-06-08 07:06:00,51.8,51.0,29.84,NW,314,0.0,0.0,97,0.13,,---,0.13,VWS V14.01,2013-06-08 11:06:00,
2013-06-08 07:07:00,51.9,51.1,29.84,NW,314,0.0,0.0,97,0.13,,---,0.13,VWS V14.01,2013-06-08 11:07:00,
2013-06-08 07:10:00,51.5,50.7,29.84,NW,314,0.0,0.0,97,0.13,,---,0.13,VWS V14.01,2013-06-08 11:10:00,
2013-06-08 07:11:00,52.2,51.4,29.84,NW,314,0.0,0.0,97,0.13,,---,0.13,VWS V14.01,2013-06-08 11:11:00,
2013-06-08 07:12:00,52.3,51.5,29.84,NW,314,0.0,0.0,97,0.13,,---,0.13,VWS V14.01,2013-06-08 11:12:00,
2013-06-08 07:14:00,52.4,51.6,29.84,NW,314,0.0,0.0,97,0.13,,---,0.13,VWS V14.01,2013-06-08 11:14:00,
2013-06-08 07:15:00,51.8,51.0,29.84,NW,314,0.0,0.0,97,0.13,,---,0.13,VWS V14.01,2013-06-08 11:15:00,
2013-06-08 07:16:00,52.6,51.8,29.84,NW,314,0.0,0.0,97,0.13,,---,0.13,VWS V14.01,2013-06-08 11:16:00,
2013-06-08 07:17:00,52.6,51.8,29.84,NW,314,0.0,0.0,97,0.13,,---,0.13,VWS V14.01,2013-06-08 11:17:00,
2013-06-08 07:18:00,52.7,51.9,29.84,NW,314,0.0,0.0,97,0.13,,---,0.13,VWS V14.01,2013-06-08 11:18:00,
2013-06-08 07:20:00,52.2,51.4,29.84,NW,314,0.0,0.0,97,0.13,,---,0.13,VWS V14.01,2013-06-08 11:20:00,
2013-06-08 07:21:00,52.8,52.0,29.84,NW,314,0.0,0.0,97,0.12,,---,0.13,VWS V14.01,2013-06-08 11:21:00,
2013-06-08 07:22:00,52.9,52.1,29.84,NW,314,0.0,0.0,97,0.12,,---,0.13,VWS V14.01,2013-06-08 11:22:00,
2013-06-08 07:23:00,53.0,52.2,29.84,NW,314,0.0,0.0,97,0.12,,---,0.13,VWS V14.01,2013-06-08 11:23:00,
2013-06-08 07:24:00,53.1,52.3,29.84,NW,314,0.0,0.0,97,0.12,,---,0.13,VWS V14.01,2013-06-08 11:24:00,
2013-06-08 07:25:00,52.5,51.7,29.84,NW,314,0.0,0.0,97,0.13,,---,0.13,VWS V14.01,2013-06-08 11:25:00,
2013-06-08 07:26:00,53.2,52.4,29.84,NW,314,0.0,0.0,97,0.10,,---,0.13,VWS V14.01,2013-06-08 11:26:00,
2013-06-08 07:27:00,53.2,52.4,29.84,NW,314,0.0,0.0,97,0.10,,---,0.13,VWS V14.01,2013-06-08 11:27:00,
2013-06-08 07:28:00,53.3,52.5,29.84,NW,314,0.0,0.0,97,0.10,,---,0.13,VWS V14.01,2013-06-08 11:28:00,
2013-06-08 07:29:00,53.4,52.6,29.85,NW,314,0.0,0.0,97,0.10,,---,0.13,VWS V14.01,2013-06-08 11:29:00,
2013-06-08 07:30:00,52.8,52.0,29.84,NW,314,0.0,0.0,97,0.12,,---,0.13,VWS V14.01,2013-06-08 11:30:00,
2013-06-08 07:31:00,53.5,52.7,29.85,NNW,339,0.0,0.0,97,0.08,,---,0.13,VWS V14.01,2013-06-08 11:31:00,
2013-06-08 07:32:00,53.5,52.7,29.85,NNW,339,0.0,0.0,97,0.08,,---,0.13,VWS V14.01,2013-06-08 11:32:00,
2013-06-08 07:33:00,53.5,52.7,29.85,NNW,339,0.0,0.0,97,0.08,,---,0.13,VWS V14.01,2013-06-08 11:33:00,
2013-06-08 07:34:00,53.5,52.7,29.85,NNW,339,0.0,0.0,97,0.08,,---,0.13,VWS V14.01,2013-06-08 11:34:00,
2013-06-08 07:35:00,53.2,52.4,29.84,NW,314,0.0,0.0,97,0.10,,---,0.13,VWS V14.01,2013-06-08 11:35:00,
2013-06-08 07:36:00,53.6,52.8,29.85,NNW,339,0.0,0.0,97,0.07,,---,0.13,VWS V14.01,2013-06-08 11:36:00,
2013-06-08 07:37:00,53.7,52.9,29.85,NNW,339,0.0,0.0,97,0.07,,---,0.13,VWS V14.01,2013-06-08 11:37:00,
2013-06-08 07:38:00,53.8,53.0,29.85,NNW,339,0.0,0.0,97,0.07,,---,0.13,VWS V14.01,2013-06-08 11:38:00,
2013-06-08 07:39:00,53.9,53.1,29.85,NNW,339,0.0,0.0,97,0.07,,---,0.13,VWS V14.01,2013-06-08 11:39:00,
2013-06-08 07:40:00,53.5,52.7,29.85,NNW,339,0.0,0.0,97,0.08,,---,0.13,VWS V14.01,2013-06-08 11:40:00,
2013-06-08 07:42:00,54.2,53.4,29.85,NNW,336,0.0,0.0,97,0.05,,---,0.13,VWS V14.01,2013-06-08 11:42:00,
2013-06-08 07:43:00,54.2,53.4,29.85,NNW,336,0.0,0.0,97,0.05,,---,0.13,VWS V14.01,2013-06-08 11:43:00,
2013-06-08 07:44:00,54.3,53.5,29.85,NNW,336,0.0,0.0,97,0.05,,---,0.13,VWS V14.01,2013-06-08 11:44:00,
2013-06-08 07:45:00,53.6,52.8,29.85,NNW,339,0.0,0.0,97,0.07,,---,0.13,VWS V14.01,2013-06-08 11:45:00,
2013-06-08 07:46:00,54.6,54.0,29.85,NNW,336,0.0,0.0,98,0.04,,---,0.13,VWS V14.01,2013-06-08 11:46:00,
2013-06-08 07:47:00,54.7,54.2,29.85,NNW,336,0.0,0.0,98,0.04,,---,0.13,VWS V14.01,2013-06-08 11:47:00,
2013-06-08 07:48:00,54.8,54.0,29.85,NNW,336,0.0,0.0,97,0.04,,---,0.13,VWS V14.01,2013-06-08 11:48:00,
2013-06-08 07:50:00,54.0,53.2,29.85,NNW,336,0.0,0.0,97,0.05,,---,0.13,VWS V14.01,2013-06-08 11:50:00,
2013-06-08 07:51:00,55.0,54.2,29.85,NNW,336,0.0,0.0,97,0.02,,---,0.13,VWS V14.01,2013-06-08 11:51:00,
2013-06-08 07:52:00,55.0,54.2,29.85,NNW,336,0.0,0.0,97,0.02,,---,0.13,VWS V14.01,2013-06-08 11:52:00,
2013-06-08 07:54:00,55.2,54.4,29.85,NNW,336,0.0,0.0,97,0.02,,---,0.13,VWS V14.01,2013-06-08 11:54:00,
2013-06-08 07:55:00,54.5,53.7,29.85,NNW,336,0.0,0.0,97,0.04,,---,0.13,VWS V14.01,2013-06-08 11:55:00,
2013-06-08 07:56:00,55.3,54.5,29.85,NNW,336,0.0,0.0,97,0.01,,---,0.13,VWS V14.01,2013-06-08 11:56:00,
2013-06-08 07:58:00,55.5,54.7,29.85,NNW,336,0.0,0.0,97,0.01,,---,0.13,VWS V14.01,2013-06-08 11:58:00,
2013-06-08 07:59:00,55.5,54.7,29.86,NNW,336,0.0,0.0,97,0.01,,---,0.13,VWS V14.01,2013-06-08 11:59:00,
2013-06-08 08:00:00,55.0,54.2,29.85,NNW,336,0.0,0.0,97,0.02,,---,0.13,VWS V14.01,2013-06-08 12:00:00,
2013-06-08 08:01:00,55.6,54.8,29.86,NNW,336,0.0,0.0,97,0.00,,---,0.13,VWS V14.01,2013-06-08 12:01:00,
2013-06-08 08:02:00,55.7,54.9,29.86,NNW,336,0.0,0.0,97,0.00,,---,0.13,VWS V14.01,2013-06-08 12:02:00,
2013-06-08 08:03:00,55.7,54.9,29.86,NNW,336,0.0,0.0,97,0.00,,---,0.13,VWS V14.01,2013-06-08 12:03:00,
2013-06-08 08:05:00,55.3,54.5,29.85,NNW,336,0.0,0.0,97,0.01,,---,0.13,VWS V14.01,2013-06-08 12:05:00,
2013-06-08 08:06:00,55.8,55.0,29.86,NNW,336,0.0,0.0,97,0.00,,---,0.13,VWS V14.01,2013-06-08 12:06:00,
2013-06-08 08:07:00,55.8,55.0,29.86,West,274,0.0,0.0,97,0.00,,---,0.13,VWS V14.01,2013-06-08 12:07:00,
2013-06-08 08:08:00,55.8,54.7,29.86,West,274,0.0,0.0,96,0.00,,---,0.13,VWS V14.01,2013-06-08 12:08:00,
2013-06-08 08:09:00,55.9,54.8,29.86,West,274,0.0,0.0,96,0.00,,---,0.13,VWS V14.01,2013-06-08 12:09:00,
2013-06-08 08:10:00,55.6,54.8,29.86,NNW,336,0.0,0.0,97,0.00,,---,0.13,VWS V14.01,2013-06-08 12:10:00,
2013-06-08 08:13:00,56.0,54.9,29.86,West,274,0.0,0.0,96,0.00,,---,0.13,VWS V14.01,2013-06-08 12:13:00,
2013-06-08 08:14:00,56.1,55.0,29.86,West,274,0.0,0.0,96,0.00,,---,0.13,VWS V14.01,2013-06-08 12:14:00,
2013-06-08 08:15:00,55.8,55.0,29.86,NNW,336,0.0,0.0,97,0.00,,---,0.13,VWS V14.01,2013-06-08 12:15:00,
2013-06-08 08:17:00,56.3,55.2,29.86,West,274,0.0,0.0,96,0.00,,---,0.13,VWS V14.01,2013-06-08 12:17:00,
2013-06-08 08:18:00,56.4,55.3,29.86,West,274,0.0,0.0,96,0.00,,---,0.13,VWS V14.01,2013-06-08 12:18:00,
2013-06-08 08:19:00,56.5,55.4,29.86,West,274,0.0,0.0,96,0.00,,---,0.13,VWS V14.01,2013-06-08 12:19:00,
2013-06-08 08:20:00,55.9,54.8,29.86,West,274,0.0,0.0,96,0.00,,---,0.13,VWS V14.01,2013-06-08 12:20:00,
2013-06-08 08:21:00,56.7,55.6,29.86,West,274,0.0,0.0,96,0.00,,---,0.13,VWS V14.01,2013-06-08 12:21:00,
2013-06-08 08:22:00,56.9,55.8,29.86,West,274,0.0,0.0,96,0.00,,---,0.13,VWS V14.01,2013-06-08 12:22:00,
2013-06-08 08:23:00,57.0,55.9,29.86,West,274,0.0,0.0,96,0.00,,---,0.13,VWS V14.01,2013-06-08 12:23:00,
2013-06-08 08:24:00,57.2,56.1,29.86,West,274,0.0,0.0,96,0.00,,---,0.13,VWS V14.01,2013-06-08 12:24:00,
2013-06-08 08:25:00,56.2,55.1,29.86,West,274,0.0,0.0,96,0.00,,---,0.13,VWS V14.01,2013-06-08 12:25:00,
2013-06-08 08:26:00,57.6,56.2,29.86,West,274,0.0,0.0,95,0.00,,---,0.13,VWS V14.01,2013-06-08 12:26:00,
2013-06-08 08:27:00,57.8,56.4,29.86,West,274,0.0,0.0,95,0.00,,---,0.13,VWS V14.01,2013-06-08 12:27:00,
2013-06-08 08:28:00,58.0,56.6,29.86,West,274,0.0,0.0,95,0.00,,---,0.13,VWS V14.01,2013-06-08 12:28:00,
2013-06-08 08:29:00,58.1,56.7,29.86,West,274,0.0,0.0,95,0.00,,---,0.13,VWS V14.01,2013-06-08 12:29:00,
2013-06-08 08:30:00,56.7,55.6,29.86,West,273,0.0,0.0,96,0.00,,---,0.13,VWS V14.01,2013-06-08 12:30:00,
2013-06-08 08:31:00,58.3,56.6,29.86,West,274,0.0,0.0,94,0.00,,---,0.13,VWS V14.01,2013-06-08 12:31:00,
2013-06-08 08:32:00,58.4,56.4,29.86,West,274,0.0,0.0,93,0.00,,---,0.13,VWS V14.01,2013-06-08 12:32:00,
2013-06-08 08:33:00,58.5,56.5,29.86,West,275,0.0,0.0,93,0.00,,---,0.13,VWS V14.01,2013-06-08 12:33:00,
2013-06-08 08:34:00,58.6,56.6,29.86,NE,43,0.0,0.0,93,0.00,,---,0.13,VWS V14.01,2013-06-08 12:34:00,
2013-06-08 08:35:00,57.5,56.4,29.86,West,274,0.0,0.0,96,0.00,,---,0.13,VWS V14.01,2013-06-08 12:35:00,
2013-06-08 08:36:00,58.7,56.4,29.86,NE,43,0.0,0.0,92,0.00,,---,0.13,VWS V14.01,2013-06-08 12:36:00,
2013-06-08 08:37:00,58.7,56.1,29.86,NE,43,0.0,0.0,91,0.00,,---,0.13,VWS V14.01,2013-06-08 12:37:00,
2013-06-08 08:39:00,58.9,56.3,29.86,NE,43,0.0,0.0,91,0.00,,---,0.13,VWS V14.01,2013-06-08 12:39:00,
2013-06-08 08:40:00,58.3,56.6,29.86,West,274,0.0,0.0,94,0.00,,---,0.13,VWS V14.01,2013-06-08 12:40:00,
2013-06-08 08:41:00,59.0,56.1,29.86,NE,42,0.0,0.0,90,0.00,,---,0.13,VWS V14.01,2013-06-08 12:41:00,
2013-06-08 08:42:00,59.1,56.5,29.86,NE,42,0.0,0.0,91,0.00,,---,0.13,VWS V14.01,2013-06-08 12:42:00,
2013-06-08 08:43:00,59.2,56.3,29.86,NE,42,0.0,0.0,90,0.00,,---,0.13,VWS V14.01,2013-06-08 12:43:00,
2013-06-08 08:44:00,59.3,56.4,29.86,NE,42,0.0,0.0,90,0.00,,---,0.13,VWS V14.01,2013-06-08 12:44:00,
2013-06-08 08:45:00,58.7,56.4,29.86,NE,43,0.0,0.0,92,0.00,,---,0.13,VWS V14.01,2013-06-08 12:45:00,
2013-06-08 08:47:00,59.5,56.6,29.86,NE,42,0.0,0.0,90,0.00,,---,0.13,VWS V14.01,2013-06-08 12:47:00,
2013-06-08 08:48:00,59.6,56.4,29.86,NE,42,0.0,0.0,89,0.00,,---,0.13,VWS V14.01,2013-06-08 12:48:00,
2013-06-08 08:49:00,59.7,56.2,29.86,NE,42,0.0,0.0,88,0.00,,---,0.13,VWS V14.01,2013-06-08 12:49:00,
2013-06-08 08:50:00,59.0,56.1,29.86,NE,42,0.0,0.0,90,0.00,,---,0.13,VWS V14.01,2013-06-08 12:50:00,
2013-06-08 08:51:00,59.8,55.9,29.86,East,100,0.0,0.0,87,0.00,,---,0.13,VWS V14.01,2013-06-08 12:51:00,
2013-06-08 08:52:00,59.9,56.3,29.86,East,101,0.0,0.0,88,0.00,,---,0.13,VWS V14.01,2013-06-08 12:52:00,
2013-06-08 08:53:00,60.0,56.1,29.86,East,101,0.0,0.0,87,0.00,,---,0.13,VWS V14.01,2013-06-08 12:53:00,
2013-06-08 08:54:00,60.0,56.1,29.86,East,101,0.0,0.0,87,0.00,,---,0.13,VWS V14.01,2013-06-08 12:54:00,
2013-06-08 08:55:00,59.4,56.5,29.86,NE,42,0.0,0.0,90,0.00,,---,0.13,VWS V14.01,2013-06-08 12:55:00,
2013-06-08 08:56:00,60.0,56.1,29.86,East,101,0.0,0.0,87,0.00,,---,0.13,VWS V14.01,2013-06-08 12:56:00,
2013-06-08 08:57:00,60.0,55.8,29.86,East,100,0.0,0.0,86,0.00,,---,0.13,VWS V14.01,2013-06-08 12:57:00,
2013-06-08 08:58:00,60.0,55.8,29.86,East,101,0.0,0.0,86,0.00,,---,0.13,VWS V14.01,2013-06-08 12:58:00,
2013-06-08 08:59:00,60.1,55.9,29.86,East,101,0.0,0.0,86,0.00,,---,0.13,VWS V14.01,2013-06-08 12:59:00,
2013-06-08 09:00:00,59.8,55.9,29.86,East,100,0.0,0.0,87,0.00,,---,0.13,VWS V14.01,2013-06-08 13:00:00,
2013-06-08 09:01:00,60.0,56.1,29.86,East,100,0.0,0.0,87,0.00,,---,0.13,VWS V14.01,2013-06-08 13:01:00,
2013-06-08 09:03:00,60.0,55.8,29.86,East,101,0.0,0.0,86,0.00,,---,0.13,VWS V14.01,2013-06-08 13:03:00,
2013-06-08 09:04:00,60.0,55.8,29.86,East,100,0.0,0.0,86,0.00,,---,0.13,VWS V14.01,2013-06-08 13:04:00,
2013-06-08 09:05:00,60.1,56.5,29.86,East,101,0.0,0.0,88,0.00,,---,0.13,VWS V14.01,2013-06-08 13:05:00,
2013-06-08 09:07:00,59.9,55.4,29.86,East,101,0.0,0.0,85,0.00,,---,0.13,VWS V14.01,2013-06-08 13:07:00,
2013-06-08 09:08:00,60.0,55.8,29.86,East,101,0.0,0.0,86,0.00,,---,0.13,VWS V14.01,2013-06-08 13:08:00,
2013-06-08 09:09:00,60.0,55.8,29.86,East,101,0.0,0.0,86,0.00,,---,0.13,VWS V14.01,2013-06-08 13:09:00,
2013-06-08 09:10:00,60.1,56.2,29.86,East,101,0.0,0.0,87,0.00,,---,0.13,VWS V14.01,2013-06-08 13:10:00,
2013-06-08 09:11:00,60.1,55.6,29.86,East,101,0.0,0.0,85,0.00,,---,0.13,VWS V14.01,2013-06-08 13:11:00,
2013-06-08 09:12:00,60.2,56.0,29.86,East,101,0.0,0.0,86,0.00,,---,0.13,VWS V14.01,2013-06-08 13:12:00,
2013-06-08 09:13:00,60.2,56.0,29.86,East,101,0.0,0.0,86,0.00,,---,0.13,VWS V14.01,2013-06-08 13:13:00,
2013-06-08 09:15:00,59.9,55.7,29.86,East,101,0.0,0.0,86,0.00,,---,0.13,VWS V14.01,2013-06-08 13:15:00,
2013-06-08 09:16:00,60.3,56.1,29.87,East,101,0.0,0.0,86,0.00,,---,0.13,VWS V14.01,2013-06-08 13:16:00,
2013-06-08 09:17:00,60.4,56.2,29.87,East,101,0.0,0.0,86,0.00,,---,0.13,VWS V14.01,2013-06-08 13:17:00,
2013-06-08 09:18:00,60.4,56.2,29.87,East,101,0.0,1.0,86,0.00,,---,0.13,VWS V14.01,2013-06-08 13:18:00,
2013-06-08 09:19:00,60.5,56.0,29.87,East,101,0.0,1.0,85,0.00,,---,0.13,VWS V14.01,2013-06-08 13:19:00,
2013-06-08 09:20:00,60.1,55.6,29.86,East,101,0.0,0.0,85,0.00,,---,0.13,VWS V14.01,2013-06-08 13:20:00,
2013-06-08 09:21:00,60.8,56.3,29.87,East,101,0.0,1.0,85,0.00,,---,0.13,VWS V14.01,2013-06-08 13:21:00,
2013-06-08 09:22:00,61.0,56.1,29.87,East,101,0.0,1.0,84,0.00,,---,0.13,VWS V14.01,2013-06-08 13:22:00,
2013-06-08 09:23:00,61.1,56.2,29.87,East,101,0.0,1.0,84,0.00,,---,0.13,VWS V14.01,2013-06-08 13:23:00,
2013-06-08 09:24:00,61.3,56.4,29.87,East,101,0.0,1.0,84,0.00,,---,0.13,VWS V14.01,2013-06-08 13:24:00,
2013-06-08 09:25:00,60.3,56.1,29.87,East,101,0.0,0.0,86,0.00,,---,0.13,VWS V14.01,2013-06-08 13:25:00,
2013-06-08 09:27:00,61.6,56.7,29.87,East,101,0.0,1.0,84,0.00,,---,0.13,VWS V14.01,2013-06-08 13:27:00,
2013-06-08 09:28:00,61.7,57.2,29.87,NNE,18,0.0,1.0,85,0.00,,---,0.13,VWS V14.01,2013-06-08 13:28:00,
2013-06-08 09:30:00,60.8,56.3,29.87,East,101,0.0,1.0,85,0.00,,---,0.13,VWS V14.01,2013-06-08 13:30:00,
2013-06-08 09:31:00,62.0,56.8,29.88,NNE,18,1.0,1.0,83,0.00,,---,0.13,VWS V14.01,2013-06-08 13:31:00,
2013-06-08 09:32:00,62.0,56.5,29.88,NNE,18,0.0,1.0,82,0.00,,---,0.13,VWS V14.01,2013-06-08 13:32:00,
2013-06-08 09:33:00,62.1,56.5,29.88,NNE,18,0.0,1.0,82,0.00,,---,0.13,VWS V14.01,2013-06-08 13:33:00,
2013-06-08 09:34:00,62.1,56.5,29.88,NNE,18,0.0,1.0,82,0.00,,---,0.13,VWS V14.01,2013-06-08 13:34:00,
2013-06-08 09:35:00,61.4,56.5,29.87,East,101,0.0,0.0,84,0.00,,---,0.13,VWS V14.01,2013-06-08 13:35:00,
2013-06-08 09:36:00,62.2,56.3,29.88,North,358,0.0,2.0,81,0.00,,---,0.13,VWS V14.01,2013-06-08 13:36:00,
2013-06-08 09:37:00,62.3,56.1,29.88,North,358,0.0,2.0,80,0.00,,---,0.13,VWS V14.01,2013-06-08 13:37:00,
2013-06-08 09:38:00,62.3,56.4,29.88,North,358,0.0,2.0,81,0.00,,---,0.13,VWS V14.01,2013-06-08 13:38:00,
2013-06-08 09:39:00,62.4,56.5,29.88,North,358,0.0,2.0,81,0.00,,---,0.13,VWS V14.01,2013-06-08 13:39:00,
2013-06-08 09:40:00,62.0,56.8,29.88,NNE,18,0.0,0.0,83,0.00,,---,0.13,VWS V14.01,2013-06-08 13:40:00,
2013-06-08 09:41:00,62.5,56.9,29.88,North,358,0.0,0.0,82,0.00,,---,0.13,VWS V14.01,2013-06-08 13:41:00,
2013-06-08 09:42:00,62.6,56.7,29.88,North,358,0.0,0.0,81,0.00,,---,0.13,VWS V14.01,2013-06-08 13:42:00,
2013-06-08 09:43:00,62.7,57.1,29.88,North,358,0.0,0.0,82,0.00,,---,0.13,VWS V14.01,2013-06-08 13:43:00,
2013-06-08 09:44:00,62.8,56.9,29.88,North,358,0.0,1.0,81,0.00,,---,0.13,VWS V14.01,2013-06-08 13:44:00,
2013-06-08 09:45:00,62.2,56.6,29.88,North,358,0.0,2.0,82,0.00,,---,0.13,VWS V14.01,2013-06-08 13:45:00,
2013-06-08 09:46:00,63.0,57.1,29.88,North,358,0.0,0.0,81,0.00,,---,0.13,VWS V14.01,2013-06-08 13:46:00,
2013-06-08 09:47:00,63.1,56.8,29.88,North,358,0.0,0.0,80,0.00,,---,0.13,VWS V14.01,2013-06-08 13:47:00,
2013-06-08 09:49:00,63.2,56.2,29.88,North,358,1.0,1.0,78,0.00,,---,0.13,VWS V14.01,2013-06-08 13:49:00,
2013-06-08 09:50:00,62.5,56.9,29.88,North,358,0.0,0.0,82,0.00,,---,0.13,VWS V14.01,2013-06-08 13:50:00,
2013-06-08 09:51:00,63.4,56.1,29.88,North,358,0.0,1.0,77,0.00,,---,0.13,VWS V14.01,2013-06-08 13:51:00,
2013-06-08 09:52:00,63.5,55.8,29.88,North,358,1.0,2.0,76,0.00,,---,0.13,VWS V14.01,2013-06-08 13:52:00,
2013-06-08 09:53:00,63.6,55.5,29.88,North,358,0.0,2.0,75,0.00,,---,0.13,VWS V14.01,2013-06-08 13:53:00,
2013-06-08 09:54:00,63.7,56.4,29.88,North,358,0.0,2.0,77,0.00,,---,0.13,VWS V14.01,2013-06-08 13:54:00,
2013-06-08 09:55:00,63.0,57.1,29.88,North,358,0.0,0.0,81,0.00,,---,0.13,VWS V14.01,2013-06-08 13:55:00,
2013-06-08 09:56:00,63.7,56.0,29.88,North,352,0.0,2.0,76,0.00,,---,0.13,VWS V14.01,2013-06-08 13:56:00,
2013-06-08 09:57:00,63.7,55.3,29.88,North,352,0.0,2.0,74,0.00,,---,0.13,VWS V14.01,2013-06-08 13:57:00,
2013-06-08 09:58:00,63.8,55.7,29.88,North,352,0.0,2.0,75,0.00,,---,0.13,VWS V14.01,2013-06-08 13:58:00,
2013-06-08 09:59:00,63.9,56.2,29.88,North,352,0.0,2.0,76,0.00,,---,0.13,VWS V14.01,2013-06-08 13:59:00,
2013-06-08 10:00:00,63.4,56.1,29.88,North,358,0.0,1.0,77,0.00,,---,0.13,VWS V14.01,2013-06-08 14:00:00,
2013-06-08 10:01:00,64.0,55.9,29.88,North,355,0.0,1.0,75,0.00,,---,0.13,VWS V14.01,2013-06-08 14:01:00,
2013-06-08 10:02:00,64.0,55.6,29.88,North,355,0.0,1.0,74,0.00,,---,0.13,VWS V14.01,2013-06-08 14:02:00,
2013-06-08 10:03:00,64.1,56.0,29.88,North,355,0.0,1.0,75,0.00,,---,0.13,VWS V14.01,2013-06-08 14:03:00,
2013-06-08 10:04:00,64.1,55.3,29.88,North,354,0.0,1.0,73,0.00,,---,0.13,VWS V14.01,2013-06-08 14:04:00,
2013-06-08 10:05:00,63.7,56.0,29.88,North,355,1.0,1.0,76,0.00,,---,0.13,VWS V14.01,2013-06-08 14:05:00,
2013-06-08 10:06:00,64.1,56.4,29.88,North,354,0.0,0.0,76,0.00,,---,0.13,VWS V14.01,2013-06-08 14:06:00,
2013-06-08 10:07:00,64.0,55.9,29.88,North,354,0.0,0.0,75,0.00,,---,0.13,VWS V14.01,2013-06-08 14:07:00,
2013-06-08 10:08:00,64.1,56.0,29.88,North,354,0.0,0.0,75,0.00,,---,0.13,VWS V14.01,2013-06-08 14:08:00,
2013-06-08 10:09:00,64.1,56.0,29.88,North,354,0.0,0.0,75,0.00,,---,0.13,VWS V14.01,2013-06-08 14:09:00,
2013-06-08 10:10:00,64.0,56.7,29.88,North,355,0.0,1.0,77,0.00,,---,0.13,VWS V14.01,2013-06-08 14:10:00,
2013-06-08 10:11:00,64.1,55.7,29.88,NNW,333,0.0,0.0,74,0.00,,---,0.13,VWS V14.01,2013-06-08 14:11:00,
2013-06-08 10:12:00,64.1,56.0,29.88,North,349,0.0,0.0,75,0.00,,---,0.13,VWS V14.01,2013-06-08 14:12:00,
2013-06-08 10:13:00,64.0,55.6,29.88,North,349,0.0,0.0,74,0.00,,---,0.13,VWS V14.01,2013-06-08 14:13:00,
2013-06-08 10:14:00,64.0,55.6,29.88,North,349,0.0,0.0,74,0.00,,---,0.13,VWS V14.01,2013-06-08 14:14:00,
2013-06-08 10:15:00,64.1,56.0,29.88,North,354,0.0,0.0,75,0.00,,---,0.13,VWS V14.01,2013-06-08 14:15:00,
2013-06-08 10:16:00,64.1,56.0,29.88,North,349,0.0,0.0,75,0.00,,---,0.13,VWS V14.01,2013-06-08 14:16:00,
2013-06-08 10:17:00,64.1,55.3,29.88,North,349,0.0,1.0,73,0.00,,---,0.13,VWS V14.01,2013-06-08 14:17:00,
2013-06-08 10:18:00,64.2,55.8,29.88,North,349,0.0,1.0,74,0.00,,---,0.13,VWS V14.01,2013-06-08 14:18:00,
2013-06-08 10:19:00,64.3,55.8,29.88,North,349,0.0,1.0,74,0.00,,---,0.13,VWS V14.01,2013-06-08 14:19:00,
2013-06-08 10:20:00,64.1,56.0,29.88,North,354,0.0,0.0,75,0.00,,---,0.13,VWS V14.01,2013-06-08 14:20:00,
2013-06-08 10:21:00,64.4,55.9,29.88,North,349,0.0,0.0,74,0.00,,---,0.13,VWS V14.01,2013-06-08 14:21:00,
2013-06-08 10:22:00,64.5,56.0,29.88,North,349,0.0,0.0,74,0.00,,---,0.13,VWS V14.01,2013-06-08 14:22:00,
2013-06-08 10:23:00,64.7,57.0,29.88,North,349,0.0,0.0,76,0.00,,---,0.13,VWS V14.01,2013-06-08 14:23:00,
2013-06-08 10:24:00,64.8,56.0,29.88,North,349,0.0,1.0,73,0.00,,---,0.13,VWS V14.01,2013-06-08 14:24:00,
2013-06-08 10:25:00,64.1,56.0,29.88,North,349,0.0,0.0,75,0.00,,---,0.13,VWS V14.01,2013-06-08 14:25:00,
2013-06-08 10:26:00,65.1,56.2,29.88,North,349,0.0,0.0,73,0.00,,---,0.13,VWS V14.01,2013-06-08 14:26:00,
2013-06-08 10:27:00,65.1,56.6,29.88,North,349,0.0,0.0,74,0.00,,---,0.13,VWS V14.01,2013-06-08 14:27:00,
2013-06-08 10:28:00,65.2,56.3,29.88,North,349,0.0,0.0,73,0.00,,---,0.13,VWS V14.01,2013-06-08 14:28:00,
2013-06-08 10:29:00,65.3,57.2,29.87,North,349,0.0,0.0,75,0.00,,---,0.13,VWS V14.01,2013-06-08 14:29:00,
2013-06-08 10:30:00,64.4,55.9,29.88,North,349,0.0,0.0,74,0.00,,---,0.13,VWS V14.01,2013-06-08 14:30:00,
2013-06-08 10:31:00,65.6,56.3,29.87,North,349,0.0,1.0,72,0.00,,---,0.13,VWS V14.01,2013-06-08 14:31:00,
2013-06-08 10:32:00,65.7,56.4,29.87,North,349,0.0,1.0,72,0.00,,---,0.13,VWS V14.01,2013-06-08 14:32:00,
2013-06-08 10:33:00,65.8,56.5,29.87,North,349,0.0,1.0,72,0.00,,---,0.13,VWS V14.01,2013-06-08 14:33:00,
2013-06-08 10:34:00,65.9,57.0,29.87,North,349,0.0,1.0,73,0.00,,---,0.13,VWS V14.01,2013-06-08 14:34:00,
2013-06-08 10:35:00,65.0,56.2,29.88,North,349,0.0,0.0,73,0.00,,---,0.13,VWS V14.01,2013-06-08 14:35:00,
2013-06-08 10:36:00,66.2,56.1,29.87,North,349,0.0,0.0,70,0.00,,---,0.13,VWS V14.01,2013-06-08 14:36:00,
2013-06-08 10:37:00,66.3,58.2,29.87,North,349,0.0,0.0,75,0.00,,---,0.13,VWS V14.01,2013-06-08 14:37:00,
2013-06-08 10:38:00,66.4,58.6,29.87,North,349,0.0,0.0,76,0.00,,---,0.13,VWS V14.01,2013-06-08 14:38:00,
2013-06-08 10:39:00,66.4,59.0,29.87,North,349,0.0,0.0,77,0.00,,---,0.13,VWS V14.01,2013-06-08 14:39:00,
2013-06-08 10:40:00,65.5,56.6,29.87,North,349,0.0,1.0,73,0.00,,---,0.13,VWS V14.01,2013-06-08 14:40:00,
2013-06-08 10:42:00,66.5,58.0,29.87,North,349,0.0,0.0,74,0.00,,---,0.13,VWS V14.01,2013-06-08 14:42:00,
2013-06-08 10:43:00,66.5,58.0,29.87,North,349,0.0,0.0,74,0.00,,---,0.13,VWS V14.01,2013-06-08 14:43:00,
2013-06-08 10:44:00,66.5,58.0,29.88,North,349,0.0,0.0,74,0.00,,---,0.13,VWS V14.01,2013-06-08 14:44:00,
2013-06-08 10:45:00,66.2,56.5,29.87,North,349,0.0,0.0,71,0.00,,---,0.13,VWS V14.01,2013-06-08 14:45:00,
2013-06-08 10:46:00,66.3,57.4,29.88,North,349,0.0,0.0,73,0.00,,---,0.13,VWS V14.01,2013-06-08 14:46:00,
2013-06-08 10:47:00,66.3,57.4,29.88,North,349,0.0,0.0,73,0.00,,---,0.13,VWS V14.01,2013-06-08 14:47:00,
2013-06-08 10:48:00,66.3,57.8,29.88,NNW,348,0.0,0.0,74,0.00,,---,0.13,VWS V14.01,2013-06-08 14:48:00,
2013-06-08 10:49:00,66.3,57.8,29.88,NNW,348,0.0,0.0,74,0.00,,---,0.13,VWS V14.01,2013-06-08 14:49:00,
2013-06-08 10:50:00,66.5,58.3,29.87,North,349,0.0,0.0,75,0.00,,---,0.13,VWS V14.01,2013-06-08 14:50:00,
2013-06-08 10:51:00,66.5,58.3,29.88,NNW,348,0.0,0.0,75,0.00,,---,0.13,VWS V14.01,2013-06-08 14:51:00,
2013-06-08 10:52:00,66.6,58.4,29.88,North,349,0.0,0.0,75,0.00,,---,0.13,VWS V14.01,2013-06-08 14:52:00,
2013-06-08 10:53:00,66.7,56.6,29.88,NNW,348,0.0,1.0,70,0.00,,---,0.13,VWS V14.01,2013-06-08 14:53:00,
2013-06-08 10:54:00,66.8,56.7,29.88,North,2,0.0,2.0,70,0.00,,---,0.13,VWS V14.01,2013-06-08 14:54:00,
2013-06-08 10:55:00,66.3,57.0,29.88,North,349,0.0,0.0,72,0.00,,---,0.13,VWS V14.01,2013-06-08 14:55:00,
2013-06-08 10:56:00,67.0,56.5,29.88,North,2,0.0,1.0,69,0.00,,---,0.13,VWS V14.01,2013-06-08 14:56:00,
2013-06-08 10:57:00,67.0,56.5,29.88,North,2,0.0,1.0,69,0.00,,---,0.13,VWS V14.01,2013-06-08 14:57:00,
2013-06-08 10:58:00,67.0,57.7,29.88,North,2,0.0,1.0,72,0.00,,---,0.13,VWS V14.01,2013-06-08 14:58:00,
2013-06-08 10:59:00,67.1,58.2,29.88,North,2,0.0,1.0,73,0.00,,---,0.13,VWS V14.01,2013-06-08 14:59:00,
2013-06-08 11:00:00,66.4,58.2,29.88,NNW,348,0.0,0.0,75,0.00,,---,0.13,VWS V14.01,2013-06-08 15:00:00,
2013-06-08 11:01:00,67.1,58.5,29.88,North,2,0.0,0.0,74,0.00,,---,0.13,VWS V14.01,2013-06-08 15:01:00,
2013-06-08 11:02:00,67.1,58.9,29.88,North,2,0.0,0.0,75,0.00,,---,0.13,VWS V14.01,2013-06-08 15:02:00,
2013-06-08 11:03:00,67.0,58.5,29.88,North,2,0.0,0.0,74,0.00,,---,0.13,VWS V14.01,2013-06-08 15:03:00,
2013-06-08 11:04:00,67.0,56.9,29.88,North,2,0.0,0.0,70,0.00,,---,0.13,VWS V14.01,2013-06-08 15:04:00,
2013-06-08 11:05:00,67.0,56.5,29.88,North,2,1.0,1.0,69,0.00,,---,0.13,VWS V14.01,2013-06-08 15:05:00,
2013-06-08 11:06:00,66.9,57.6,29.88,North,2,0.0,0.0,72,0.00,,---,0.13,VWS V14.01,2013-06-08 15:06:00,
2013-06-08 11:08:00,66.9,57.2,29.88,North,2,0.0,0.0,71,0.00,,---,0.13,VWS V14.01,2013-06-08 15:08:00,
2013-06-08 11:10:00,67.1,58.5,29.88,North,2,0.0,0.0,74,0.00,,---,0.13,VWS V14.01,2013-06-08 15:10:00,
2013-06-08 11:11:00,67.0,55.7,29.88,NW,325,0.0,1.0,67,0.00,,---,0.13,VWS V14.01,2013-06-08 15:11:00,
2013-06-08 11:12:00,67.0,55.7,29.88,NW,325,0.0,1.0,67,0.00,,---,0.13,VWS V14.01,2013-06-08 15:12:00,
2013-06-08 11:13:00,67.1,55.8,29.88,NW,325,0.0,1.0,67,0.00,,---,0.13,VWS V14.01,2013-06-08 15:13:00,
2013-06-08 11:15:00,66.9,56.8,29.88,North,2,0.0,0.0,70,0.00,,---,0.13,VWS V14.01,2013-06-08 15:15:00,
2013-06-08 11:16:00,67.2,56.3,29.89,NW,325,0.0,0.0,68,0.00,,---,0.13,VWS V14.01,2013-06-08 15:16:00,
2013-06-08 11:17:00,67.2,55.5,29.89,NW,325,0.0,0.0,66,0.00,,---,0.13,VWS V14.01,2013-06-08 15:17:00,
2013-06-08 11:19:00,67.2,55.9,29.89,NW,325,0.0,1.0,67,0.00,,---,0.13,VWS V14.01,2013-06-08 15:19:00,
2013-06-08 11:20:00,67.0,55.7,29.88,NW,325,1.0,1.0,67,0.00,,---,0.13,VWS V14.01,2013-06-08 15:20:00,
2013-06-08 11:22:00,67.2,57.1,29.89,NW,325,0.0,0.0,70,0.00,,---,0.13,VWS V14.01,2013-06-08 15:22:00,
2013-06-08 11:23:00,67.3,57.6,29.89,NW,326,2.0,4.0,71,0.00,,---,0.13,VWS V14.01,2013-06-08 15:23:00,
2013-06-08 11:24:00,67.4,56.1,29.89,NW,326,0.0,4.0,67,0.00,,---,0.13,VWS V14.01,2013-06-08 15:24:00,
2013-06-08 11:25:00,67.2,57.9,29.89,NW,325,0.0,0.0,72,0.00,,---,0.13,VWS V14.01,2013-06-08 15:25:00,
2013-06-08 11:26:00,67.7,56.8,29.89,NW,319,0.0,3.0,68,0.00,,---,0.13,VWS V14.01,2013-06-08 15:26:00,
2013-06-08 11:27:00,67.7,56.0,29.89,NW,319,0.0,3.0,66,0.00,,---,0.13,VWS V14.01,2013-06-08 15:27:00,
2013-06-08 11:28:00,67.9,56.1,29.89,NW,319,1.0,3.0,66,0.00,,---,0.13,VWS V14.01,2013-06-08 15:28:00,
2013-06-08 11:29:00,67.9,56.1,29.89,NW,319,0.0,3.0,66,0.00,,---,0.13,VWS V14.01,2013-06-08 15:29:00,
2013-06-08 11:30:00,67.3,56.8,29.89,NW,325,0.0,0.0,69,0.00,,---,0.13,VWS V14.01,2013-06-08 15:30:00,
2013-06-08 11:31:00,68.1,56.7,29.89,NW,319,0.0,0.0,67,0.00,,---,0.13,VWS V14.01,2013-06-08 15:31:00,
2013-06-08 11:32:00,68.2,56.4,29.89,NW,319,0.0,0.0,66,0.00,,---,0.13,VWS V14.01,2013-06-08 15:32:00,
2013-06-08 11:34:00,68.3,56.5,29.89,NW,319,0.0,0.0,66,0.00,,---,0.13,VWS V14.01,2013-06-08 15:34:00,
2013-06-08 11:35:00,67.5,56.6,29.89,NW,319,3.0,3.0,68,0.00,,---,0.13,VWS V14.01,2013-06-08 15:35:00,
2013-06-08 11:36:00,68.3,56.5,29.89,NW,319,0.0,1.0,66,0.00,,---,0.13,VWS V14.01,2013-06-08 15:36:00,
2013-06-08 11:37:00,68.3,55.7,29.89,NW,319,0.0,1.0,64,0.00,,---,0.13,VWS V14.01,2013-06-08 15:37:00,
2013-06-08 11:38:00,68.3,54.8,29.89,NW,319,0.0,1.0,62,0.00,,---,0.13,VWS V14.01,2013-06-08 15:38:00,
2013-06-08 11:39:00,68.3,55.7,29.89,NW,319,0.0,1.0,64,0.00,,---,0.13,VWS V14.01,2013-06-08 15:39:00,
2013-06-08 11:40:00,68.1,57.6,29.89,NW,319,0.0,0.0,69,0.00,,---,0.13,VWS V14.01,2013-06-08 15:40:00,
2013-06-08 11:42:00,68.0,55.8,29.89,NW,319,0.0,1.0,65,0.00,,---,0.13,VWS V14.01,2013-06-08 15:42:00,
2013-06-08 11:43:00,67.9,55.3,29.89,NW,319,0.0,1.0,64,0.00,,---,0.13,VWS V14.01,2013-06-08 15:43:00,
2013-06-08 11:44:00,67.9,55.7,29.88,NW,319,0.0,1.0,65,0.00,,---,0.13,VWS V14.01,2013-06-08 15:44:00,
2013-06-08 11:45:00,68.3,56.5,29.89,NW,319,0.0,1.0,66,0.00,,---,0.13,VWS V14.01,2013-06-08 15:45:00,
2013-06-08 11:46:00,67.7,56.4,29.88,NW,319,0.0,0.0,67,0.00,,---,0.13,VWS V14.01,2013-06-08 15:46:00,
2013-06-08 11:47:00,67.6,55.0,29.88,NW,319,0.0,1.0,64,0.00,,---,0.13,VWS V14.01,2013-06-08 15:47:00,
2013-06-08 11:48:00,67.6,55.4,29.88,NW,319,0.0,1.0,65,0.00,,---,0.13,VWS V14.01,2013-06-08 15:48:00,
2013-06-08 11:49:00,67.5,55.3,29.88,NW,319,0.0,1.0,65,0.00,,---,0.13,VWS V14.01,2013-06-08 15:49:00,
2013-06-08 11:50:00,68.2,56.0,29.89,NW,319,1.0,1.0,65,0.00,,---,0.13,VWS V14.01,2013-06-08 15:50:00,
2013-06-08 11:51:00,67.5,55.8,29.88,NW,319,0.0,0.0,66,0.00,,---,0.13,VWS V14.01,2013-06-08 15:51:00,
2013-06-08 11:52:00,67.7,58.7,29.88,NW,319,0.0,0.0,73,0.00,,---,0.13,VWS V14.01,2013-06-08 15:52:00,
2013-06-08 11:53:00,67.9,58.2,29.88,NW,319,0.0,0.0,71,0.00,,---,0.13,VWS V14.01,2013-06-08 15:53:00,
2013-06-08 11:54:00,68.0,57.1,29.88,NW,319,0.0,0.0,68,0.00,,---,0.13,VWS V14.01,2013-06-08 15:54:00,
2013-06-08 11:55:00,67.7,56.4,29.88,NW,319,0.0,0.0,67,0.00,,---,0.13,VWS V14.01,2013-06-08 15:55:00,
2013-06-08 11:56:00,68.1,56.7,29.88,SW,225,0.0,1.0,67,0.00,,---,0.13,VWS V14.01,2013-06-08 15:56:00,
2013-06-08 11:57:00,68.1,56.3,29.88,SW,225,0.0,1.0,66,0.00,,---,0.13,VWS V14.01,2013-06-08 15:57:00,
2013-06-08 11:58:00,68.1,56.7,29.88,SW,225,0.0,1.0,67,0.00,,---,0.13,VWS V14.01,2013-06-08 15:58:00,
2013-06-08 11:59:00,68.1,56.7,29.88,SW,225,0.0,1.0,67,0.00,,---,0.13,VWS V14.01,2013-06-08 15:59:00,
2013-06-08 12:00:00,67.5,55.8,29.88,NW,319,0.0,0.0,66,0.00,,---,0.13,VWS V14.01,2013-06-08 16:00:00,
2013-06-08 12:01:00,68.2,56.4,29.88,SW,225,0.0,0.0,66,0.00,,---,0.13,VWS V14.01,2013-06-08 16:01:00,
2013-06-08 12:02:00,68.2,56.8,29.88,SW,225,0.0,0.0,67,0.00,,---,0.13,VWS V14.01,2013-06-08 16:02:00,
2013-06-08 12:03:00,68.3,57.8,29.88,SW,225,0.0,0.0,69,0.00,,---,0.13,VWS V14.01,2013-06-08 16:03:00,
2013-06-08 12:04:00,68.3,57.8,29.88,WNW,302,1.0,2.0,69,0.00,,---,0.13,VWS V14.01,2013-06-08 16:04:00,
2013-06-08 12:05:00,68.1,56.3,29.88,SW,225,0.0,1.0,66,0.00,,---,0.13,VWS V14.01,2013-06-08 16:05:00,
2013-06-08 12:06:00,68.5,56.3,29.88,WNW,302,0.0,1.0,65,0.00,,---,0.13,VWS V14.01,2013-06-08 16:06:00,
2013-06-08 12:07:00,68.4,55.8,29.88,WNW,302,0.0,1.0,64,0.00,,---,0.13,VWS V14.01,2013-06-08 16:07:00,
2013-06-08 12:08:00,68.4,55.8,29.88,WNW,302,0.0,1.0,64,0.00,,---,0.13,VWS V14.01,2013-06-08 16:08:00,
2013-06-08 12:09:00,68.4,57.0,29.88,WNW,302,0.0,1.0,67,0.00,,---,0.13,VWS V14.01,2013-06-08 16:09:00,
2013-06-08 12:10:00,68.1,56.3,29.88,SW,225,0.0,0.0,66,0.00,,---,0.13,VWS V14.01,2013-06-08 16:10:00,
2013-06-08 12:11:00,68.4,56.6,29.88,WNW,302,0.0,0.0,66,0.00,,---,0.13,VWS V14.01,2013-06-08 16:11:00,
2013-06-08 12:12:00,68.5,56.7,29.88,WNW,302,0.0,0.0,66,0.00,,---,0.13,VWS V14.01,2013-06-08 16:12:00,
2013-06-08 12:13:00,68.5,56.7,29.88,WNW,303,0.0,0.0,66,0.00,,---,0.13,VWS V14.01,2013-06-08 16:13:00,
2013-06-08 12:14:00,68.6,56.4,29.87,WNW,303,0.0,1.0,65,0.00,,---,0.13,VWS V14.01,2013-06-08 16:14:00,
2013-06-08 12:15:00,68.4,55.8,29.88,WNW,302,0.0,1.0,64,0.00,,---,0.13,VWS V14.01,2013-06-08 16:15:00,
2013-06-08 12:16:00,68.7,55.2,29.87,NW,304,0.0,2.0,62,0.00,,---,0.13,VWS V14.01,2013-06-08 16:16:00,
2013-06-08 12:17:00,68.7,54.7,29.87,NW,304,0.0,2.0,61,0.00,,---,0.13,VWS V14.01,2013-06-08 16:17:00,
2013-06-08 12:18:00,68.6,55.1,29.87,NW,304,1.0,2.0,62,0.00,,---,0.13,VWS V14.01,2013-06-08 16:18:00,
2013-06-08 12:19:00,68.5,54.5,29.87,NW,304,0.0,2.0,61,0.00,,---,0.13,VWS V14.01,2013-06-08 16:19:00,
2013-06-08 12:20:00,68.4,57.4,29.88,WNW,302,0.0,0.0,68,0.00,,---,0.13,VWS V14.01,2013-06-08 16:20:00,
2013-06-08 12:21:00,68.3,55.2,29.87,NW,304,0.0,0.0,63,0.00,,---,0.13,VWS V14.01,2013-06-08 16:21:00,
2013-06-08 12:22:00,68.3,55.2,29.87,NW,304,0.0,0.0,63,0.00,,---,0.13,VWS V14.01,2013-06-08 16:22:00,
2013-06-08 12:23:00,68.3,55.7,29.87,NW,304,0.0,0.0,64,0.00,,---,0.13,VWS V14.01,2013-06-08 16:23:00,
2013-06-08 12:24:00,68.2,56.4,29.87,NNW,328,0.0,0.0,66,0.00,,---,0.13,VWS V14.01,2013-06-08 16:24:00,
2013-06-08 12:25:00,68.7,55.2,29.87,NW,304,1.0,2.0,62,0.00,,---,0.13,VWS V14.01,2013-06-08 16:25:00,
2013-06-08 12:26:00,68.4,54.9,29.87,NNW,333,0.0,0.0,62,0.00,,---,0.13,VWS V14.01,2013-06-08 16:26:00,
2013-06-08 12:27:00,68.4,54.9,29.87,NNW,333,0.0,0.0,62,0.00,,---,0.13,VWS V14.01,2013-06-08 16:27:00,
2013-06-08 12:28:00,68.3,55.2,29.87,NNW,333,0.0,0.0,63,0.00,,---,0.13,VWS V14.01,2013-06-08 16:28:00,
2013-06-08 12:29:00,68.3,55.2,29.87,NNW,333,0.0,0.0,63,0.00,,---,0.13,VWS V14.01,2013-06-08 16:29:00,
2013-06-08 12:30:00,68.4,54.0,29.87,NW,304,0.0,0.0,60,0.00,,---,0.13,VWS V14.01,2013-06-08 16:30:00,
2013-06-08 12:31:00,68.1,55.9,29.87,NNW,333,0.0,0.0,65,0.00,,---,0.13,VWS V14.01,2013-06-08 16:31:00,
2013-06-08 12:32:00,68.0,55.4,29.87,NNW,333,0.0,0.0,64,0.00,,---,0.13,VWS V14.01,2013-06-08 16:32:00,
2013-06-08 12:33:00,68.0,55.4,29.87,NNW,333,0.0,0.0,64,0.00,,---,0.13,VWS V14.01,2013-06-08 16:33:00,
2013-06-08 12:34:00,68.0,56.7,29.87,NNW,333,0.0,0.0,67,0.00,,---,0.13,VWS V14.01,2013-06-08 16:34:00,
2013-06-08 12:35:00,68.3,55.7,29.87,NNW,333,0.0,0.0,64,0.00,,---,0.13,VWS V14.01,2013-06-08 16:35:00,
2013-06-08 12:36:00,68.2,55.1,29.87,NNW,333,0.0,0.0,63,0.00,,---,0.13,VWS V14.01,2013-06-08 16:36:00,
2013-06-08 12:37:00,68.4,54.9,29.87,NNW,330,0.0,0.0,62,0.00,,---,0.13,VWS V14.01,2013-06-08 16:37:00,
2013-06-08 12:38:00,68.6,55.1,29.87,NNW,330,0.0,1.0,62,0.00,,---,0.13,VWS V14.01,2013-06-08 16:38:00,
2013-06-08 12:39:00,68.8,54.8,29.87,NNW,330,0.0,1.0,61,0.00,,---,0.13,VWS V14.01,2013-06-08 16:39:00,
2013-06-08 12:40:00,68.2,56.0,29.87,NNW,333,0.0,0.0,65,0.00,,---,0.13,VWS V14.01,2013-06-08 16:40:00,
2013-06-08 12:41:00,68.8,54.4,29.87,NNW,330,0.0,0.0,60,0.00,,---,0.13,VWS V14.01,2013-06-08 16:41:00,
2013-06-08 12:42:00,68.9,53.5,29.87,NNW,330,0.0,0.0,58,0.00,,---,0.13,VWS V14.01,2013-06-08 16:42:00,
2013-06-08 12:43:00,68.9,54.9,29.87,NNW,330,0.0,0.0,61,0.00,,---,0.13,VWS V14.01,2013-06-08 16:43:00,
2013-06-08 12:44:00,69.0,54.5,29.87,NNW,330,0.0,1.0,60,0.00,,---,0.13,VWS V14.01,2013-06-08 16:44:00,
2013-06-08 12:45:00,68.1,55.0,29.87,NNW,333,0.0,0.0,63,0.00,,---,0.13,VWS V14.01,2013-06-08 16:45:00,
2013-06-08 12:46:00,69.2,54.3,29.87,SSW,194,0.0,1.0,59,0.00,,---,0.13,VWS V14.01,2013-06-08 16:46:00,
2013-06-08 12:47:00,69.2,55.6,29.87,SW,217,3.0,3.0,62,0.00,,---,0.13,VWS V14.01,2013-06-08 16:47:00,
2013-06-08 12:48:00,69.3,54.8,29.87,SW,223,0.0,3.0,60,0.00,,---,0.13,VWS V14.01,2013-06-08 16:48:00,
2013-06-08 12:49:00,69.3,54.4,29.87,SW,223,0.0,3.0,59,0.00,,---,0.13,VWS V14.01,2013-06-08 16:49:00,
2013-06-08 12:50:00,68.8,54.4,29.87,NNW,330,0.0,0.0,60,0.00,,---,0.13,VWS V14.01,2013-06-08 16:50:00,
2013-06-08 12:51:00,69.4,55.8,29.87,NW,321,0.0,2.0,62,0.00,,---,0.13,VWS V14.01,2013-06-08 16:51:00,
2013-06-08 12:52:00,69.5,53.6,29.87,NW,321,0.0,2.0,57,0.00,,---,0.13,VWS V14.01,2013-06-08 16:52:00,
2013-06-08 12:53:00,69.4,53.5,29.87,NW,321,0.0,2.0,57,0.00,,---,0.13,VWS V14.01,2013-06-08 16:53:00,
2013-06-08 12:54:00,69.3,53.9,29.87,NW,321,0.0,2.0,58,0.00,,---,0.13,VWS V14.01,2013-06-08 16:54:00,
2013-06-08 12:55:00,69.1,56.8,29.87,SSW,194,0.0,1.0,65,0.00,,---,0.13,VWS V14.01,2013-06-08 16:55:00,
2013-06-08 12:56:00,69.1,55.1,29.87,NW,321,0.0,0.0,61,0.00,,---,0.13,VWS V14.01,2013-06-08 16:56:00,
2013-06-08 12:57:00,69.0,55.0,29.87,NW,321,0.0,0.0,61,0.00,,---,0.13,VWS V14.01,2013-06-08 16:57:00,
2013-06-08 12:58:00,68.9,54.5,29.87,NW,321,0.0,0.0,60,0.00,,---,0.13,VWS V14.01,2013-06-08 16:58:00,
2013-06-08 12:59:00,68.8,55.7,29.87,NW,321,0.0,0.0,63,0.00,,---,0.13,VWS V14.01,2013-06-08 16:59:00,
2013-06-08 13:00:00,69.3,54.4,29.87,SW,223,0.0,0.0,59,0.00,,---,0.13,VWS V14.01,2013-06-08 17:00:00,
2013-06-08 13:01:00,68.9,57.1,29.87,NW,321,0.0,0.0,66,0.00,,---,0.13,VWS V14.01,2013-06-08 17:01:00,
2013-06-08 13:02:00,69.0,55.9,29.87,NW,321,0.0,0.0,63,0.00,,---,0.13,VWS V14.01,2013-06-08 17:02:00,
2013-06-08 13:03:00,69.1,55.1,29.87,NW,321,0.0,0.0,61,0.00,,---,0.13,VWS V14.01,2013-06-08 17:03:00,
2013-06-08 13:04:00,69.2,56.1,29.87,NW,321,0.0,0.0,63,0.00,,---,0.13,VWS V14.01,2013-06-08 17:04:00,
2013-06-08 13:05:00,69.2,54.3,29.87,NW,321,0.0,0.0,59,0.00,,---,0.13,VWS V14.01,2013-06-08 17:05:00,
2013-06-08 13:06:00,69.4,55.4,29.87,NW,321,0.0,1.0,61,0.00,,---,0.13,VWS V14.01,2013-06-08 17:06:00,
2013-06-08 13:07:00,69.6,56.9,29.87,NW,321,0.0,1.0,64,0.00,,---,0.13,VWS V14.01,2013-06-08 17:07:00,
2013-06-08 13:08:00,69.8,55.8,29.87,NW,321,0.0,1.0,61,0.00,,---,0.13,VWS V14.01,2013-06-08 17:08:00,
2013-06-08 13:09:00,70.0,54.1,29.87,NNW,336,0.0,1.0,57,0.00,,---,0.13,VWS V14.01,2013-06-08 17:09:00,
2013-06-08 13:10:00,68.8,57.0,29.87,NW,321,0.0,0.0,66,0.00,,---,0.13,VWS V14.01,2013-06-08 17:10:00,
2013-06-08 13:11:00,70.4,55.9,29.87,North,0,2.0,2.0,60,0.00,,---,0.13,VWS V14.01,2013-06-08 17:11:00,
2013-06-08 13:12:00,70.4,54.9,29.87,NNW,338,1.0,2.0,58,0.00,,---,0.13,VWS V14.01,2013-06-08 17:12:00,
2013-06-08 13:13:00,70.6,55.6,29.87,SSE,158,0.0,2.0,59,0.00,,---,0.13,VWS V14.01,2013-06-08 17:13:00,
2013-06-08 13:14:00,70.6,54.6,29.87,WNW,283,0.0,2.0,57,0.00,,---,0.13,VWS V14.01,2013-06-08 17:14:00,
2013-06-08 13:15:00,69.4,55.4,29.87,NW,321,0.0,1.0,61,0.00,,---,0.13,VWS V14.01,2013-06-08 17:15:00,
2013-06-08 13:16:00,70.8,54.3,29.87,NW,310,0.0,3.0,56,0.00,,---,0.13,VWS V14.01,2013-06-08 17:16:00,
2013-06-08 13:17:00,71.0,56.0,29.87,NW,310,0.0,3.0,59,0.00,,---,0.13,VWS V14.01,2013-06-08 17:17:00,
2013-06-08 13:18:00,71.2,57.1,29.87,NW,310,0.0,3.0,61,0.00,,---,0.13,VWS V14.01,2013-06-08 17:18:00,
2013-06-08 13:19:00,71.3,56.7,29.87,NW,310,0.0,3.0,60,0.00,,---,0.13,VWS V14.01,2013-06-08 17:19:00,
2013-06-08 13:20:00,70.3,56.7,29.87,North,4,1.0,1.0,62,0.00,,---,0.13,VWS V14.01,2013-06-08 17:20:00,
2013-06-08 13:21:00,71.5,57.4,29.87,NW,314,0.0,4.0,61,0.00,,---,0.13,VWS V14.01,2013-06-08 17:21:00,
2013-06-08 13:22:00,71.5,55.0,29.87,NW,314,0.0,4.0,56,0.00,,---,0.13,VWS V14.01,2013-06-08 17:22:00,
2013-06-08 13:23:00,71.5,54.5,29.87,NW,314,0.0,4.0,55,0.00,,---,0.13,VWS V14.01,2013-06-08 17:23:00,
2013-06-08 13:24:00,71.5,57.4,29.87,WNW,295,0.0,4.0,61,0.00,,---,0.13,VWS V14.01,2013-06-08 17:24:00,
2013-06-08 13:25:00,70.7,54.7,29.87,NW,310,0.0,3.0,57,0.00,,---,0.13,VWS V14.01,2013-06-08 17:25:00,
2013-06-08 13:26:00,71.8,54.8,29.87,WNW,298,0.0,3.0,55,0.00,,---,0.13,VWS V14.01,2013-06-08 17:26:00,
2013-06-08 13:27:00,71.9,55.4,29.87,WNW,298,0.0,3.0,56,0.00,,---,0.13,VWS V14.01,2013-06-08 17:27:00,
2013-06-08 13:28:00,72.0,56.4,29.87,NW,319,0.0,3.0,58,0.00,,---,0.13,VWS V14.01,2013-06-08 17:28:00,
2013-06-08 13:29:00,72.1,56.5,29.87,NW,319,0.0,3.0,58,0.00,,---,0.13,VWS V14.01,2013-06-08 17:29:00,
2013-06-08 13:30:00,71.5,55.5,29.87,NW,314,0.0,4.0,57,0.00,,---,0.13,VWS V14.01,2013-06-08 17:30:00,
2013-06-08 13:31:00,71.9,57.3,29.87,NW,319,0.0,0.0,60,0.00,,---,0.13,VWS V14.01,2013-06-08 17:31:00,
2013-06-08 13:32:00,71.8,57.2,29.87,NW,317,0.0,0.0,60,0.00,,---,0.13,VWS V14.01,2013-06-08 17:32:00,
2013-06-08 13:33:00,71.6,54.6,29.87,NW,317,0.0,0.0,55,0.00,,---,0.13,VWS V14.01,2013-06-08 17:33:00,
2013-06-08 13:34:00,71.4,53.4,29.87,NW,317,0.0,1.0,53,0.00,,---,0.13,VWS V14.01,2013-06-08 17:34:00,
2013-06-08 13:35:00,71.7,56.2,29.87,WNW,298,3.0,3.0,58,0.00,,---,0.13,VWS V14.01,2013-06-08 17:35:00,
2013-06-08 13:36:00,71.1,54.6,29.87,NW,311,1.0,1.0,56,0.00,,---,0.13,VWS V14.01,2013-06-08 17:36:00,
2013-06-08 13:37:00,71.2,56.2,29.87,East,84,0.0,1.0,59,0.00,,---,0.13,VWS V14.01,2013-06-08 17:37:00,
2013-06-08 13:38:00,71.3,57.2,29.87,East,83,0.0,1.0,61,0.00,,---,0.13,VWS V14.01,2013-06-08 17:38:00,
2013-06-08 13:39:00,71.3,55.3,29.87,East,83,0.0,1.0,57,0.00,,---,0.13,VWS V14.01,2013-06-08 17:39:00,
2013-06-08 13:40:00,72.0,56.0,29.87,NW,319,0.0,0.0,57,0.00,,---,0.13,VWS V14.01,2013-06-08 17:40:00,
2013-06-08 13:41:00,71.4,55.4,29.87,East,83,0.0,0.0,57,0.00,,---,0.13,VWS V14.01,2013-06-08 17:41:00,
2013-06-08 13:42:00,71.6,55.1,29.87,WNW,303,1.0,1.0,56,0.00,,---,0.13,VWS V14.01,2013-06-08 17:42:00,
2013-06-08 13:43:00,71.7,55.2,29.87,WNW,285,3.0,4.0,56,0.00,,---,0.13,VWS V14.01,2013-06-08 17:43:00,
2013-06-08 13:44:00,71.8,54.3,29.86,WNW,285,0.0,4.0,54,0.00,,---,0.13,VWS V14.01,2013-06-08 17:44:00,
2013-06-08 13:45:00,71.2,54.2,29.87,NW,312,1.0,1.0,55,0.00,,---,0.13,VWS V14.01,2013-06-08 17:45:00,
2013-06-08 13:46:00,72.1,56.5,29.86,NW,309,0.0,1.0,58,0.00,,---,0.13,VWS V14.01,2013-06-08 17:46:00,
2013-06-08 13:47:00,72.1,56.5,29.86,NW,309,0.0,1.0,58,0.00,,---,0.13,VWS V14.01,2013-06-08 17:47:00,
2013-06-08 13:48:00,72.1,55.6,29.86,NW,309,0.0,1.0,56,0.00,,---,0.13,VWS V14.01,2013-06-08 17:48:00,
2013-06-08 13:49:00,72.1,55.6,29.86,NW,309,0.0,1.0,56,0.00,,---,0.13,VWS V14.01,2013-06-08 17:49:00,
2013-06-08 13:50:00,71.3,55.3,29.87,East,83,0.0,0.0,57,0.00,,---,0.13,VWS V14.01,2013-06-08 17:50:00,
2013-06-08 13:51:00,72.0,56.0,29.86,NW,309,0.0,0.0,57,0.00,,---,0.13,VWS V14.01,2013-06-08 17:51:00,
2013-06-08 13:52:00,71.9,54.9,29.86,NW,309,0.0,1.0,55,0.00,,---,0.13,VWS V14.01,2013-06-08 17:52:00,
2013-06-08 13:53:00,71.9,54.9,29.86,NW,309,0.0,1.0,55,0.00,,---,0.13,VWS V14.01,2013-06-08 17:53:00,
2013-06-08 13:54:00,72.0,56.0,29.86,NW,309,0.0,1.0,57,0.00,,---,0.13,VWS V14.01,2013-06-08 17:54:00,
2013-06-08 13:55:00,72.0,55.5,29.86,NW,309,0.0,1.0,56,0.00,,---,0.13,VWS V14.01,2013-06-08 17:55:00,
2013-06-08 13:56:00,72.1,55.6,29.86,NW,309,0.0,1.0,56,0.00,,---,0.13,VWS V14.01,2013-06-08 17:56:00,
2013-06-08 13:57:00,72.0,56.0,29.86,NW,309,0.0,1.0,57,0.00,,---,0.13,VWS V14.01,2013-06-08 17:57:00,
2013-06-08 13:58:00,71.9,55.4,29.86,NW,309,0.0,1.0,56,0.00,,---,0.13,VWS V14.01,2013-06-08 17:58:00,
2013-06-08 13:59:00,71.8,56.7,29.86,NW,309,0.0,1.0,59,0.00,,---,0.13,VWS V14.01,2013-06-08 17:59:00,
2013-06-08 14:00:00,72.1,55.6,29.86,NW,309,0.0,0.0,56,0.00,,---,0.13,VWS V14.01,2013-06-08 18:00:00,
2013-06-08 14:01:00,71.3,54.8,29.86,NW,309,0.0,0.0,56,0.00,,---,0.13,VWS V14.01,2013-06-08 18:01:00,
2013-06-08 14:02:00,71.3,55.8,29.86,NW,309,0.0,1.0,58,0.00,,---,0.13,VWS V14.01,2013-06-08 18:02:00,
2013-06-08 14:03:00,71.3,55.3,29.86,NW,309,0.0,1.0,57,0.00,,---,0.13,VWS V14.01,2013-06-08 18:03:00,
2013-06-08 14:04:00,71.3,55.8,29.86,NW,309,0.0,1.0,58,0.00,,---,0.13,VWS V14.01,2013-06-08 18:04:00,
2013-06-08 14:05:00,72.1,55.6,29.86,NW,309,0.0,0.0,56,0.00,,---,0.13,VWS V14.01,2013-06-08 18:05:00,
2013-06-08 14:06:00,71.3,56.2,29.86,NW,309,0.0,1.0,59,0.00,,---,0.13,VWS V14.01,2013-06-08 18:06:00,
2013-06-08 14:07:00,71.4,56.8,29.86,NW,309,0.0,1.0,60,0.00,,---,0.13,VWS V14.01,2013-06-08 18:07:00,
2013-06-08 14:08:00,71.4,56.8,29.86,NW,309,0.0,1.0,60,0.00,,---,0.13,VWS V14.01,2013-06-08 18:08:00,
2013-06-08 14:09:00,71.4,54.9,29.86,NW,309,0.0,1.0,56,0.00,,---,0.13,VWS V14.01,2013-06-08 18:09:00,
2013-06-08 14:10:00,71.5,55.0,29.86,NW,309,0.0,0.0,56,0.00,,---,0.13,VWS V14.01,2013-06-08 18:10:00,
2013-06-08 14:11:00,71.5,56.9,29.86,WNW,299,0.0,0.0,60,0.00,,---,0.13,VWS V14.01,2013-06-08 18:11:00,
2013-06-08 14:12:00,71.8,56.7,29.86,WNW,299,1.0,1.0,59,0.00,,---,0.13,VWS V14.01,2013-06-08 18:12:00,
2013-06-08 14:13:00,72.2,57.1,29.86,WNW,302,3.0,3.0,59,0.00,,---,0.13,VWS V14.01,2013-06-08 18:13:00,
2013-06-08 14:14:00,72.5,55.4,29.86,WNW,302,2.0,3.0,55,0.00,,---,0.13,VWS V14.01,2013-06-08 18:14:00,
2013-06-08 14:15:00,71.3,54.8,29.86,NW,309,0.0,1.0,56,0.00,,---,0.13,VWS V14.01,2013-06-08 18:15:00,
2013-06-08 14:16:00,73.0,56.4,29.86,NW,315,0.0,3.0,56,0.00,,---,0.13,VWS V14.01,2013-06-08 18:16:00,
2013-06-08 14:17:00,73.4,57.7,29.86,NW,314,1.0,3.0,58,0.00,,---,0.13,VWS V14.01,2013-06-08 18:17:00,
2013-06-08 14:18:00,73.5,56.9,29.86,NW,314,1.0,3.0,56,0.00,,---,0.13,VWS V14.01,2013-06-08 18:18:00,
2013-06-08 14:19:00,73.7,55.5,29.86,NNW,328,2.0,5.0,53,0.00,,---,0.13,VWS V14.01,2013-06-08 18:19:00,
2013-06-08 14:20:00,71.5,56.9,29.86,NW,309,0.0,0.0,60,0.00,,---,0.13,VWS V14.01,2013-06-08 18:20:00,
2013-06-08 14:21:00,74.0,57.3,29.86,NW,323,0.0,5.0,56,0.00,,---,0.13,VWS V14.01,2013-06-08 18:21:00,
2013-06-08 14:22:00,74.2,59.0,29.86,NW,323,0.0,5.0,59,0.00,,---,0.13,VWS V14.01,2013-06-08 18:22:00,
2013-06-08 14:23:00,74.3,56.1,29.86,NW,315,1.0,5.0,53,0.00,,---,0.13,VWS V14.01,2013-06-08 18:23:00,
2013-06-08 14:24:00,74.4,57.2,29.86,NW,314,0.0,5.0,55,0.00,,---,0.13,VWS V14.01,2013-06-08 18:24:00,
2013-06-08 14:25:00,72.8,56.2,29.86,NW,314,1.0,3.0,56,0.00,,---,0.13,VWS V14.01,2013-06-08 18:25:00,
2013-06-08 14:26:00,74.6,57.4,29.86,NW,314,3.0,3.0,55,0.00,,---,0.13,VWS V14.01,2013-06-08 18:26:00,
2013-06-08 14:27:00,74.4,55.1,29.86,NW,314,0.0,3.0,51,0.00,,---,0.13,VWS V14.01,2013-06-08 18:27:00,
2013-06-08 14:28:00,74.1,54.3,29.86,NW,314,0.0,3.0,50,0.00,,---,0.13,VWS V14.01,2013-06-08 18:28:00,
2013-06-08 14:29:00,73.8,55.1,29.86,NW,314,0.0,3.0,52,0.00,,---,0.13,VWS V14.01,2013-06-08 18:29:00,
2013-06-08 14:30:00,73.9,55.7,29.86,NW,319,1.0,5.0,53,0.00,,---,0.13,VWS V14.01,2013-06-08 18:30:00,
2013-06-08 14:31:00,73.2,56.1,29.86,NW,314,0.0,0.0,55,0.00,,---,0.13,VWS V14.01,2013-06-08 18:31:00,
2013-06-08 14:32:00,72.9,56.8,29.86,NW,314,0.0,0.0,57,0.00,,---,0.13,VWS V14.01,2013-06-08 18:32:00,
2013-06-08 14:33:00,72.6,56.0,29.86,NW,314,0.0,0.0,56,0.00,,---,0.13,VWS V14.01,2013-06-08 18:33:00,
2013-06-08 14:34:00,72.3,56.2,29.86,NW,314,0.0,0.0,57,0.00,,---,0.13,VWS V14.01,2013-06-08 18:34:00,
2013-06-08 14:35:00,74.5,56.8,29.86,NW,314,0.0,1.0,54,0.00,,---,0.13,VWS V14.01,2013-06-08 18:35:00,
2013-06-08 14:36:00,71.9,56.8,29.86,NW,314,0.0,0.0,59,0.00,,---,0.13,VWS V14.01,2013-06-08 18:36:00,
2013-06-08 14:37:00,71.7,56.2,29.86,NW,314,0.0,0.0,58,0.00,,---,0.13,VWS V14.01,2013-06-08 18:37:00,
2013-06-08 14:38:00,71.6,55.1,29.86,NW,314,0.0,0.0,56,0.00,,---,0.13,VWS V14.01,2013-06-08 18:38:00,
2013-06-08 14:39:00,71.5,56.0,29.86,WNW,302,0.0,0.0,58,0.00,,---,0.13,VWS V14.01,2013-06-08 18:39:00,
2013-06-08 14:40:00,73.4,55.2,29.86,NW,314,0.0,0.0,53,0.00,,---,0.13,VWS V14.01,2013-06-08 18:40:00,
2013-06-08 14:41:00,71.7,57.1,29.86,WNW,302,0.0,0.0,60,0.00,,---,0.13,VWS V14.01,2013-06-08 18:41:00,
2013-06-08 14:42:00,71.7,54.7,29.86,WNW,302,0.0,0.0,55,0.00,,---,0.13,VWS V14.01,2013-06-08 18:42:00,
2013-06-08 14:43:00,71.7,55.2,29.86,WNW,302,0.0,0.0,56,0.00,,---,0.13,VWS V14.01,2013-06-08 18:43:00,
2013-06-08 14:44:00,71.7,55.7,29.86,WNW,302,0.0,0.0,57,0.00,,---,0.13,VWS V14.01,2013-06-08 18:44:00,
2013-06-08 14:45:00,72.1,56.5,29.86,NW,314,0.0,0.0,58,0.00,,---,0.13,VWS V14.01,2013-06-08 18:45:00,
2013-06-08 14:46:00,71.7,54.7,29.86,WNW,302,0.0,0.0,55,0.00,,---,0.13,VWS V14.01,2013-06-08 18:46:00,
2013-06-08 14:47:00,71.8,57.2,29.86,WNW,302,0.0,0.0,60,0.00,,---,0.13,VWS V14.01,2013-06-08 18:47:00,
2013-06-08 14:48:00,71.9,55.4,29.86,WNW,302,0.0,0.0,56,0.00,,---,0.13,VWS V14.01,2013-06-08 18:48:00,
2013-06-08 14:49:00,71.9,57.3,29.86,WNW,302,0.0,0.0,60,0.00,,---,0.13,VWS V14.01,2013-06-08 18:49:00,
2013-06-08 14:50:00,71.6,55.6,29.86,WNW,302,0.0,0.0,57,0.00,,---,0.13,VWS V14.01,2013-06-08 18:50:00,
2013-06-08 14:51:00,71.8,57.2,29.86,NW,308,0.0,1.0,60,0.00,,---,0.13,VWS V14.01,2013-06-08 18:51:00,
2013-06-08 14:52:00,71.7,58.5,29.86,NW,308,0.0,1.0,63,0.00,,---,0.13,VWS V14.01,2013-06-08 18:52:00,
2013-06-08 14:53:00,71.7,57.1,29.86,NW,308,1.0,2.0,60,0.00,,---,0.13,VWS V14.01,2013-06-08 18:53:00,
2013-06-08 14:54:00,71.7,55.2,29.86,NW,309,0.0,2.0,56,0.00,,---,0.13,VWS V14.01,2013-06-08 18:54:00,
2013-06-08 14:55:00,71.7,55.2,29.86,WNW,302,0.0,0.0,56,0.00,,---,0.13,VWS V14.01,2013-06-08 18:55:00,
2013-06-08 14:56:00,71.8,55.3,29.86,NW,309,0.0,1.0,56,0.00,,---,0.13,VWS V14.01,2013-06-08 18:56:00,
2013-06-08 14:57:00,71.8,55.3,29.86,NW,309,0.0,1.0,56,0.00,,---,0.13,VWS V14.01,2013-06-08 18:57:00,
2013-06-08 14:58:00,71.8,54.3,29.86,NW,309,0.0,1.0,54,0.00,,---,0.13,VWS V14.01,2013-06-08 18:58:00,
2013-06-08 14:59:00,71.8,54.3,29.86,NW,309,0.0,1.0,54,0.00,,---,0.13,VWS V14.01,2013-06-08 18:59:00,
2013-06-08 15:00:00,71.9,57.3,29.86,NW,308,0.0,1.0,60,0.00,,---,0.13,VWS V14.01,2013-06-08 19:00:00,
2013-06-08 15:01:00,72.0,55.5,29.86,NW,309,0.0,1.0,56,0.00,,---,0.13,VWS V14.01,2013-06-08 19:01:00,
2013-06-08 15:02:00,72.2,55.7,29.86,NW,309,0.0,1.0,56,0.00,,---,0.13,VWS V14.01,2013-06-08 19:02:00,
2013-06-08 15:03:00,72.4,55.8,29.86,NW,309,0.0,1.0,56,0.00,,---,0.13,VWS V14.01,2013-06-08 19:03:00,
2013-06-08 15:04:00,72.6,55.0,29.86,NW,309,0.0,1.0,54,0.00,,---,0.13,VWS V14.01,2013-06-08 19:04:00,
2013-06-08 15:05:00,71.7,54.7,29.86,NW,309,0.0,1.0,55,0.00,,---,0.13,VWS V14.01,2013-06-08 19:05:00,
2013-06-08 15:06:00,73.0,55.9,29.86,NW,317,3.0,3.0,55,0.00,,---,0.13,VWS V14.01,2013-06-08 19:06:00,
2013-06-08 15:07:00,73.1,55.5,29.86,NW,305,0.0,3.0,54,0.00,,---,0.13,VWS V14.01,2013-06-08 19:07:00,
2013-06-08 15:08:00,73.2,57.1,29.86,NW,305,0.0,3.0,57,0.00,,---,0.13,VWS V14.01,2013-06-08 19:08:00,
2013-06-08 15:09:00,73.1,56.5,29.86,NW,305,0.0,3.0,56,0.00,,---,0.13,VWS V14.01,2013-06-08 19:09:00,
2013-06-08 15:10:00,71.9,55.9,29.86,NW,309,0.0,0.0,57,0.00,,---,0.13,VWS V14.01,2013-06-08 19:10:00,
2013-06-08 15:11:00,73.1,58.9,29.86,NW,307,1.0,1.0,61,0.00,,---,0.13,VWS V14.01,2013-06-08 19:11:00,
2013-06-08 15:12:00,73.1,56.0,29.86,WSW,250,0.0,4.0,55,0.00,,---,0.13,VWS V14.01,2013-06-08 19:12:00,
2013-06-08 15:13:00,73.1,56.5,29.86,WSW,250,0.0,4.0,56,0.00,,---,0.13,VWS V14.01,2013-06-08 19:13:00,
2013-06-08 15:14:00,73.2,56.1,29.86,WSW,250,0.0,4.0,55,0.00,,---,0.13,VWS V14.01,2013-06-08 19:14:00,
2013-06-08 15:15:00,72.8,54.7,29.86,NW,310,1.0,2.0,53,0.00,,---,0.13,VWS V14.01,2013-06-08 19:15:00,
2013-06-08 15:16:00,73.1,55.0,29.86,WSW,250,0.0,1.0,53,0.00,,---,0.13,VWS V14.01,2013-06-08 19:16:00,
2013-06-08 15:17:00,73.1,56.5,29.86,WSW,250,0.0,1.0,56,0.00,,---,0.13,VWS V14.01,2013-06-08 19:17:00,
2013-06-08 15:18:00,73.0,55.9,29.86,WSW,250,0.0,1.0,55,0.00,,---,0.13,VWS V14.01,2013-06-08 19:18:00,
2013-06-08 15:19:00,72.9,56.3,29.86,WSW,250,0.0,1.0,56,0.00,,---,0.13,VWS V14.01,2013-06-08 19:19:00,
2013-06-08 15:20:00,73.1,57.5,29.86,NW,305,0.0,0.0,58,0.00,,---,0.13,VWS V14.01,2013-06-08 19:20:00,
2013-06-08 15:21:00,72.7,56.6,29.86,WSW,250,0.0,0.0,57,0.00,,---,0.13,VWS V14.01,2013-06-08 19:21:00,
2013-06-08 15:22:00,72.7,55.6,29.86,WSW,250,1.0,1.0,55,0.00,,---,0.13,VWS V14.01,2013-06-08 19:22:00,
2013-06-08 15:23:00,72.7,56.6,29.86,WSW,250,1.0,1.0,57,0.00,,---,0.13,VWS V14.01,2013-06-08 19:23:00,
2013-06-08 15:24:00,72.8,55.7,29.86,WSW,250,0.0,1.0,55,0.00,,---,0.13,VWS V14.01,2013-06-08 19:24:00,
2013-06-08 15:25:00,73.1,57.0,29.86,WSW,250,0.0,0.0,57,0.00,,---,0.13,VWS V14.01,2013-06-08 19:25:00,
2013-06-08 15:26:00,73.0,55.4,29.86,WSW,250,0.0,1.0,54,0.00,,---,0.13,VWS V14.01,2013-06-08 19:26:00,
2013-06-08 15:27:00,73.0,56.9,29.86,WSW,250,0.0,1.0,57,0.00,,---,0.13,VWS V14.01,2013-06-08 19:27:00,
2013-06-08 15:28:00,73.0,54.9,29.86,WSW,250,0.0,1.0,53,0.00,,---,0.13,VWS V14.01,2013-06-08 19:28:00,
2013-06-08 15:29:00,73.0,54.9,29.86,WSW,250,0.0,1.0,53,0.00,,---,0.13,VWS V14.01,2013-06-08 19:29:00,
2013-06-08 15:30:00,72.8,55.7,29.86,WSW,250,0.0,0.0,55,0.00,,---,0.13,VWS V14.01,2013-06-08 19:30:00,
2013-06-08 15:31:00,73.5,57.8,29.86,WSW,250,0.0,0.0,58,0.00,,---,0.13,VWS V14.01,2013-06-08 19:31:00,
2013-06-08 15:32:00,73.7,57.5,29.86,WSW,250,0.0,1.0,57,0.00,,---,0.13,VWS V14.01,2013-06-08 19:32:00,
2013-06-08 15:33:00,73.9,56.2,29.86,WSW,250,0.0,1.0,54,0.00,,---,0.13,VWS V14.01,2013-06-08 19:33:00,
2013-06-08 15:34:00,74.1,55.9,29.86,WSW,250,2.0,2.0,53,0.00,,---,0.13,VWS V14.01,2013-06-08 19:34:00,
2013-06-08 15:35:00,72.9,56.3,29.86,WSW,250,0.0,1.0,56,0.00,,---,0.13,VWS V14.01,2013-06-08 19:35:00,
2013-06-08 15:36:00,74.3,57.1,29.86,WSW,250,0.0,2.0,55,0.00,,---,0.13,VWS V14.01,2013-06-08 19:36:00,
2013-06-08 15:38:00,74.4,58.2,29.86,WSW,250,0.0,2.0,57,0.00,,---,0.13,VWS V14.01,2013-06-08 19:38:00,
2013-06-08 15:39:00,74.4,56.2,29.86,SW,221,0.0,2.0,53,0.00,,---,0.13,VWS V14.01,2013-06-08 19:39:00,
2013-06-08 15:40:00,73.2,55.1,29.86,WSW,250,0.0,0.0,53,0.00,,---,0.13,VWS V14.01,2013-06-08 19:40:00,
2013-06-08 15:41:00,74.4,56.7,29.86,SW,221,0.0,0.0,54,0.00,,---,0.13,VWS V14.01,2013-06-08 19:41:00,
2013-06-08 15:42:00,74.4,55.1,29.86,SW,221,0.0,0.0,51,0.00,,---,0.13,VWS V14.01,2013-06-08 19:42:00,
2013-06-08 15:43:00,74.5,56.8,29.86,SW,221,0.0,1.0,54,0.00,,---,0.13,VWS V14.01,2013-06-08 19:43:00,
2013-06-08 15:44:00,74.5,57.3,29.85,SW,221,0.0,1.0,55,0.00,,---,0.13,VWS V14.01,2013-06-08 19:44:00,
2013-06-08 15:45:00,74.2,56.5,29.86,WSW,250,1.0,2.0,54,0.00,,---,0.13,VWS V14.01,2013-06-08 19:45:00,
2013-06-08 15:46:00,74.3,55.6,29.85,SW,221,0.0,1.0,52,0.00,,---,0.13,VWS V14.01,2013-06-08 19:46:00,
2013-06-08 15:47:00,74.3,58.1,29.85,SW,221,0.0,1.0,57,0.00,,---,0.13,VWS V14.01,2013-06-08 19:47:00,
2013-06-08 15:48:00,74.3,56.1,29.85,NNW,346,1.0,4.0,53,0.00,,---,0.13,VWS V14.01,2013-06-08 19:48:00,
2013-06-08 15:49:00,74.3,55.6,29.85,NNW,346,1.0,4.0,52,0.00,,---,0.13,VWS V14.01,2013-06-08 19:49:00,
2013-06-08 15:50:00,74.4,55.7,29.86,SW,221,0.0,0.0,52,0.00,,---,0.13,VWS V14.01,2013-06-08 19:50:00,
2013-06-08 15:51:00,74.2,54.9,29.85,NNW,346,0.0,1.0,51,0.00,,---,0.13,VWS V14.01,2013-06-08 19:51:00,
2013-06-08 15:52:00,74.2,56.0,29.85,NNW,346,0.0,1.0,53,0.00,,---,0.13,VWS V14.01,2013-06-08 19:52:00,
2013-06-08 15:53:00,74.2,56.0,29.85,West,277,1.0,2.0,53,0.00,,---,0.13,VWS V14.01,2013-06-08 19:53:00,
2013-06-08 15:54:00,74.2,54.9,29.85,West,277,0.0,2.0,51,0.00,,---,0.13,VWS V14.01,2013-06-08 19:54:00,
2013-06-08 15:55:00,74.4,56.7,29.85,SW,221,0.0,1.0,54,0.00,,---,0.13,VWS V14.01,2013-06-08 19:55:00,
2013-06-08 15:56:00,73.9,54.1,29.85,West,278,1.0,1.0,50,0.00,,---,0.13,VWS V14.01,2013-06-08 19:56:00,
2013-06-08 15:57:00,73.8,54.6,29.85,West,278,0.0,1.0,51,0.00,,---,0.13,VWS V14.01,2013-06-08 19:57:00,
2013-06-08 15:58:00,73.8,55.6,29.85,West,278,0.0,1.0,53,0.00,,---,0.13,VWS V14.01,2013-06-08 19:58:00,
2013-06-08 15:59:00,73.7,55.0,29.86,West,278,0.0,1.0,52,0.00,,---,0.13,VWS V14.01,2013-06-08 19:59:00,
2013-06-08 16:00:00,74.2,55.5,29.85,NNW,346,0.0,1.0,52,0.00,,---,0.13,VWS V14.01,2013-06-08 20:00:00,
2013-06-08 16:01:00,73.5,55.9,29.86,West,278,0.0,1.0,54,0.00,,---,0.13,VWS V14.01,2013-06-08 20:01:00,
2013-06-08 16:02:00,73.3,56.2,29.86,West,278,0.0,1.0,55,0.00,,---,0.13,VWS V14.01,2013-06-08 20:02:00,
2013-06-08 16:03:00,73.1,55.5,29.86,West,278,0.0,1.0,54,0.00,,---,0.13,VWS V14.01,2013-06-08 20:03:00,
2013-06-08 16:04:00,72.9,55.8,29.86,West,278,0.0,1.0,55,0.00,,---,0.13,VWS V14.01,2013-06-08 20:04:00,
2013-06-08 16:05:00,74.0,55.3,29.85,West,278,0.0,1.0,52,0.00,,---,0.13,VWS V14.01,2013-06-08 20:05:00,
2013-06-08 16:06:00,72.6,55.5,29.86,NNW,329,0.0,3.0,55,0.00,,---,0.13,VWS V14.01,2013-06-08 20:06:00,
2013-06-08 16:07:00,72.6,55.5,29.86,NNW,329,0.0,3.0,55,0.00,,---,0.13,VWS V14.01,2013-06-08 20:07:00,
2013-06-08 16:08:00,72.5,55.9,29.86,NNW,329,0.0,3.0,56,0.00,,---,0.13,VWS V14.01,2013-06-08 20:08:00,
2013-06-08 16:09:00,72.4,56.3,29.86,NNW,329,0.0,3.0,57,0.00,,---,0.13,VWS V14.01,2013-06-08 20:09:00,
2013-06-08 16:10:00,73.6,56.5,29.86,West,278,0.0,1.0,55,0.00,,---,0.13,VWS V14.01,2013-06-08 20:10:00,
2013-06-08 16:11:00,72.3,53.7,29.86,NNW,329,0.0,1.0,52,0.00,,---,0.13,VWS V14.01,2013-06-08 20:11:00,
2013-06-08 16:12:00,72.2,55.7,29.86,NNW,329,0.0,1.0,56,0.00,,---,0.13,VWS V14.01,2013-06-08 20:12:00,
2013-06-08 16:13:00,72.2,55.7,29.86,NNW,329,0.0,1.0,56,0.00,,---,0.13,VWS V14.01,2013-06-08 20:13:00,
2013-06-08 16:14:00,72.1,55.6,29.86,NNW,329,0.0,1.0,56,0.00,,---,0.13,VWS V14.01,2013-06-08 20:14:00,
2013-06-08 16:15:00,72.7,55.1,29.86,West,278,0.0,0.0,54,0.00,,---,0.13,VWS V14.01,2013-06-08 20:15:00,
2013-06-08 16:16:00,72.1,56.5,29.86,NNW,329,0.0,1.0,58,0.00,,---,0.13,VWS V14.01,2013-06-08 20:16:00,
2013-06-08 16:17:00,72.1,57.0,29.86,NNW,329,0.0,1.0,59,0.00,,---,0.13,VWS V14.01,2013-06-08 20:17:00,
2013-06-08 16:18:00,72.0,56.4,29.86,NNW,329,0.0,1.0,58,0.00,,---,0.13,VWS V14.01,2013-06-08 20:18:00,
2013-06-08 16:19:00,72.0,56.0,29.86,NNW,329,0.0,1.0,57,0.00,,---,0.13,VWS V14.01,2013-06-08 20:19:00,
2013-06-08 16:20:00,72.3,55.2,29.86,NNW,329,0.0,1.0,55,0.00,,---,0.13,VWS V14.01,2013-06-08 20:20:00,
2013-06-08 16:21:00,72.1,56.0,29.86,NNW,329,0.0,0.0,57,0.00,,---,0.13,VWS V14.01,2013-06-08 20:21:00,
2013-06-08 16:22:00,72.1,56.5,29.86,NNW,329,0.0,0.0,58,0.00,,---,0.13,VWS V14.01,2013-06-08 20:22:00,
2013-06-08 16:23:00,72.1,56.0,29.86,NNW,333,0.0,1.0,57,0.00,,---,0.13,VWS V14.01,2013-06-08 20:23:00,
2013-06-08 16:24:00,72.2,56.6,29.86,NNW,333,0.0,1.0,58,0.00,,---,0.13,VWS V14.01,2013-06-08 20:24:00,
2013-06-08 16:25:00,72.1,56.0,29.86,NNW,329,0.0,1.0,57,0.00,,---,0.13,VWS V14.01,2013-06-08 20:25:00,
2013-06-08 16:26:00,72.3,57.2,29.86,NNW,333,0.0,0.0,59,0.00,,---,0.13,VWS V14.01,2013-06-08 20:26:00,
2013-06-08 16:27:00,72.2,56.1,29.86,NNW,333,0.0,0.0,57,0.00,,---,0.13,VWS V14.01,2013-06-08 20:27:00,
2013-06-08 16:28:00,72.3,54.7,29.86,NNW,333,0.0,0.0,54,0.00,,---,0.13,VWS V14.01,2013-06-08 20:28:00,
2013-06-08 16:29:00,72.4,55.8,29.86,NNW,333,0.0,0.0,56,0.00,,---,0.13,VWS V14.01,2013-06-08 20:29:00,
2013-06-08 16:30:00,72.0,55.5,29.86,NNW,329,0.0,0.0,56,0.00,,---,0.13,VWS V14.01,2013-06-08 20:30:00,
2013-06-08 16:31:00,72.6,55.0,29.86,NNW,333,0.0,1.0,54,0.00,,---,0.13,VWS V14.01,2013-06-08 20:31:00,
2013-06-08 16:32:00,72.8,55.2,29.86,NNW,333,1.0,1.0,54,0.00,,---,0.13,VWS V14.01,2013-06-08 20:32:00,
2013-06-08 16:33:00,73.0,56.4,29.86,NNW,333,0.0,1.0,56,0.00,,---,0.13,VWS V14.01,2013-06-08 20:33:00,
2013-06-08 16:34:00,73.1,56.0,29.86,NNW,333,0.0,1.0,55,0.00,,---,0.13,VWS V14.01,2013-06-08 20:34:00,
2013-06-08 16:35:00,72.2,56.6,29.86,NNW,333,0.0,0.0,58,0.00,,---,0.13,VWS V14.01,2013-06-08 20:35:00,
2013-06-08 16:36:00,73.4,56.3,29.86,NNW,333,0.0,0.0,55,0.00,,---,0.13,VWS V14.01,2013-06-08 20:36:00,
2013-06-08 16:37:00,73.5,56.4,29.86,NW,309,2.0,2.0,55,0.00,,---,0.13,VWS V14.01,2013-06-08 20:37:00,
2013-06-08 16:38:00,73.6,53.8,29.86,NW,309,0.0,2.0,50,0.00,,---,0.13,VWS V14.01,2013-06-08 20:38:00,
2013-06-08 16:39:00,73.7,55.0,29.86,NW,309,0.0,2.0,52,0.00,,---,0.13,VWS V14.01,2013-06-08 20:39:00,
2013-06-08 16:40:00,72.4,55.8,29.86,NNW,333,1.0,1.0,56,0.00,,---,0.13,VWS V14.01,2013-06-08 20:40:00,
2013-06-08 16:41:00,73.7,56.0,29.86,NW,309,0.0,0.0,54,0.00,,---,0.13,VWS V14.01,2013-06-08 20:41:00,
2013-06-08 16:42:00,73.7,56.5,29.86,NW,309,0.0,0.0,55,0.00,,---,0.13,VWS V14.01,2013-06-08 20:42:00,
2013-06-08 16:43:00,73.6,58.4,29.86,NW,309,0.0,0.0,59,0.00,,---,0.13,VWS V14.01,2013-06-08 20:43:00,
2013-06-08 16:44:00,73.5,58.3,29.86,NW,309,0.0,0.0,59,0.00,,---,0.13,VWS V14.01,2013-06-08 20:44:00,
2013-06-08 16:45:00,73.1,56.0,29.86,NNW,333,0.0,0.0,55,0.00,,---,0.13,VWS V14.01,2013-06-08 20:45:00,
2013-06-08 16:46:00,73.3,57.2,29.86,NW,309,0.0,0.0,57,0.00,,---,0.13,VWS V14.01,2013-06-08 20:46:00,
2013-06-08 16:47:00,73.2,56.6,29.86,NW,309,0.0,0.0,56,0.00,,---,0.13,VWS V14.01,2013-06-08 20:47:00,
2013-06-08 16:48:00,73.1,56.5,29.86,NW,309,0.0,0.0,56,0.00,,---,0.13,VWS V14.01,2013-06-08 20:48:00,
2013-06-08 16:49:00,73.2,57.1,29.86,NW,309,0.0,0.0,57,0.00,,---,0.13,VWS V14.01,2013-06-08 20:49:00,
2013-06-08 16:50:00,73.8,57.1,29.86,NW,309,0.0,0.0,56,0.00,,---,0.13,VWS V14.01,2013-06-08 20:50:00,
2013-06-08 16:51:00,73.1,56.0,29.86,NW,309,0.0,0.0,55,0.00,,---,0.13,VWS V14.01,2013-06-08 20:51:00,
2013-06-08 16:52:00,73.1,57.0,29.86,NW,309,0.0,0.0,57,0.00,,---,0.13,VWS V14.01,2013-06-08 20:52:00,
2013-06-08 16:53:00,73.2,56.1,29.86,NW,309,0.0,0.0,55,0.00,,---,0.13,VWS V14.01,2013-06-08 20:53:00,
2013-06-08 16:54:00,73.3,56.7,29.86,NW,309,0.0,1.0,56,0.00,,---,0.13,VWS V14.01,2013-06-08 20:54:00,
2013-06-08 16:55:00,73.3,56.7,29.86,NW,309,0.0,0.0,56,0.00,,---,0.13,VWS V14.01,2013-06-08 20:55:00,
2013-06-08 16:56:00,73.8,57.6,29.86,NW,309,0.0,2.0,57,0.00,,---,0.13,VWS V14.01,2013-06-08 20:56:00,
2013-06-08 16:57:00,73.9,56.7,29.86,NW,309,1.0,2.0,55,0.00,,---,0.13,VWS V14.01,2013-06-08 20:57:00,
2013-06-08 16:58:00,74.1,56.4,29.86,NW,309,3.0,3.0,54,0.00,,---,0.13,VWS V14.01,2013-06-08 20:58:00,
2013-06-08 16:59:00,74.3,56.1,29.86,NW,306,0.0,3.0,53,0.00,,---,0.13,VWS V14.01,2013-06-08 20:59:00,
2013-06-08 17:00:00,73.2,56.6,29.86,NW,309,0.0,0.0,56,0.00,,---,0.13,VWS V14.01,2013-06-08 21:00:00,
2013-06-08 17:01:00,74.4,55.7,29.86,NW,306,0.0,1.0,52,0.00,,---,0.13,VWS V14.01,2013-06-08 21:01:00,
2013-06-08 17:02:00,74.3,56.6,29.86,NW,306,0.0,1.0,54,0.00,,---,0.13,VWS V14.01,2013-06-08 21:02:00,
2013-06-08 17:03:00,74.2,56.0,29.86,NW,306,0.0,1.0,53,0.00,,---,0.13,VWS V14.01,2013-06-08 21:03:00,
2013-06-08 17:04:00,74.0,56.8,29.86,NW,306,0.0,1.0,55,0.00,,---,0.13,VWS V14.01,2013-06-08 21:04:00,
2013-06-08 17:05:00,73.6,57.4,29.86,NW,309,0.0,2.0,57,0.00,,---,0.13,VWS V14.01,2013-06-08 21:05:00,
2013-06-08 17:06:00,73.6,54.9,29.86,NW,306,0.0,0.0,52,0.00,,---,0.13,VWS V14.01,2013-06-08 21:06:00,
2013-06-08 17:07:00,73.5,54.8,29.86,NW,306,0.0,1.0,52,0.00,,---,0.13,VWS V14.01,2013-06-08 21:07:00,
2013-06-08 17:08:00,73.4,55.8,29.86,NW,306,0.0,1.0,54,0.00,,---,0.13,VWS V14.01,2013-06-08 21:08:00,
2013-06-08 17:09:00,73.4,55.8,29.86,NW,306,0.0,1.0,54,0.00,,---,0.13,VWS V14.01,2013-06-08 21:09:00,
2013-06-08 17:10:00,74.4,55.1,29.86,NW,306,0.0,1.0,51,0.00,,---,0.13,VWS V14.01,2013-06-08 21:10:00,
2013-06-08 17:11:00,73.2,57.5,29.86,NW,306,0.0,0.0,58,0.00,,---,0.13,VWS V14.01,2013-06-08 21:11:00,
2013-06-08 17:12:00,72.9,56.3,29.86,NW,306,0.0,0.0,56,0.00,,---,0.13,VWS V14.01,2013-06-08 21:12:00,
2013-06-08 17:13:00,72.7,57.1,29.86,NW,306,0.0,0.0,58,0.00,,---,0.13,VWS V14.01,2013-06-08 21:13:00,
2013-06-08 17:14:00,72.5,56.4,29.86,NW,306,0.0,0.0,57,0.00,,---,0.13,VWS V14.01,2013-06-08 21:14:00,
2013-06-08 17:15:00,73.8,55.6,29.86,NW,306,0.0,0.0,53,0.00,,---,0.13,VWS V14.01,2013-06-08 21:15:00,
2013-06-08 17:16:00,72.4,55.8,29.86,NW,306,0.0,0.0,56,0.00,,---,0.13,VWS V14.01,2013-06-08 21:16:00,
2013-06-08 17:17:00,72.4,58.2,29.86,NW,306,0.0,0.0,61,0.00,,---,0.13,VWS V14.01,2013-06-08 21:17:00,
2013-06-08 17:18:00,72.3,57.2,29.86,NW,306,0.0,0.0,59,0.00,,---,0.13,VWS V14.01,2013-06-08 21:18:00,
2013-06-08 17:19:00,72.3,57.2,29.86,NW,306,0.0,0.0,59,0.00,,---,0.13,VWS V14.01,2013-06-08 21:19:00,
2013-06-08 17:20:00,73.3,55.7,29.86,NW,306,0.0,0.0,54,0.00,,---,0.13,VWS V14.01,2013-06-08 21:20:00,
2013-06-08 17:21:00,72.3,56.7,29.86,NW,306,0.0,0.0,58,0.00,,---,0.13,VWS V14.01,2013-06-08 21:21:00,
2013-06-08 17:22:00,72.4,56.3,29.86,NW,306,0.0,0.0,57,0.00,,---,0.13,VWS V14.01,2013-06-08 21:22:00,
2013-06-08 17:23:00,72.4,55.3,29.86,NW,311,0.0,1.0,55,0.00,,---,0.13,VWS V14.01,2013-06-08 21:23:00,
2013-06-08 17:24:00,72.5,56.4,29.86,WNW,303,1.0,2.0,57,0.00,,---,0.13,VWS V14.01,2013-06-08 21:24:00,
2013-06-08 17:25:00,72.4,55.8,29.86,NW,306,0.0,0.0,56,0.00,,---,0.13,VWS V14.01,2013-06-08 21:25:00,
2013-06-08 17:26:00,72.7,57.6,29.86,NW,309,1.0,1.0,59,0.00,,---,0.13,VWS V14.01,2013-06-08 21:26:00,
2013-06-08 17:27:00,72.7,55.6,29.86,NW,309,0.0,1.0,55,0.00,,---,0.13,VWS V14.01,2013-06-08 21:27:00,
2013-06-08 17:28:00,72.8,55.2,29.86,NW,309,0.0,1.0,54,0.00,,---,0.13,VWS V14.01,2013-06-08 21:28:00,
2013-06-08 17:29:00,72.9,54.3,29.86,NW,309,0.0,1.0,52,0.00,,---,0.13,VWS V14.01,2013-06-08 21:29:00,
2013-06-08 17:30:00,72.3,56.7,29.86,NW,306,0.0,0.0,58,0.00,,---,0.13,VWS V14.01,2013-06-08 21:30:00,
2013-06-08 17:31:00,73.0,56.4,29.86,NW,309,0.0,0.0,56,0.00,,---,0.13,VWS V14.01,2013-06-08 21:31:00,
2013-06-08 17:32:00,73.0,56.9,29.86,NW,309,0.0,0.0,57,0.00,,---,0.13,VWS V14.01,2013-06-08 21:32:00,
2013-06-08 17:33:00,72.9,55.8,29.86,NW,309,0.0,0.0,55,0.00,,---,0.13,VWS V14.01,2013-06-08 21:33:00,
2013-06-08 17:34:00,72.9,55.8,29.86,NW,309,0.0,0.0,55,0.00,,---,0.13,VWS V14.01,2013-06-08 21:34:00,
2013-06-08 17:35:00,72.6,57.5,29.86,WNW,303,0.0,1.0,59,0.00,,---,0.13,VWS V14.01,2013-06-08 21:35:00,
2013-06-08 17:36:00,73.0,55.9,29.86,NW,309,0.0,0.0,55,0.00,,---,0.13,VWS V14.01,2013-06-08 21:36:00,
2013-06-08 17:37:00,73.0,55.9,29.86,NW,309,0.0,0.0,55,0.00,,---,0.13,VWS V14.01,2013-06-08 21:37:00,
2013-06-08 17:38:00,72.9,55.8,29.86,NW,309,0.0,0.0,55,0.00,,---,0.13,VWS V14.01,2013-06-08 21:38:00,
2013-06-08 17:39:00,73.0,56.4,29.86,NW,309,0.0,0.0,56,0.00,,---,0.13,VWS V14.01,2013-06-08 21:39:00,
2013-06-08 17:40:00,73.0,55.9,29.86,NW,309,0.0,0.0,55,0.00,,---,0.13,VWS V14.01,2013-06-08 21:40:00,
2013-06-08 17:41:00,72.9,56.3,29.86,NW,309,0.0,0.0,56,0.00,,---,0.13,VWS V14.01,2013-06-08 21:41:00,
2013-06-08 17:42:00,73.0,56.4,29.86,NW,309,0.0,0.0,56,0.00,,---,0.13,VWS V14.01,2013-06-08 21:42:00,
2013-06-08 17:43:00,73.0,57.4,29.86,NW,309,0.0,0.0,58,0.00,,---,0.13,VWS V14.01,2013-06-08 21:43:00,
2013-06-08 17:44:00,73.0,57.8,29.86,NW,309,0.0,0.0,59,0.00,,---,0.13,VWS V14.01,2013-06-08 21:44:00,
2013-06-08 17:45:00,73.0,56.4,29.86,NW,309,0.0,0.0,56,0.00,,---,0.13,VWS V14.01,2013-06-08 21:45:00,
2013-06-08 17:46:00,73.1,57.5,29.86,NW,309,0.0,0.0,58,0.00,,---,0.13,VWS V14.01,2013-06-08 21:46:00,
2013-06-08 17:47:00,73.1,57.0,29.86,NW,309,0.0,0.0,57,0.00,,---,0.13,VWS V14.01,2013-06-08 21:47:00,
2013-06-08 17:48:00,73.1,56.5,29.86,NW,309,0.0,0.0,56,0.00,,---,0.13,VWS V14.01,2013-06-08 21:48:00,
2013-06-08 17:49:00,73.1,57.0,29.86,NW,309,0.0,0.0,57,0.00,,---,0.13,VWS V14.01,2013-06-08 21:49:00,
2013-06-08 17:50:00,73.0,56.9,29.86,NW,309,0.0,0.0,57,0.00,,---,0.13,VWS V14.01,2013-06-08 21:50:00,
2013-06-08 17:51:00,73.2,57.1,29.86,NW,309,0.0,0.0,57,0.00,,---,0.13,VWS V14.01,2013-06-08 21:51:00,
2013-06-08 17:52:00,73.2,55.6,29.86,NW,309,0.0,0.0,54,0.00,,---,0.13,VWS V14.01,2013-06-08 21:52:00,
2013-06-08 17:53:00,73.2,56.6,29.86,NW,309,0.0,0.0,56,0.00,,---,0.13,VWS V14.01,2013-06-08 21:53:00,
2013-06-08 17:54:00,73.3,56.7,29.86,NW,309,0.0,0.0,56,0.00,,---,0.13,VWS V14.01,2013-06-08 21:54:00,
2013-06-08 17:55:00,73.0,55.9,29.86,NW,309,0.0,0.0,55,0.00,,---,0.13,VWS V14.01,2013-06-08 21:55:00,
2013-06-08 17:56:00,73.4,56.3,29.86,NW,309,0.0,0.0,55,0.00,,---,0.13,VWS V14.01,2013-06-08 21:56:00,
2013-06-08 17:57:00,73.4,56.3,29.86,NW,309,0.0,0.0,55,0.00,,---,0.13,VWS V14.01,2013-06-08 21:57:00,
2013-06-08 17:58:00,73.4,56.3,29.86,NW,309,0.0,0.0,55,0.00,,---,0.13,VWS V14.01,2013-06-08 21:58:00,
2013-06-08 17:59:00,73.4,56.3,29.86,NW,309,0.0,0.0,55,0.00,,---,0.13,VWS V14.01,2013-06-08 21:59:00,
2013-06-08 18:00:00,73.1,57.0,29.86,NW,309,0.0,0.0,57,0.00,,---,0.13,VWS V14.01,2013-06-08 22:00:00,
2013-06-08 18:01:00,73.4,55.2,29.86,NW,309,0.0,0.0,53,0.00,,---,0.13,VWS V14.01,2013-06-08 22:01:00,
2013-06-08 18:02:00,73.5,57.3,29.86,NW,309,0.0,0.0,57,0.00,,---,0.13,VWS V14.01,2013-06-08 22:02:00,
2013-06-08 18:03:00,73.4,57.7,29.86,NW,309,0.0,0.0,58,0.00,,---,0.13,VWS V14.01,2013-06-08 22:03:00,
2013-06-08 18:04:00,73.3,57.7,29.86,NW,309,0.0,0.0,58,0.00,,---,0.13,VWS V14.01,2013-06-08 22:04:00,
2013-06-08 18:05:00,73.4,57.3,29.86,NW,309,0.0,0.0,57,0.00,,---,0.13,VWS V14.01,2013-06-08 22:05:00,
2013-06-08 18:06:00,73.2,56.6,29.86,NW,309,0.0,0.0,56,0.00,,---,0.13,VWS V14.01,2013-06-08 22:06:00,
2013-06-08 18:07:00,73.1,56.0,29.86,NW,309,0.0,0.0,55,0.00,,---,0.13,VWS V14.01,2013-06-08 22:07:00,
2013-06-08 18:08:00,73.1,56.0,29.86,NW,309,0.0,0.0,55,0.00,,---,0.13,VWS V14.01,2013-06-08 22:08:00,
2013-06-08 18:09:00,73.1,57.9,29.86,NW,309,0.0,0.0,59,0.00,,---,0.13,VWS V14.01,2013-06-08 22:09:00,
2013-06-08 18:10:00,73.4,56.8,29.86,NW,309,0.0,0.0,56,0.00,,---,0.13,VWS V14.01,2013-06-08 22:10:00,
2013-06-08 18:11:00,73.2,56.1,29.86,NW,309,0.0,0.0,55,0.00,,---,0.13,VWS V14.01,2013-06-08 22:11:00,
2013-06-08 18:12:00,73.2,55.1,29.86,NW,309,0.0,0.0,53,0.00,,---,0.13,VWS V14.01,2013-06-08 22:12:00,
2013-06-08 18:13:00,73.2,56.1,29.86,NW,309,0.0,0.0,55,0.00,,---,0.13,VWS V14.01,2013-06-08 22:13:00,
2013-06-08 18:14:00,73.2,58.0,29.86,NW,309,0.0,0.0,59,0.00,,---,0.13,VWS V14.01,2013-06-08 22:14:00,
2013-06-08 18:15:00,73.2,56.1,29.86,NW,309,0.0,0.0,55,0.00,,---,0.13,VWS V14.01,2013-06-08 22:15:00,
2013-06-08 18:16:00,73.1,56.5,29.86,South,189,0.0,1.0,56,0.00,,---,0.13,VWS V14.01,2013-06-08 22:16:00,
2013-06-08 18:17:00,73.0,56.9,29.86,South,189,0.0,1.0,57,0.00,,---,0.13,VWS V14.01,2013-06-08 22:17:00,
2013-06-08 18:18:00,73.0,56.4,29.86,South,189,0.0,1.0,56,0.00,,---,0.13,VWS V14.01,2013-06-08 22:18:00,
2013-06-08 18:19:00,73.0,56.4,29.86,South,189,0.0,1.0,56,0.00,,---,0.13,VWS V14.01,2013-06-08 22:19:00,
2013-06-08 18:20:00,73.2,57.1,29.86,NW,309,0.0,0.0,57,0.00,,---,0.13,VWS V14.01,2013-06-08 22:20:00,
2013-06-08 18:21:00,73.0,56.4,29.86,South,189,1.0,1.0,56,0.00,,---,0.13,VWS V14.01,2013-06-08 22:21:00,
2013-06-08 18:22:00,73.0,54.9,29.86,South,189,0.0,1.0,53,0.00,,---,0.13,VWS V14.01,2013-06-08 22:22:00,
2013-06-08 18:23:00,73.0,56.9,29.86,South,189,0.0,1.0,57,0.00,,---,0.13,VWS V14.01,2013-06-08 22:23:00,
2013-06-08 18:24:00,73.0,55.9,29.86,South,189,0.0,1.0,55,0.00,,---,0.13,VWS V14.01,2013-06-08 22:24:00,
2013-06-08 18:25:00,73.1,57.9,29.86,NNW,335,0.0,1.0,59,0.00,,---,0.13,VWS V14.01,2013-06-08 22:25:00,
2013-06-08 18:26:00,72.8,56.7,29.86,South,189,0.0,0.0,57,0.00,,---,0.13,VWS V14.01,2013-06-08 22:26:00,
2013-06-08 18:27:00,72.8,56.7,29.86,South,189,0.0,0.0,57,0.00,,---,0.13,VWS V14.01,2013-06-08 22:27:00,
2013-06-08 18:28:00,72.8,57.7,29.86,South,189,0.0,0.0,59,0.00,,---,0.13,VWS V14.01,2013-06-08 22:28:00,
2013-06-08 18:29:00,72.6,57.5,29.86,South,189,0.0,0.0,59,0.00,,---,0.13,VWS V14.01,2013-06-08 22:29:00,
2013-06-08 18:30:00,73.0,55.9,29.86,South,189,0.0,0.0,55,0.00,,---,0.13,VWS V14.01,2013-06-08 22:30:00,
2013-06-08 18:31:00,72.3,57.7,29.86,South,189,0.0,0.0,60,0.00,,---,0.13,VWS V14.01,2013-06-08 22:31:00,
2013-06-08 18:32:00,72.2,56.6,29.86,South,189,0.0,0.0,58,0.00,,---,0.13,VWS V14.01,2013-06-08 22:32:00,
2013-06-08 18:33:00,72.2,56.6,29.86,South,189,0.0,0.0,58,0.00,,---,0.13,VWS V14.01,2013-06-08 22:33:00,
2013-06-08 18:34:00,72.3,56.7,29.86,South,189,0.0,0.0,58,0.00,,---,0.13,VWS V14.01,2013-06-08 22:34:00,
2013-06-08 18:35:00,72.9,55.3,29.86,South,189,0.0,0.0,54,0.00,,---,0.13,VWS V14.01,2013-06-08 22:35:00,
2013-06-08 18:36:00,72.3,56.7,29.86,South,189,0.0,1.0,58,0.00,,---,0.13,VWS V14.01,2013-06-08 22:36:00,
2013-06-08 18:37:00,72.3,56.2,29.86,South,189,0.0,1.0,57,0.00,,---,0.13,VWS V14.01,2013-06-08 22:37:00,
2013-06-08 18:38:00,72.3,56.2,29.86,South,189,0.0,1.0,57,0.00,,---,0.13,VWS V14.01,2013-06-08 22:38:00,
2013-06-08 18:39:00,72.4,56.3,29.86,South,189,0.0,1.0,57,0.00,,---,0.13,VWS V14.01,2013-06-08 22:39:00,
2013-06-08 18:40:00,72.4,58.2,29.86,South,189,0.0,0.0,61,0.00,,---,0.13,VWS V14.01,2013-06-08 22:40:00,
2013-06-08 18:41:00,72.5,56.9,29.86,South,189,0.0,1.0,58,0.00,,---,0.13,VWS V14.01,2013-06-08 22:41:00,
2013-06-08 18:42:00,72.6,57.0,29.86,South,189,1.0,1.0,58,0.00,,---,0.13,VWS V14.01,2013-06-08 22:42:00,
2013-06-08 18:43:00,72.8,58.1,29.86,South,189,0.0,1.0,60,0.00,,---,0.13,VWS V14.01,2013-06-08 22:43:00,
2013-06-08 18:44:00,72.9,57.3,29.86,South,189,0.0,1.0,58,0.00,,---,0.13,VWS V14.01,2013-06-08 22:44:00,
2013-06-08 18:45:00,72.3,56.7,29.86,South,189,0.0,1.0,58,0.00,,---,0.13,VWS V14.01,2013-06-08 22:45:00,
2013-06-08 18:46:00,73.2,57.5,29.86,South,189,0.0,0.0,58,0.00,,---,0.13,VWS V14.01,2013-06-08 22:46:00,
2013-06-08 18:47:00,73.4,58.7,29.86,South,189,0.0,0.0,60,0.00,,---,0.13,VWS V14.01,2013-06-08 22:47:00,
2013-06-08 18:48:00,73.4,60.0,29.86,South,189,0.0,0.0,63,0.00,,---,0.13,VWS V14.01,2013-06-08 22:48:00,
2013-06-08 18:49:00,73.4,57.3,29.86,South,189,0.0,0.0,57,0.00,,---,0.13,VWS V14.01,2013-06-08 22:49:00,
2013-06-08 18:50:00,72.4,56.8,29.86,South,189,0.0,1.0,58,0.00,,---,0.13,VWS V14.01,2013-06-08 22:50:00,
2013-06-08 18:51:00,73.4,56.8,29.86,South,189,0.0,0.0,56,0.00,,---,0.13,VWS V14.01,2013-06-08 22:51:00,
2013-06-08 18:52:00,73.4,58.2,29.86,South,189,0.0,0.0,59,0.00,,---,0.13,VWS V14.01,2013-06-08 22:52:00,
2013-06-08 18:53:00,73.4,58.7,29.86,South,189,0.0,0.0,60,0.00,,---,0.13,VWS V14.01,2013-06-08 22:53:00,
2013-06-08 18:54:00,73.2,58.0,29.86,South,189,0.0,0.0,59,0.00,,---,0.13,VWS V14.01,2013-06-08 22:54:00,
2013-06-08 18:55:00,73.1,57.5,29.86,South,189,0.0,0.0,58,0.00,,---,0.13,VWS V14.01,2013-06-08 22:55:00,
2013-06-08 18:56:00,73.0,57.4,29.86,South,189,0.0,0.0,58,0.00,,---,0.13,VWS V14.01,2013-06-08 22:56:00,
2013-06-08 18:57:00,73.0,58.8,29.86,South,189,0.0,0.0,61,0.00,,---,0.13,VWS V14.01,2013-06-08 22:57:00,
2013-06-08 18:58:00,73.0,58.8,29.86,South,189,0.0,1.0,61,0.00,,---,0.13,VWS V14.01,2013-06-08 22:58:00,
2013-06-08 18:59:00,73.0,57.8,29.86,South,189,0.0,1.0,59,0.00,,---,0.13,VWS V14.01,2013-06-08 22:59:00,
2013-06-08 19:00:00,73.4,59.2,29.86,South,189,0.0,0.0,61,0.00,,---,0.13,VWS V14.01,2013-06-08 23:00:00,
2013-06-08 19:01:00,73.2,57.5,29.86,South,189,0.0,0.0,58,0.00,,---,0.13,VWS V14.01,2013-06-08 23:01:00,
2013-06-08 19:02:00,73.2,57.1,29.86,South,189,0.0,0.0,57,0.00,,---,0.13,VWS V14.01,2013-06-08 23:02:00,
2013-06-08 19:03:00,73.3,57.2,29.86,South,189,0.0,0.0,57,0.00,,---,0.13,VWS V14.01,2013-06-08 23:03:00,
2013-06-08 19:04:00,73.3,57.2,29.86,South,189,0.0,0.0,57,0.00,,---,0.13,VWS V14.01,2013-06-08 23:04:00,
2013-06-08 19:05:00,73.1,58.4,29.86,South,189,0.0,0.0,60,0.00,,---,0.13,VWS V14.01,2013-06-08 23:05:00,
2013-06-08 19:06:00,73.6,57.4,29.86,South,189,0.0,0.0,57,0.00,,---,0.13,VWS V14.01,2013-06-08 23:06:00,
2013-06-08 19:07:00,73.7,57.5,29.86,South,189,0.0,0.0,57,0.00,,---,0.13,VWS V14.01,2013-06-08 23:07:00,
2013-06-08 19:08:00,73.7,57.5,29.86,South,189,0.0,0.0,57,0.00,,---,0.13,VWS V14.01,2013-06-08 23:08:00,
2013-06-08 19:09:00,73.8,57.1,29.86,South,189,0.0,0.0,56,0.00,,---,0.13,VWS V14.01,2013-06-08 23:09:00,
2013-06-08 19:10:00,73.1,57.5,29.86,South,189,0.0,0.0,58,0.00,,---,0.13,VWS V14.01,2013-06-08 23:10:00,
2013-06-08 19:11:00,73.9,57.2,29.86,South,189,0.0,0.0,56,0.00,,---,0.13,VWS V14.01,2013-06-08 23:11:00,
2013-06-08 19:12:00,73.9,56.7,29.86,SSW,192,0.0,1.0,55,0.00,,---,0.13,VWS V14.01,2013-06-08 23:12:00,
2013-06-08 19:13:00,73.8,57.1,29.86,SSW,192,0.0,1.0,56,0.00,,---,0.13,VWS V14.01,2013-06-08 23:13:00,
2013-06-08 19:14:00,73.8,58.6,29.87,SSW,192,0.0,1.0,59,0.00,,---,0.13,VWS V14.01,2013-06-08 23:14:00,
2013-06-08 19:15:00,73.5,57.3,29.86,South,189,0.0,0.0,57,0.00,,---,0.13,VWS V14.01,2013-06-08 23:15:00,
2013-06-08 19:16:00,73.5,57.8,29.87,SSW,192,0.0,0.0,58,0.00,,---,0.13,VWS V14.01,2013-06-08 23:16:00,
2013-06-08 19:18:00,73.4,58.2,29.87,SSW,192,0.0,1.0,59,0.00,,---,0.13,VWS V14.01,2013-06-08 23:18:00,
2013-06-08 19:19:00,73.3,57.7,29.87,SSW,192,0.0,1.0,58,0.00,,---,0.13,VWS V14.01,2013-06-08 23:19:00,
2013-06-08 19:20:00,73.9,57.2,29.86,South,189,0.0,0.0,56,0.00,,---,0.13,VWS V14.01,2013-06-08 23:20:00,
2013-06-08 19:21:00,73.0,57.4,29.87,SSW,192,0.0,0.0,58,0.00,,---,0.13,VWS V14.01,2013-06-08 23:21:00,
2013-06-08 19:22:00,72.9,57.8,29.87,SSW,192,0.0,0.0,59,0.00,,---,0.13,VWS V14.01,2013-06-08 23:22:00,
2013-06-08 19:23:00,72.7,58.0,29.87,SSW,192,0.0,0.0,60,0.00,,---,0.13,VWS V14.01,2013-06-08 23:23:00,
2013-06-08 19:24:00,72.6,57.0,29.87,SSW,192,0.0,0.0,58,0.00,,---,0.13,VWS V14.01,2013-06-08 23:24:00,
2013-06-08 19:25:00,73.6,57.4,29.87,SSW,192,0.0,0.0,57,0.00,,---,0.13,VWS V14.01,2013-06-08 23:25:00,
2013-06-08 19:26:00,72.6,57.5,29.87,SSW,192,0.0,1.0,59,0.00,,---,0.13,VWS V14.01,2013-06-08 23:26:00,
2013-06-08 19:27:00,72.6,57.5,29.87,SSW,192,0.0,1.0,59,0.00,,---,0.13,VWS V14.01,2013-06-08 23:27:00,
2013-06-08 19:28:00,72.7,57.6,29.87,SSW,192,0.0,1.0,59,0.00,,---,0.13,VWS V14.01,2013-06-08 23:28:00,
2013-06-08 19:29:00,72.7,58.0,29.87,SSW,192,0.0,1.0,60,0.00,,---,0.13,VWS V14.01,2013-06-08 23:29:00,
2013-06-08 19:30:00,73.1,57.9,29.87,SSW,192,0.0,0.0,59,0.00,,---,0.13,VWS V14.01,2013-06-08 23:30:00,
2013-06-08 19:31:00,72.8,57.2,29.87,WNW,285,0.0,1.0,58,0.00,,---,0.13,VWS V14.01,2013-06-08 23:31:00,
2013-06-08 19:32:00,72.8,57.2,29.87,WNW,285,0.0,1.0,58,0.00,,---,0.13,VWS V14.01,2013-06-08 23:32:00,
2013-06-08 19:33:00,72.8,56.7,29.87,WNW,285,0.0,1.0,57,0.00,,---,0.13,VWS V14.01,2013-06-08 23:33:00,
2013-06-08 19:34:00,72.7,57.1,29.87,WNW,285,0.0,1.0,58,0.00,,---,0.13,VWS V14.01,2013-06-08 23:34:00,
2013-06-08 19:35:00,72.6,57.0,29.87,SSW,192,0.0,1.0,58,0.00,,---,0.13,VWS V14.01,2013-06-08 23:35:00,
2013-06-08 19:36:00,72.7,56.6,29.87,WNW,285,0.0,1.0,57,0.00,,---,0.13,VWS V14.01,2013-06-08 23:36:00,
2013-06-08 19:37:00,72.6,56.5,29.87,WNW,285,0.0,1.0,57,0.00,,---,0.13,VWS V14.01,2013-06-08 23:37:00,
2013-06-08 19:38:00,72.6,57.0,29.87,WNW,285,0.0,1.0,58,0.00,,---,0.13,VWS V14.01,2013-06-08 23:38:00,
2013-06-08 19:39:00,72.5,56.9,29.87,WNW,285,0.0,1.0,58,0.00,,---,0.13,VWS V14.01,2013-06-08 23:39:00,
2013-06-08 19:40:00,72.7,57.6,29.87,SSW,192,0.0,0.0,59,0.00,,---,0.13,VWS V14.01,2013-06-08 23:40:00,
2013-06-08 19:41:00,72.4,56.3,29.87,WNW,285,0.0,1.0,57,0.00,,---,0.13,VWS V14.01,2013-06-08 23:41:00,
2013-06-08 19:42:00,72.3,57.2,29.87,WNW,285,0.0,1.0,59,0.00,,---,0.13,VWS V14.01,2013-06-08 23:42:00,
2013-06-08 19:43:00,72.1,57.0,29.87,WNW,285,0.0,1.0,59,0.00,,---,0.13,VWS V14.01,2013-06-08 23:43:00,
2013-06-08 19:44:00,72.0,56.4,29.87,WNW,285,0.0,1.0,58,0.00,,---,0.13,VWS V14.01,2013-06-08 23:44:00,
2013-06-08 19:45:00,72.7,57.6,29.87,WNW,285,0.0,1.0,59,0.00,,---,0.13,VWS V14.01,2013-06-08 23:45:00,
2013-06-08 19:46:00,71.8,55.8,29.87,WNW,285,0.0,0.0,57,0.00,,---,0.13,VWS V14.01,2013-06-08 23:46:00,
2013-06-08 19:47:00,71.8,56.2,29.87,WNW,285,0.0,0.0,58,0.00,,---,0.13,VWS V14.01,2013-06-08 23:47:00,
2013-06-08 19:48:00,71.6,57.0,29.87,WNW,285,0.0,0.0,60,0.00,,---,0.13,VWS V14.01,2013-06-08 23:48:00,
2013-06-08 19:49:00,71.4,57.3,29.87,WNW,285,0.0,0.0,61,0.00,,---,0.13,VWS V14.01,2013-06-08 23:49:00,
2013-06-08 19:50:00,72.4,56.3,29.87,WNW,285,0.0,0.0,57,0.00,,---,0.13,VWS V14.01,2013-06-08 23:50:00,
2013-06-08 19:51:00,71.2,57.5,29.87,WNW,285,0.0,0.0,62,0.00,,---,0.13,VWS V14.01,2013-06-08 23:51:00,
2013-06-08 19:52:00,71.1,56.5,29.87,WNW,285,0.0,0.0,60,0.00,,---,0.13,VWS V14.01,2013-06-08 23:52:00,
2013-06-08 19:53:00,71.0,56.4,29.87,WNW,285,0.0,0.0,60,0.00,,---,0.13,VWS V14.01,2013-06-08 23:53:00,
2013-06-08 19:54:00,70.9,56.8,29.87,WNW,285,0.0,0.0,61,0.00,,---,0.13,VWS V14.01,2013-06-08 23:54:00,
2013-06-08 19:55:00,71.9,56.3,29.87,WNW,285,0.0,0.0,58,0.00,,---,0.13,VWS V14.01,2013-06-08 23:55:00,
2013-06-08 19:56:00,70.8,55.3,29.87,WNW,285,0.0,0.0,58,0.00,,---,0.13,VWS V14.01,2013-06-08 23:56:00,
2013-06-08 19:57:00,70.7,55.7,29.87,WNW,285,0.0,0.0,59,0.00,,---,0.13,VWS V14.01,2013-06-08 23:57:00,
2013-06-08 19:58:00,70.6,56.1,29.87,WNW,285,0.0,0.0,60,0.00,,---,0.13,VWS V14.01,2013-06-08 23:58:00,
2013-06-08 19:59:00,70.5,56.0,29.88,WNW,285,0.0,0.0,60,0.00,,---,0.13,VWS V14.01,2013-06-08 23:59:00,
2013-06-08 20:00:00,71.3,57.2,29.87,WNW,285,0.0,0.0,61,0.00,,---,0.13,VWS V14.01,2013-06-09 00:00:00,
2013-06-08 20:01:00,70.4,56.3,29.88,WNW,285,0.0,0.0,61,0.00,,---,0.13,VWS V14.01,2013-06-09 00:01:00,
2013-06-08 20:02:00,70.2,56.1,29.88,WNW,285,0.0,0.0,61,0.00,,---,0.13,VWS V14.01,2013-06-09 00:02:00,
2013-06-08 20:03:00,70.1,56.0,29.88,WNW,285,0.0,0.0,61,0.00,,---,0.13,VWS V14.01,2013-06-09 00:03:00,
2013-06-08 20:04:00,70.0,55.5,29.88,WNW,285,0.0,1.0,60,0.00,,---,0.13,VWS V14.01,2013-06-09 00:04:00,
2013-06-08 20:05:00,70.8,55.8,29.87,WNW,285,0.0,0.0,59,0.00,,---,0.13,VWS V14.01,2013-06-09 00:05:00,
2013-06-08 20:06:00,69.9,55.4,29.88,WNW,285,0.0,0.0,60,0.00,,---,0.13,VWS V14.01,2013-06-09 00:06:00,
2013-06-08 20:07:00,69.9,55.8,29.88,WNW,285,0.0,0.0,61,0.00,,---,0.13,VWS V14.01,2013-06-09 00:07:00,
2013-06-08 20:08:00,69.8,55.8,29.88,WNW,285,0.0,0.0,61,0.00,,---,0.13,VWS V14.01,2013-06-09 00:08:00,
2013-06-08 20:09:00,69.8,55.3,29.88,WNW,285,0.0,0.0,60,0.00,,---,0.13,VWS V14.01,2013-06-09 00:09:00,
2013-06-08 20:10:00,70.4,55.9,29.88,WNW,285,0.0,0.0,60,0.00,,---,0.13,VWS V14.01,2013-06-09 00:10:00,
2013-06-08 20:11:00,69.7,55.2,29.88,WNW,285,0.0,0.0,60,0.00,,---,0.13,VWS V14.01,2013-06-09 00:11:00,
2013-06-08 20:12:00,69.7,55.7,29.88,WNW,285,0.0,0.0,61,0.00,,---,0.13,VWS V14.01,2013-06-09 00:12:00,
2013-06-08 20:13:00,69.6,55.6,29.88,WNW,285,0.0,0.0,61,0.00,,---,0.13,VWS V14.01,2013-06-09 00:13:00,
2013-06-08 20:14:00,69.5,55.5,29.88,WNW,285,0.0,0.0,61,0.00,,---,0.13,VWS V14.01,2013-06-09 00:14:00,
2013-06-08 20:15:00,69.9,55.4,29.88,WNW,285,0.0,0.0,60,0.00,,---,0.13,VWS V14.01,2013-06-09 00:15:00,
2013-06-08 20:16:00,69.3,56.2,29.88,WNW,285,0.0,0.0,63,0.00,,---,0.13,VWS V14.01,2013-06-09 00:16:00,
2013-06-08 20:17:00,69.2,56.1,29.88,WNW,285,0.0,0.0,63,0.00,,---,0.13,VWS V14.01,2013-06-09 00:17:00,
2013-06-08 20:18:00,69.1,55.5,29.88,WNW,285,0.0,0.0,62,0.00,,---,0.13,VWS V14.01,2013-06-09 00:18:00,
2013-06-08 20:19:00,69.1,55.5,29.88,WNW,285,0.0,0.0,62,0.00,,---,0.13,VWS V14.01,2013-06-09 00:19:00,
2013-06-08 20:20:00,69.7,55.2,29.88,WNW,285,0.0,0.0,60,0.00,,---,0.13,VWS V14.01,2013-06-09 00:20:00,
2013-06-08 20:21:00,69.1,55.5,29.88,WNW,285,0.0,0.0,62,0.00,,---,0.13,VWS V14.01,2013-06-09 00:21:00,
2013-06-08 20:22:00,69.2,55.6,29.88,WNW,285,0.0,0.0,62,0.00,,---,0.13,VWS V14.01,2013-06-09 00:22:00,
2013-06-08 20:23:00,69.1,56.0,29.88,WNW,285,0.0,0.0,63,0.00,,---,0.13,VWS V14.01,2013-06-09 00:23:00,
2013-06-08 20:24:00,69.0,55.9,29.88,WNW,285,0.0,0.0,63,0.00,,---,0.13,VWS V14.01,2013-06-09 00:24:00,
2013-06-08 20:25:00,69.4,56.3,29.88,WNW,285,0.0,0.0,63,0.00,,---,0.13,VWS V14.01,2013-06-09 00:25:00,
2013-06-08 20:26:00,69.0,55.9,29.88,WNW,285,0.0,0.0,63,0.00,,---,0.13,VWS V14.01,2013-06-09 00:26:00,
2013-06-08 20:27:00,69.0,55.5,29.88,WNW,285,0.0,0.0,62,0.00,,---,0.13,VWS V14.01,2013-06-09 00:27:00,
2013-06-08 20:28:00,69.0,55.9,29.88,WNW,285,0.0,0.0,63,0.00,,---,0.13,VWS V14.01,2013-06-09 00:28:00,
2013-06-08 20:29:00,68.9,55.4,29.88,WNW,285,0.0,0.0,62,0.00,,---,0.13,VWS V14.01,2013-06-09 00:29:00,
2013-06-08 20:30:00,69.1,55.1,29.88,WNW,285,0.0,0.0,61,0.00,,---,0.13,VWS V14.01,2013-06-09 00:30:00,
2013-06-08 20:31:00,68.9,55.8,29.88,WNW,285,0.0,0.0,63,0.00,,---,0.13,VWS V14.01,2013-06-09 00:31:00,
2013-06-08 20:32:00,68.9,55.4,29.88,WNW,285,0.0,0.0,62,0.00,,---,0.13,VWS V14.01,2013-06-09 00:32:00,
2013-06-08 20:33:00,68.9,55.8,29.88,WNW,285,0.0,0.0,63,0.00,,---,0.13,VWS V14.01,2013-06-09 00:33:00,
2013-06-08 20:34:00,68.9,55.8,29.88,WNW,285,0.0,0.0,63,0.00,,---,0.13,VWS V14.01,2013-06-09 00:34:00,
2013-06-08 20:35:00,69.0,55.9,29.88,WNW,285,0.0,0.0,63,0.00,,---,0.13,VWS V14.01,2013-06-09 00:35:00,
2013-06-08 20:36:00,68.9,55.4,29.88,WNW,285,0.0,0.0,62,0.00,,---,0.13,VWS V14.01,2013-06-09 00:36:00,
2013-06-08 20:37:00,68.9,55.4,29.88,WNW,285,0.0,0.0,62,0.00,,---,0.13,VWS V14.01,2013-06-09 00:37:00,
2013-06-08 20:38:00,68.9,55.4,29.88,WNW,285,0.0,0.0,62,0.00,,---,0.13,VWS V14.01,2013-06-09 00:38:00,
2013-06-08 20:39:00,68.9,55.8,29.88,WNW,285,0.0,0.0,63,0.00,,---,0.13,VWS V14.01,2013-06-09 00:39:00,
2013-06-08 20:40:00,68.9,55.4,29.88,WNW,285,0.0,0.0,62,0.00,,---,0.13,VWS V14.01,2013-06-09 00:40:00,
2013-06-08 20:41:00,68.8,55.7,29.88,WNW,285,0.0,0.0,63,0.00,,---,0.13,VWS V14.01,2013-06-09 00:41:00,
2013-06-08 20:42:00,68.8,55.7,29.88,WNW,285,0.0,0.0,63,0.00,,---,0.13,VWS V14.01,2013-06-09 00:42:00,
2013-06-08 20:43:00,68.7,55.6,29.88,WNW,285,0.0,0.0,63,0.00,,---,0.13,VWS V14.01,2013-06-09 00:43:00,
2013-06-08 20:44:00,68.7,55.6,29.88,WNW,285,0.0,0.0,63,0.00,,---,0.13,VWS V14.01,2013-06-09 00:44:00,
2013-06-08 20:45:00,68.9,55.4,29.88,WNW,285,0.0,0.0,62,0.00,,---,0.13,VWS V14.01,2013-06-09 00:45:00,
2013-06-08 20:46:00,68.7,55.2,29.88,WNW,285,0.0,0.0,62,0.00,,---,0.13,VWS V14.01,2013-06-09 00:46:00,
2013-06-08 20:47:00,68.7,55.6,29.88,North,359,0.0,0.0,63,0.00,,---,0.13,VWS V14.01,2013-06-09 00:47:00,
2013-06-08 20:48:00,68.7,55.6,29.88,North,359,0.0,0.0,63,0.00,,---,0.13,VWS V14.01,2013-06-09 00:48:00,
2013-06-08 20:49:00,68.7,55.6,29.88,North,359,0.0,0.0,63,0.00,,---,0.13,VWS V14.01,2013-06-09 00:49:00,
2013-06-08 20:50:00,68.8,55.7,29.88,WNW,285,0.0,0.0,63,0.00,,---,0.13,VWS V14.01,2013-06-09 00:50:00,
2013-06-08 20:51:00,68.6,56.0,29.88,North,359,0.0,0.0,64,0.00,,---,0.13,VWS V14.01,2013-06-09 00:51:00,
2013-06-08 20:52:00,68.6,55.5,29.88,North,359,0.0,0.0,63,0.00,,---,0.13,VWS V14.01,2013-06-09 00:52:00,
2013-06-08 20:53:00,68.5,55.4,29.88,North,359,0.0,0.0,63,0.00,,---,0.13,VWS V14.01,2013-06-09 00:53:00,
2013-06-08 20:54:00,68.5,55.9,29.88,North,359,0.0,0.0,64,0.00,,---,0.13,VWS V14.01,2013-06-09 00:54:00,
2013-06-08 20:55:00,68.7,55.6,29.88,WNW,285,0.0,0.0,63,0.00,,---,0.13,VWS V14.01,2013-06-09 00:55:00,
2013-06-08 20:56:00,68.4,55.8,29.88,North,359,0.0,0.0,64,0.00,,---,0.13,VWS V14.01,2013-06-09 00:56:00,
2013-06-08 20:57:00,68.3,56.1,29.88,North,359,0.0,0.0,65,0.00,,---,0.13,VWS V14.01,2013-06-09 00:57:00,
2013-06-08 20:58:00,68.3,55.7,29.88,North,359,0.0,0.0,64,0.00,,---,0.13,VWS V14.01,2013-06-09 00:58:00,
2013-06-08 20:59:00,68.2,55.6,29.89,North,359,0.0,0.0,64,0.00,,---,0.13,VWS V14.01,2013-06-09 00:59:00,
2013-06-08 21:00:00,68.6,55.5,29.88,North,359,0.0,0.0,63,0.00,,---,0.13,VWS V14.01,2013-06-09 01:00:00,
2013-06-08 21:01:00,68.2,56.8,29.89,North,359,0.0,0.0,67,0.00,,---,0.13,VWS V14.01,2013-06-09 01:01:00,
2013-06-08 21:02:00,68.2,56.0,29.89,North,359,0.0,0.0,65,0.00,,---,0.13,VWS V14.01,2013-06-09 01:02:00,
2013-06-08 21:03:00,68.2,55.6,29.89,North,359,0.0,0.0,64,0.00,,---,0.13,VWS V14.01,2013-06-09 01:03:00,
2013-06-08 21:04:00,68.2,55.6,29.89,North,359,0.0,0.0,64,0.00,,---,0.13,VWS V14.01,2013-06-09 01:04:00,
2013-06-08 21:05:00,68.4,55.8,29.88,North,359,0.0,0.0,64,0.00,,---,0.13,VWS V14.01,2013-06-09 01:05:00,
2013-06-08 21:06:00,68.2,56.0,29.89,North,359,0.0,0.0,65,0.00,,---,0.13,VWS V14.01,2013-06-09 01:06:00,
2013-06-08 21:07:00,68.1,55.9,29.89,North,359,0.0,0.0,65,0.00,,---,0.13,VWS V14.01,2013-06-09 01:07:00,
2013-06-08 21:08:00,68.1,55.9,29.89,North,359,0.0,0.0,65,0.00,,---,0.13,VWS V14.01,2013-06-09 01:08:00,
2013-06-08 21:09:00,68.0,55.4,29.89,North,359,0.0,0.0,64,0.00,,---,0.13,VWS V14.01,2013-06-09 01:09:00,
2013-06-08 21:10:00,68.2,55.6,29.89,North,359,0.0,0.0,64,0.00,,---,0.13,VWS V14.01,2013-06-09 01:10:00,
2013-06-08 21:11:00,68.0,55.4,29.89,North,359,0.0,0.0,64,0.00,,---,0.13,VWS V14.01,2013-06-09 01:11:00,
2013-06-08 21:12:00,68.0,55.4,29.89,North,359,0.0,0.0,64,0.00,,---,0.13,VWS V14.01,2013-06-09 01:12:00,
2013-06-08 21:13:00,68.0,55.8,29.89,North,359,0.0,0.0,65,0.00,,---,0.13,VWS V14.01,2013-06-09 01:13:00,
2013-06-08 21:14:00,67.9,55.3,29.88,North,359,0.0,0.0,64,0.00,,---,0.13,VWS V14.01,2013-06-09 01:14:00,
2013-06-08 21:15:00,68.2,56.0,29.89,North,359,0.0,0.0,65,0.00,,---,0.13,VWS V14.01,2013-06-09 01:15:00,
2013-06-08 21:16:00,67.7,55.1,29.88,North,359,0.0,0.0,64,0.00,,---,0.13,VWS V14.01,2013-06-09 01:16:00,
2013-06-08 21:17:00,67.7,55.1,29.88,North,359,0.0,0.0,64,0.00,,---,0.13,VWS V14.01,2013-06-09 01:17:00,
2013-06-08 21:18:00,67.6,55.0,29.88,North,359,0.0,0.0,64,0.00,,---,0.13,VWS V14.01,2013-06-09 01:18:00,
2013-06-08 21:19:00,67.6,55.4,29.88,North,359,0.0,0.0,65,0.00,,---,0.13,VWS V14.01,2013-06-09 01:19:00,
2013-06-08 21:20:00,68.0,55.4,29.89,North,359,0.0,0.0,64,0.00,,---,0.13,VWS V14.01,2013-06-09 01:20:00,
2013-06-08 21:21:00,67.4,55.2,29.88,North,359,0.0,0.0,65,0.00,,---,0.13,VWS V14.01,2013-06-09 01:21:00,
2013-06-08 21:22:00,67.3,55.2,29.88,North,359,0.0,0.0,65,0.00,,---,0.13,VWS V14.01,2013-06-09 01:22:00,
2013-06-08 21:23:00,67.2,55.5,29.88,North,359,0.0,0.0,66,0.00,,---,0.13,VWS V14.01,2013-06-09 01:23:00,
2013-06-08 21:24:00,67.1,55.4,29.88,North,359,0.0,0.0,66,0.00,,---,0.13,VWS V14.01,2013-06-09 01:24:00,
2013-06-08 21:25:00,67.8,55.2,29.88,North,359,0.0,0.0,64,0.00,,---,0.13,VWS V14.01,2013-06-09 01:25:00,
2013-06-08 21:26:00,67.0,55.3,29.88,North,359,0.0,0.0,66,0.00,,---,0.13,VWS V14.01,2013-06-09 01:26:00,
2013-06-08 21:27:00,66.9,55.2,29.88,North,359,0.0,0.0,66,0.00,,---,0.13,VWS V14.01,2013-06-09 01:27:00,
2013-06-08 21:28:00,66.9,55.6,29.88,North,359,0.0,0.0,67,0.00,,---,0.13,VWS V14.01,2013-06-09 01:28:00,
2013-06-08 21:29:00,66.8,55.5,29.89,North,359,0.0,0.0,67,0.00,,---,0.13,VWS V14.01,2013-06-09 01:29:00,
2013-06-08 21:30:00,67.5,55.3,29.88,North,359,0.0,0.0,65,0.00,,---,0.13,VWS V14.01,2013-06-09 01:30:00,
2013-06-08 21:31:00,66.7,55.4,29.89,North,359,0.0,0.0,67,0.00,,---,0.13,VWS V14.01,2013-06-09 01:31:00,
2013-06-08 21:32:00,66.7,55.4,29.89,North,359,0.0,0.0,67,0.00,,---,0.13,VWS V14.01,2013-06-09 01:32:00,
2013-06-08 21:33:00,66.6,55.3,29.89,North,359,0.0,0.0,67,0.00,,---,0.13,VWS V14.01,2013-06-09 01:33:00,
2013-06-08 21:34:00,66.6,55.3,29.89,North,359,0.0,0.0,67,0.00,,---,0.13,VWS V14.01,2013-06-09 01:34:00,
2013-06-08 21:35:00,67.0,55.3,29.88,North,359,0.0,0.0,66,0.00,,---,0.13,VWS V14.01,2013-06-09 01:35:00,
2013-06-08 21:36:00,66.6,55.3,29.89,North,359,0.0,0.0,67,0.00,,---,0.13,VWS V14.01,2013-06-09 01:36:00,
2013-06-08 21:37:00,66.6,55.3,29.89,North,359,0.0,0.0,67,0.00,,---,0.13,VWS V14.01,2013-06-09 01:37:00,
2013-06-08 21:38:00,66.6,55.3,29.89,North,359,0.0,0.0,67,0.00,,---,0.13,VWS V14.01,2013-06-09 01:38:00,
2013-06-08 21:39:00,66.6,55.3,29.89,North,359,0.0,0.0,67,0.00,,---,0.13,VWS V14.01,2013-06-09 01:39:00,
2013-06-08 21:40:00,66.8,55.5,29.89,North,359,0.0,0.0,67,0.00,,---,0.13,VWS V14.01,2013-06-09 01:40:00,
2013-06-08 21:41:00,66.6,55.7,29.89,North,359,0.0,0.0,68,0.00,,---,0.13,VWS V14.01,2013-06-09 01:41:00,
2013-06-08 21:42:00,66.6,55.7,29.89,North,359,0.0,0.0,68,0.00,,---,0.13,VWS V14.01,2013-06-09 01:42:00,
2013-06-08 21:43:00,66.6,55.7,29.89,North,359,0.0,0.0,68,0.00,,---,0.13,VWS V14.01,2013-06-09 01:43:00,
2013-06-08 21:44:00,66.6,55.7,29.89,North,359,0.0,0.0,68,0.00,,---,0.13,VWS V14.01,2013-06-09 01:44:00,
2013-06-08 21:45:00,66.6,55.3,29.89,North,359,0.0,0.0,67,0.00,,---,0.13,VWS V14.01,2013-06-09 01:45:00,
2013-06-08 21:46:00,66.7,56.2,29.89,North,359,0.0,0.0,69,0.00,,---,0.13,VWS V14.01,2013-06-09 01:46:00,
2013-06-08 21:47:00,66.8,56.3,29.89,North,359,0.0,0.0,69,0.00,,---,0.13,VWS V14.01,2013-06-09 01:47:00,
2013-06-08 21:48:00,66.8,57.5,29.89,North,359,0.0,0.0,72,0.00,,---,0.13,VWS V14.01,2013-06-09 01:48:00,
2013-06-08 21:49:00,66.7,57.4,29.89,North,359,0.0,0.0,72,0.00,,---,0.13,VWS V14.01,2013-06-09 01:49:00,
2013-06-08 21:50:00,66.6,55.7,29.89,North,359,0.0,0.0,68,0.00,,---,0.13,VWS V14.01,2013-06-09 01:50:00,
2013-06-08 21:51:00,66.6,57.3,29.89,North,359,0.0,0.0,72,0.00,,---,0.13,VWS V14.01,2013-06-09 01:51:00,
2013-06-08 21:52:00,66.5,56.8,29.89,North,359,0.0,0.0,71,0.00,,---,0.13,VWS V14.01,2013-06-09 01:52:00,
2013-06-08 21:53:00,66.5,57.2,29.89,North,359,0.0,0.0,72,0.00,,---,0.13,VWS V14.01,2013-06-09 01:53:00,
2013-06-08 21:54:00,66.4,57.1,29.89,North,359,0.0,0.0,72,0.00,,---,0.13,VWS V14.01,2013-06-09 01:54:00,
2013-06-08 21:55:00,66.7,55.8,29.89,North,359,0.0,0.0,68,0.00,,---,0.13,VWS V14.01,2013-06-09 01:55:00,
2013-06-08 21:56:00,66.3,56.6,29.89,North,359,0.0,0.0,71,0.00,,---,0.13,VWS V14.01,2013-06-09 01:56:00,
2013-06-08 21:57:00,66.3,56.6,29.89,North,359,0.0,0.0,71,0.00,,---,0.13,VWS V14.01,2013-06-09 01:57:00,
2013-06-08 21:58:00,66.3,56.2,29.89,North,359,0.0,0.0,70,0.00,,---,0.13,VWS V14.01,2013-06-09 01:58:00,
2013-06-08 21:59:00,66.3,56.2,29.90,North,359,0.0,0.0,70,0.00,,---,0.13,VWS V14.01,2013-06-09 01:59:00,
2013-06-08 22:00:00,66.6,57.3,29.89,North,359,0.0,0.0,72,0.00,,---,0.13,VWS V14.01,2013-06-09 02:00:00,
2013-06-08 22:01:00,66.3,55.4,29.90,North,359,0.0,0.0,68,0.00,,---,0.13,VWS V14.01,2013-06-09 02:01:00,
2013-06-08 22:02:00,66.2,55.3,29.90,North,359,0.0,0.0,68,0.00,,---,0.13,VWS V14.01,2013-06-09 02:02:00,
2013-06-08 22:03:00,66.2,55.7,29.90,North,359,0.0,0.0,69,0.00,,---,0.13,VWS V14.01,2013-06-09 02:03:00,
2013-06-08 22:04:00,66.1,56.0,29.90,North,359,0.0,0.0,70,0.00,,---,0.13,VWS V14.01,2013-06-09 02:04:00,
2013-06-08 22:05:00,66.3,56.6,29.89,North,359,0.0,0.0,71,0.00,,---,0.13,VWS V14.01,2013-06-09 02:05:00,
2013-06-08 22:06:00,65.9,55.5,29.90,North,359,0.0,0.0,69,0.00,,---,0.13,VWS V14.01,2013-06-09 02:06:00,
2013-06-08 22:07:00,65.9,55.8,29.90,North,359,0.0,0.0,70,0.00,,---,0.13,VWS V14.01,2013-06-09 02:07:00,
2013-06-08 22:08:00,65.8,55.8,29.90,North,359,0.0,0.0,70,0.00,,---,0.13,VWS V14.01,2013-06-09 02:08:00,
2013-06-08 22:09:00,65.8,55.8,29.90,North,359,0.0,0.0,70,0.00,,---,0.13,VWS V14.01,2013-06-09 02:09:00,
2013-06-08 22:10:00,66.3,55.4,29.90,North,359,0.0,0.0,68,0.00,,---,0.13,VWS V14.01,2013-06-09 02:10:00,
2013-06-08 22:11:00,65.7,55.7,29.90,North,359,0.0,0.0,70,0.00,,---,0.13,VWS V14.01,2013-06-09 02:11:00,
2013-06-08 22:12:00,65.7,55.7,29.90,North,359,0.0,0.0,70,0.00,,---,0.13,VWS V14.01,2013-06-09 02:12:00,
2013-06-08 22:13:00,65.6,56.0,29.90,North,359,0.0,0.0,71,0.00,,---,0.13,VWS V14.01,2013-06-09 02:13:00,
2013-06-08 22:14:00,65.6,56.0,29.90,North,359,0.0,0.0,71,0.00,,---,0.13,VWS V14.01,2013-06-09 02:14:00,
2013-06-08 22:15:00,66.0,56.0,29.90,North,359,0.0,0.0,70,0.00,,---,0.13,VWS V14.01,2013-06-09 02:15:00,
2013-06-08 22:16:00,65.6,56.0,29.90,North,359,0.0,0.0,71,0.00,,---,0.13,VWS V14.01,2013-06-09 02:16:00,
2013-06-08 22:17:00,65.6,56.0,29.90,North,359,0.0,0.0,71,0.00,,---,0.13,VWS V14.01,2013-06-09 02:17:00,
2013-06-08 22:18:00,65.6,56.0,29.90,North,359,0.0,0.0,71,0.00,,---,0.13,VWS V14.01,2013-06-09 02:18:00,
2013-06-08 22:19:00,65.6,56.0,29.90,North,359,0.0,0.0,71,0.00,,---,0.13,VWS V14.01,2013-06-09 02:19:00,
2013-06-08 22:20:00,65.7,56.0,29.90,North,359,0.0,0.0,71,0.00,,---,0.13,VWS V14.01,2013-06-09 02:20:00,
2013-06-08 22:21:00,65.6,56.0,29.90,North,359,0.0,0.0,71,0.00,,---,0.13,VWS V14.01,2013-06-09 02:21:00,
2013-06-08 22:22:00,65.6,56.0,29.90,North,359,0.0,0.0,71,0.00,,---,0.13,VWS V14.01,2013-06-09 02:22:00,
2013-06-08 22:23:00,65.6,55.6,29.90,North,359,0.0,0.0,70,0.00,,---,0.13,VWS V14.01,2013-06-09 02:23:00,
2013-06-08 22:24:00,65.6,56.0,29.90,North,359,0.0,0.0,71,0.00,,---,0.13,VWS V14.01,2013-06-09 02:24:00,
2013-06-08 22:25:00,65.6,56.0,29.90,North,359,0.0,0.0,71,0.00,,---,0.13,VWS V14.01,2013-06-09 02:25:00,
2013-06-08 22:26:00,65.6,55.6,29.90,North,359,0.0,0.0,70,0.00,,---,0.13,VWS V14.01,2013-06-09 02:26:00,
2013-06-08 22:27:00,65.5,55.5,29.90,North,359,0.0,0.0,70,0.00,,---,0.13,VWS V14.01,2013-06-09 02:27:00,
2013-06-08 22:28:00,65.5,55.5,29.90,North,359,0.0,0.0,70,0.00,,---,0.13,VWS V14.01,2013-06-09 02:28:00,
2013-06-08 22:29:00,65.4,55.4,29.90,North,359,0.0,0.0,70,0.00,,---,0.13,VWS V14.01,2013-06-09 02:29:00,
2013-06-08 22:30:00,65.6,56.0,29.90,North,359,0.0,0.0,71,0.00,,---,0.13,VWS V14.01,2013-06-09 02:30:00,
2013-06-08 22:31:00,65.4,55.4,29.90,North,359,0.0,0.0,70,0.00,,---,0.13,VWS V14.01,2013-06-09 02:31:00,
2013-06-08 22:32:00,65.3,55.3,29.90,North,359,0.0,0.0,70,0.00,,---,0.13,VWS V14.01,2013-06-09 02:32:00,
2013-06-08 22:33:00,65.3,55.3,29.90,North,359,0.0,0.0,70,0.00,,---,0.13,VWS V14.01,2013-06-09 02:33:00,
2013-06-08 22:34:00,65.3,55.3,29.90,North,359,0.0,0.0,70,0.00,,---,0.13,VWS V14.01,2013-06-09 02:34:00,
2013-06-08 22:35:00,65.6,55.6,29.90,North,359,0.0,0.0,70,0.00,,---,0.13,VWS V14.01,2013-06-09 02:35:00,
2013-06-08 22:36:00,65.3,55.3,29.90,North,359,0.0,0.0,70,0.00,,---,0.13,VWS V14.01,2013-06-09 02:36:00,
2013-06-08 22:37:00,65.2,55.2,29.90,North,359,0.0,0.0,70,0.00,,---,0.13,VWS V14.01,2013-06-09 02:37:00,
2013-06-08 22:38:00,65.2,55.2,29.90,North,359,0.0,0.0,70,0.00,,---,0.13,VWS V14.01,2013-06-09 02:38:00,
2013-06-08 22:39:00,65.2,55.2,29.90,North,359,0.0,0.0,70,0.00,,---,0.13,VWS V14.01,2013-06-09 02:39:00,
2013-06-08 22:40:00,65.4,55.4,29.90,North,359,0.0,0.0,70,0.00,,---,0.13,VWS V14.01,2013-06-09 02:40:00,
2013-06-08 22:41:00,65.1,55.5,29.90,North,359,0.0,0.0,71,0.00,,---,0.13,VWS V14.01,2013-06-09 02:41:00,
2013-06-08 22:42:00,65.0,55.4,29.90,North,359,0.0,0.0,71,0.00,,---,0.13,VWS V14.01,2013-06-09 02:42:00,
2013-06-08 22:43:00,64.9,55.3,29.90,North,359,0.0,0.0,71,0.00,,---,0.13,VWS V14.01,2013-06-09 02:43:00,
2013-06-08 22:44:00,64.8,55.2,29.91,North,359,0.0,0.0,71,0.00,,---,0.13,VWS V14.01,2013-06-09 02:44:00,
2013-06-08 22:45:00,65.3,55.3,29.90,North,359,0.0,0.0,70,0.00,,---,0.13,VWS V14.01,2013-06-09 02:45:00,
2013-06-08 22:46:00,64.7,55.1,29.91,North,359,0.0,0.0,71,0.00,,---,0.13,VWS V14.01,2013-06-09 02:46:00,
2013-06-08 22:47:00,64.6,55.0,29.91,North,359,0.0,0.0,71,0.00,,---,0.13,VWS V14.01,2013-06-09 02:47:00,
2013-06-08 22:48:00,64.6,55.0,29.91,North,359,0.0,0.0,71,0.00,,---,0.13,VWS V14.01,2013-06-09 02:48:00,
2013-06-08 22:49:00,64.5,54.9,29.91,North,359,0.0,0.0,71,0.00,,---,0.13,VWS V14.01,2013-06-09 02:49:00,
2013-06-08 22:50:00,65.1,55.1,29.90,North,359,0.0,0.0,70,0.00,,---,0.13,VWS V14.01,2013-06-09 02:50:00,
2013-06-08 22:51:00,64.4,55.2,29.91,North,359,0.0,0.0,72,0.00,,---,0.13,VWS V14.01,2013-06-09 02:51:00,
2013-06-08 22:52:00,64.4,55.2,29.91,North,359,0.0,0.0,72,0.00,,---,0.13,VWS V14.01,2013-06-09 02:52:00,
2013-06-08 22:53:00,64.3,55.5,29.91,North,359,0.0,0.0,73,0.00,,---,0.13,VWS V14.01,2013-06-09 02:53:00,
2013-06-08 22:54:00,64.2,55.0,29.91,North,359,0.0,0.0,72,0.00,,---,0.13,VWS V14.01,2013-06-09 02:54:00,
2013-06-08 22:55:00,64.7,55.1,29.91,North,359,0.0,0.0,71,0.00,,---,0.13,VWS V14.01,2013-06-09 02:55:00,
2013-06-08 22:56:00,64.1,55.3,29.91,North,359,0.0,0.0,73,0.00,,---,0.13,VWS V14.01,2013-06-09 02:56:00,
2013-06-08 22:57:00,64.0,55.2,29.91,North,359,0.0,0.0,73,0.00,,---,0.13,VWS V14.01,2013-06-09 02:57:00,
2013-06-08 22:58:00,63.9,55.1,29.91,North,359,0.0,0.0,73,0.00,,---,0.13,VWS V14.01,2013-06-09 02:58:00,
2013-06-08 22:59:00,63.9,55.1,29.91,North,359,0.0,0.0,73,0.00,,---,0.13,VWS V14.01,2013-06-09 02:59:00,
2013-06-08 23:00:00,64.5,54.9,29.91,North,359,0.0,0.0,71,0.00,,---,0.13,VWS V14.01,2013-06-09 03:00:00,
2013-06-08 23:01:00,63.6,54.8,29.91,North,359,0.0,0.0,73,0.00,,---,0.13,VWS V14.01,2013-06-09 03:01:00,
2013-06-08 23:02:00,63.6,54.8,29.91,North,359,0.0,0.0,73,0.00,,---,0.13,VWS V14.01,2013-06-09 03:02:00,
2013-06-08 23:03:00,63.5,55.1,29.91,North,359,0.0,0.0,74,0.00,,---,0.13,VWS V14.01,2013-06-09 03:03:00,
2013-06-08 23:04:00,63.4,55.0,29.91,North,359,0.0,0.0,74,0.00,,---,0.13,VWS V14.01,2013-06-09 03:04:00,
2013-06-08 23:05:00,64.1,55.3,29.91,North,359,0.0,0.0,73,0.00,,---,0.13,VWS V14.01,2013-06-09 03:05:00,
2013-06-08 23:06:00,63.4,55.0,29.91,North,359,0.0,0.0,74,0.00,,---,0.13,VWS V14.01,2013-06-09 03:06:00,
2013-06-08 23:07:00,63.3,54.9,29.91,North,359,0.0,0.0,74,0.00,,---,0.13,VWS V14.01,2013-06-09 03:07:00,
2013-06-08 23:08:00,63.3,54.9,29.91,North,359,0.0,0.0,74,0.00,,---,0.13,VWS V14.01,2013-06-09 03:08:00,
2013-06-08 23:09:00,63.2,54.8,29.91,North,359,0.0,0.0,74,0.00,,---,0.13,VWS V14.01,2013-06-09 03:09:00,
2013-06-08 23:10:00,63.8,55.0,29.91,North,359,0.0,0.0,73,0.00,,---,0.13,VWS V14.01,2013-06-09 03:10:00,
2013-06-08 23:11:00,63.2,55.2,29.91,North,359,0.0,0.0,75,0.00,,---,0.13,VWS V14.01,2013-06-09 03:11:00,
2013-06-08 23:12:00,63.1,55.1,29.91,North,359,0.0,0.0,75,0.00,,---,0.13,VWS V14.01,2013-06-09 03:12:00,
2013-06-08 23:13:00,63.1,55.1,29.91,North,359,0.0,0.0,75,0.00,,---,0.13,VWS V14.01,2013-06-09 03:13:00,
2013-06-08 23:14:00,63.0,55.0,29.91,North,359,0.0,0.0,75,0.00,,---,0.13,VWS V14.01,2013-06-09 03:14:00,
2013-06-08 23:15:00,63.4,55.0,29.91,North,359,0.0,0.0,74,0.00,,---,0.13,VWS V14.01,2013-06-09 03:15:00,
2013-06-08 23:16:00,63.0,55.0,29.91,North,359,0.0,0.0,75,0.00,,---,0.13,VWS V14.01,2013-06-09 03:16:00,
2013-06-08 23:17:00,62.9,55.2,29.91,North,359,0.0,0.0,76,0.00,,---,0.13,VWS V14.01,2013-06-09 03:17:00,
2013-06-08 23:18:00,62.9,55.2,29.91,North,359,0.0,0.0,76,0.00,,---,0.13,VWS V14.01,2013-06-09 03:18:00,
2013-06-08 23:19:00,62.9,55.2,29.91,North,359,0.0,0.0,76,0.00,,---,0.13,VWS V14.01,2013-06-09 03:19:00,
2013-06-08 23:20:00,63.2,54.8,29.91,North,359,0.0,0.0,74,0.00,,---,0.13,VWS V14.01,2013-06-09 03:20:00,
2013-06-08 23:21:00,62.8,55.1,29.91,North,359,0.0,0.0,76,0.00,,---,0.13,VWS V14.01,2013-06-09 03:21:00,
2013-06-08 23:22:00,62.8,55.1,29.91,North,359,0.0,0.0,76,0.00,,---,0.13,VWS V14.01,2013-06-09 03:22:00,
2013-06-08 23:23:00,62.7,55.4,29.91,North,359,0.0,0.0,77,0.00,,---,0.13,VWS V14.01,2013-06-09 03:23:00,
2013-06-08 23:24:00,62.7,55.4,29.91,North,359,0.0,0.0,77,0.00,,---,0.13,VWS V14.01,2013-06-09 03:24:00,
2013-06-08 23:25:00,63.0,55.0,29.91,North,359,0.0,0.0,75,0.00,,---,0.13,VWS V14.01,2013-06-09 03:25:00,
2013-06-08 23:26:00,62.5,55.2,29.91,North,359,0.0,0.0,77,0.00,,---,0.13,VWS V14.01,2013-06-09 03:26:00,
2013-06-08 23:27:00,62.4,55.1,29.91,North,359,0.0,0.0,77,0.00,,---,0.13,VWS V14.01,2013-06-09 03:27:00,
2013-06-08 23:28:00,62.3,55.0,29.91,North,359,0.0,0.0,77,0.00,,---,0.13,VWS V14.01,2013-06-09 03:28:00,
2013-06-08 23:29:00,62.3,55.0,29.91,North,359,0.0,0.0,77,0.00,,---,0.13,VWS V14.01,2013-06-09 03:29:00,
2013-06-08 23:30:00,62.9,55.2,29.91,North,359,0.0,0.0,76,0.00,,---,0.13,VWS V14.01,2013-06-09 03:30:00,
2013-06-08 23:31:00,62.2,54.9,29.91,North,359,0.0,0.0,77,0.00,,---,0.13,VWS V14.01,2013-06-09 03:31:00,
2013-06-08 23:32:00,62.2,54.9,29.91,North,359,0.0,0.0,77,0.00,,---,0.13,VWS V14.01,2013-06-09 03:32:00,
2013-06-08 23:33:00,62.2,54.9,29.91,North,359,0.0,0.0,77,0.00,,---,0.13,VWS V14.01,2013-06-09 03:33:00,
2013-06-08 23:34:00,62.2,54.9,29.91,North,359,0.0,0.0,77,0.00,,---,0.13,VWS V14.01,2013-06-09 03:34:00,
2013-06-08 23:35:00,62.6,55.3,29.91,North,359,0.0,0.0,77,0.00,,---,0.13,VWS V14.01,2013-06-09 03:35:00,
2013-06-08 23:36:00,62.2,55.6,29.91,North,359,0.0,0.0,79,0.00,,---,0.13,VWS V14.01,2013-06-09 03:36:00,
2013-06-08 23:37:00,62.1,55.5,29.91,North,359,0.0,0.0,79,0.00,,---,0.13,VWS V14.01,2013-06-09 03:37:00,
2013-06-08 23:38:00,62.0,55.4,29.91,North,359,0.0,0.0,79,0.00,,---,0.13,VWS V14.01,2013-06-09 03:38:00,
2013-06-08 23:39:00,62.0,55.4,29.91,North,359,0.0,0.0,79,0.00,,---,0.13,VWS V14.01,2013-06-09 03:39:00,
2013-06-08 23:40:00,62.3,55.0,29.91,North,359,0.0,0.0,77,0.00,,---,0.13,VWS V14.01,2013-06-09 03:40:00,
2013-06-08 23:41:00,61.8,55.2,29.91,North,359,0.0,0.0,79,0.00,,---,0.13,VWS V14.01,2013-06-09 03:41:00,
2013-06-08 23:42:00,61.8,55.2,29.91,North,359,0.0,0.0,79,0.00,,---,0.13,VWS V14.01,2013-06-09 03:42:00,
2013-06-08 23:43:00,61.8,55.6,29.91,North,359,0.0,0.0,80,0.00,,---,0.13,VWS V14.01,2013-06-09 03:43:00,
2013-06-08 23:44:00,61.7,55.1,29.91,North,359,0.0,0.0,79,0.00,,---,0.13,VWS V14.01,2013-06-09 03:44:00,
2013-06-08 23:45:00,62.2,55.3,29.91,North,359,0.0,0.0,78,0.00,,---,0.13,VWS V14.01,2013-06-09 03:45:00,
2013-06-08 23:46:00,61.7,55.5,29.91,North,359,0.0,0.0,80,0.00,,---,0.13,VWS V14.01,2013-06-09 03:46:00,
2013-06-08 23:47:00,61.6,55.4,29.91,North,359,0.0,0.0,80,0.00,,---,0.13,VWS V14.01,2013-06-09 03:47:00,
2013-06-08 23:48:00,61.6,55.4,29.91,North,359,0.0,0.0,80,0.00,,---,0.13,VWS V14.01,2013-06-09 03:48:00,
2013-06-08 23:49:00,61.6,55.4,29.91,North,359,0.0,0.0,80,0.00,,---,0.13,VWS V14.01,2013-06-09 03:49:00,
2013-06-08 23:50:00,61.9,55.3,29.91,North,359,0.0,0.0,79,0.00,,---,0.13,VWS V14.01,2013-06-09 03:50:00,
2013-06-08 23:51:00,61.5,55.6,29.91,North,359,0.0,0.0,81,0.00,,---,0.13,VWS V14.01,2013-06-09 03:51:00,
2013-06-08 23:52:00,61.5,55.6,29.91,North,359,0.0,0.0,81,0.00,,---,0.13,VWS V14.01,2013-06-09 03:52:00,
2013-06-08 23:53:00,61.4,55.5,29.91,North,359,0.0,0.0,81,0.00,,---,0.13,VWS V14.01,2013-06-09 03:53:00,
2013-06-08 23:54:00,61.4,55.9,29.91,North,359,0.0,0.0,82,0.00,,---,0.13,VWS V14.01,2013-06-09 03:54:00,
2013-06-08 23:55:00,61.7,55.5,29.91,North,359,0.0,0.0,80,0.00,,---,0.13,VWS V14.01,2013-06-09 03:55:00,
2013-06-08 23:56:00,61.4,55.9,29.91,North,359,0.0,0.0,82,0.00,,---,0.13,VWS V14.01,2013-06-09 03:56:00,
2013-06-08 23:57:00,61.3,56.1,29.91,North,359,0.0,0.0,83,0.00,,---,0.13,VWS V14.01,2013-06-09 03:57:00,
2013-06-08 23:58:00,61.2,56.3,29.91,North,359,0.0,0.0,84,0.00,,---,0.13,VWS V14.01,2013-06-09 03:58:00,
2013-06-08 23:59:00,61.2,56.3,29.91,North,359,0.0,0.0,84,0.00,,---,0.13,VWS V14.01,2013-06-09 03:59:00,